<?xml version="1.0" encoding="UTF-8" standalone="no" ?>
<gpx xmlns="http://www.topografix.com/GPX/1/1" xmlns:xsi="http://www.w3.org/2001/XMLSchema-instance" xsi:schemaLocation="http://www.topografix.com/GPX/1/1 http://www.topografix.com/GPX/1/1/gpx.xsd" version="1.1" creator="VisuGPX - https://www.visugpx.com">
  <metadata>
    <name>2021-10-13-14-53-42 on AllTrails</name>
  </metadata>
  <trk>
    <name><![CDATA[2021-10-13-14-53-42 on AllTrails]]></name>
    <extensions>
      <line xmlns="http://www.topografix.com/GPX/gpx_style/0/2">
        <color>0000FF</color>
        <width>4</width>
      </line>
    </extensions>
    <trkseg>
      <trkpt lat="47.47049" lon="-1.02927">
        <ele>61</ele>
        <time>2021-10-13T12:53:42Z</time>
      </trkpt>
      <trkpt lat="47.47022" lon="-1.0291">
        <ele>60</ele>
        <time>2021-10-13T12:55:39Z</time>
      </trkpt>
      <trkpt lat="47.47018" lon="-1.02915">
        <ele>60</ele>
        <time>2021-10-13T12:55:41Z</time>
      </trkpt>
      <trkpt lat="47.47007" lon="-1.02922">
        <ele>60</ele>
        <time>2021-10-13T12:55:45Z</time>
      </trkpt>
      <trkpt lat="47.47004" lon="-1.02924">
        <ele>60</ele>
        <time>2021-10-13T12:55:46Z</time>
      </trkpt>
      <trkpt lat="47.46987" lon="-1.02939">
        <ele>60</ele>
        <time>2021-10-13T12:55:52Z</time>
      </trkpt>
      <trkpt lat="47.4697" lon="-1.02945">
        <ele>59</ele>
        <time>2021-10-13T12:55:57Z</time>
      </trkpt>
      <trkpt lat="47.46936" lon="-1.02947">
        <ele>59</ele>
        <time>2021-10-13T12:56:05Z</time>
      </trkpt>
      <trkpt lat="47.46927" lon="-1.02946">
        <ele>59</ele>
        <time>2021-10-13T12:56:07Z</time>
      </trkpt>
      <trkpt lat="47.46903" lon="-1.02946">
        <ele>58</ele>
        <time>2021-10-13T12:56:13Z</time>
      </trkpt>
      <trkpt lat="47.46871" lon="-1.0295">
        <ele>58</ele>
        <time>2021-10-13T12:56:21Z</time>
      </trkpt>
      <trkpt lat="47.46833" lon="-1.02946">
        <ele>59</ele>
        <time>2021-10-13T12:56:31Z</time>
      </trkpt>
      <trkpt lat="47.46809" lon="-1.02942">
        <ele>60</ele>
        <time>2021-10-13T12:56:38Z</time>
      </trkpt>
      <trkpt lat="47.46785" lon="-1.02936">
        <ele>61</ele>
        <time>2021-10-13T12:56:46Z</time>
      </trkpt>
      <trkpt lat="47.46783" lon="-1.02936">
        <ele>61</ele>
        <time>2021-10-13T12:56:47Z</time>
      </trkpt>
      <trkpt lat="47.46777" lon="-1.02947">
        <ele>61</ele>
        <time>2021-10-13T12:56:52Z</time>
      </trkpt>
      <trkpt lat="47.46776" lon="-1.02958">
        <ele>61</ele>
        <time>2021-10-13T12:56:55Z</time>
      </trkpt>
      <trkpt lat="47.46775" lon="-1.02969">
        <ele>61</ele>
        <time>2021-10-13T12:56:58Z</time>
      </trkpt>
      <trkpt lat="47.46775" lon="-1.02971">
        <ele>61</ele>
        <time>2021-10-13T12:56:59Z</time>
      </trkpt>
      <trkpt lat="47.46776" lon="-1.0298">
        <ele>61</ele>
        <time>2021-10-13T12:57:02Z</time>
      </trkpt>
      <trkpt lat="47.46776" lon="-1.03011">
        <ele>61</ele>
        <time>2021-10-13T12:57:08Z</time>
      </trkpt>
      <trkpt lat="47.46776" lon="-1.03071">
        <ele>61</ele>
        <time>2021-10-13T12:57:18Z</time>
      </trkpt>
      <trkpt lat="47.46777" lon="-1.03136">
        <ele>61</ele>
        <time>2021-10-13T12:57:28Z</time>
      </trkpt>
      <trkpt lat="47.46777" lon="-1.03178">
        <ele>61</ele>
        <time>2021-10-13T12:57:35Z</time>
      </trkpt>
      <trkpt lat="47.46774" lon="-1.03239">
        <ele>61</ele>
        <time>2021-10-13T12:57:44Z</time>
      </trkpt>
      <trkpt lat="47.46772" lon="-1.03288">
        <ele>61</ele>
        <time>2021-10-13T12:57:51Z</time>
      </trkpt>
      <trkpt lat="47.46772" lon="-1.03296">
        <ele>61</ele>
        <time>2021-10-13T12:57:52Z</time>
      </trkpt>
      <trkpt lat="47.46779" lon="-1.03316">
        <ele>60</ele>
        <time>2021-10-13T12:57:55Z</time>
      </trkpt>
      <trkpt lat="47.46798" lon="-1.03332">
        <ele>60</ele>
        <time>2021-10-13T12:57:59Z</time>
      </trkpt>
      <trkpt lat="47.46825" lon="-1.03349">
        <ele>60</ele>
        <time>2021-10-13T12:58:05Z</time>
      </trkpt>
      <trkpt lat="47.46862" lon="-1.03372">
        <ele>61</ele>
        <time>2021-10-13T12:58:13Z</time>
      </trkpt>
      <trkpt lat="47.469" lon="-1.03396">
        <ele>61</ele>
        <time>2021-10-13T12:58:21Z</time>
      </trkpt>
      <trkpt lat="47.46934" lon="-1.03418">
        <ele>62</ele>
        <time>2021-10-13T12:58:29Z</time>
      </trkpt>
      <trkpt lat="47.46965" lon="-1.03438">
        <ele>62</ele>
        <time>2021-10-13T12:58:37Z</time>
      </trkpt>
      <trkpt lat="47.46969" lon="-1.03441">
        <ele>62</ele>
        <time>2021-10-13T12:58:38Z</time>
      </trkpt>
      <trkpt lat="47.46988" lon="-1.03463">
        <ele>62</ele>
        <time>2021-10-13T12:58:44Z</time>
      </trkpt>
      <trkpt lat="47.47001" lon="-1.03502">
        <ele>63</ele>
        <time>2021-10-13T12:58:51Z</time>
      </trkpt>
      <trkpt lat="47.47003" lon="-1.03507">
        <ele>63</ele>
        <time>2021-10-13T12:58:52Z</time>
      </trkpt>
      <trkpt lat="47.47022" lon="-1.0356">
        <ele>64</ele>
        <time>2021-10-13T12:59:02Z</time>
      </trkpt>
      <trkpt lat="47.47024" lon="-1.03565">
        <ele>64</ele>
        <time>2021-10-13T12:59:03Z</time>
      </trkpt>
      <trkpt lat="47.47046" lon="-1.03611">
        <ele>64</ele>
        <time>2021-10-13T12:59:12Z</time>
      </trkpt>
      <trkpt lat="47.47059" lon="-1.03635">
        <ele>64</ele>
        <time>2021-10-13T12:59:17Z</time>
      </trkpt>
      <trkpt lat="47.47071" lon="-1.03659">
        <ele>64</ele>
        <time>2021-10-13T12:59:22Z</time>
      </trkpt>
      <trkpt lat="47.4709" lon="-1.037">
        <ele>66</ele>
        <time>2021-10-13T12:59:30Z</time>
      </trkpt>
      <trkpt lat="47.47091" lon="-1.03706">
        <ele>66</ele>
        <time>2021-10-13T12:59:31Z</time>
      </trkpt>
      <trkpt lat="47.47093" lon="-1.03712">
        <ele>66</ele>
        <time>2021-10-13T12:59:32Z</time>
      </trkpt>
      <trkpt lat="47.47107" lon="-1.03772">
        <ele>67</ele>
        <time>2021-10-13T12:59:42Z</time>
      </trkpt>
      <trkpt lat="47.47119" lon="-1.03821">
        <ele>67</ele>
        <time>2021-10-13T12:59:50Z</time>
      </trkpt>
      <trkpt lat="47.47122" lon="-1.03833">
        <ele>67</ele>
        <time>2021-10-13T12:59:52Z</time>
      </trkpt>
      <trkpt lat="47.47134" lon="-1.03889">
        <ele>68</ele>
        <time>2021-10-13T13:00:01Z</time>
      </trkpt>
      <trkpt lat="47.47146" lon="-1.03948">
        <ele>66</ele>
        <time>2021-10-13T13:00:10Z</time>
      </trkpt>
      <trkpt lat="47.47161" lon="-1.04011">
        <ele>65</ele>
        <time>2021-10-13T13:00:19Z</time>
      </trkpt>
      <trkpt lat="47.47177" lon="-1.04076">
        <ele>67</ele>
        <time>2021-10-13T13:00:28Z</time>
      </trkpt>
      <trkpt lat="47.47195" lon="-1.04137">
        <ele>66</ele>
        <time>2021-10-13T13:00:37Z</time>
      </trkpt>
      <trkpt lat="47.47197" lon="-1.04144">
        <ele>66</ele>
        <time>2021-10-13T13:00:38Z</time>
      </trkpt>
      <trkpt lat="47.47213" lon="-1.04188">
        <ele>65</ele>
        <time>2021-10-13T13:00:45Z</time>
      </trkpt>
      <trkpt lat="47.47234" lon="-1.04217">
        <ele>65</ele>
        <time>2021-10-13T13:00:51Z</time>
      </trkpt>
      <trkpt lat="47.47253" lon="-1.0424">
        <ele>65</ele>
        <time>2021-10-13T13:00:56Z</time>
      </trkpt>
      <trkpt lat="47.47263" lon="-1.04256">
        <ele>65</ele>
        <time>2021-10-13T13:00:59Z</time>
      </trkpt>
      <trkpt lat="47.47291" lon="-1.0432">
        <ele>66</ele>
        <time>2021-10-13T13:01:09Z</time>
      </trkpt>
      <trkpt lat="47.47299" lon="-1.04338">
        <ele>66</ele>
        <time>2021-10-13T13:01:12Z</time>
      </trkpt>
      <trkpt lat="47.47318" lon="-1.04382">
        <ele>65</ele>
        <time>2021-10-13T13:01:19Z</time>
      </trkpt>
      <trkpt lat="47.47342" lon="-1.04436">
        <ele>66</ele>
        <time>2021-10-13T13:01:28Z</time>
      </trkpt>
      <trkpt lat="47.47369" lon="-1.04494">
        <ele>66</ele>
        <time>2021-10-13T13:01:38Z</time>
      </trkpt>
      <trkpt lat="47.47392" lon="-1.04547">
        <ele>67</ele>
        <time>2021-10-13T13:01:47Z</time>
      </trkpt>
      <trkpt lat="47.47397" lon="-1.04558">
        <ele>67</ele>
        <time>2021-10-13T13:01:49Z</time>
      </trkpt>
      <trkpt lat="47.47414" lon="-1.04607">
        <ele>67</ele>
        <time>2021-10-13T13:01:57Z</time>
      </trkpt>
      <trkpt lat="47.47428" lon="-1.04661">
        <ele>67</ele>
        <time>2021-10-13T13:02:05Z</time>
      </trkpt>
      <trkpt lat="47.47444" lon="-1.04732">
        <ele>66</ele>
        <time>2021-10-13T13:02:15Z</time>
      </trkpt>
      <trkpt lat="47.4745" lon="-1.0476">
        <ele>67</ele>
        <time>2021-10-13T13:02:19Z</time>
      </trkpt>
      <trkpt lat="47.47456" lon="-1.04789">
        <ele>69</ele>
        <time>2021-10-13T13:02:23Z</time>
      </trkpt>
      <trkpt lat="47.47471" lon="-1.04867">
        <ele>69</ele>
        <time>2021-10-13T13:02:34Z</time>
      </trkpt>
      <trkpt lat="47.47473" lon="-1.04874">
        <ele>70</ele>
        <time>2021-10-13T13:02:35Z</time>
      </trkpt>
      <trkpt lat="47.47489" lon="-1.04951">
        <ele>70</ele>
        <time>2021-10-13T13:02:46Z</time>
      </trkpt>
      <trkpt lat="47.47506" lon="-1.05031">
        <ele>70</ele>
        <time>2021-10-13T13:02:57Z</time>
      </trkpt>
      <trkpt lat="47.47522" lon="-1.05111">
        <ele>69</ele>
        <time>2021-10-13T13:03:08Z</time>
      </trkpt>
      <trkpt lat="47.47536" lon="-1.05177">
        <ele>68</ele>
        <time>2021-10-13T13:03:17Z</time>
      </trkpt>
      <trkpt lat="47.47549" lon="-1.05245">
        <ele>67</ele>
        <time>2021-10-13T13:03:26Z</time>
      </trkpt>
      <trkpt lat="47.47562" lon="-1.05305">
        <ele>67</ele>
        <time>2021-10-13T13:03:35Z</time>
      </trkpt>
      <trkpt lat="47.47572" lon="-1.05355">
        <ele>67</ele>
        <time>2021-10-13T13:03:42Z</time>
      </trkpt>
      <trkpt lat="47.47575" lon="-1.0537">
        <ele>67</ele>
        <time>2021-10-13T13:03:44Z</time>
      </trkpt>
      <trkpt lat="47.47589" lon="-1.05434">
        <ele>67</ele>
        <time>2021-10-13T13:03:53Z</time>
      </trkpt>
      <trkpt lat="47.47597" lon="-1.05484">
        <ele>67</ele>
        <time>2021-10-13T13:04:01Z</time>
      </trkpt>
      <trkpt lat="47.47598" lon="-1.05518">
        <ele>67</ele>
        <time>2021-10-13T13:04:06Z</time>
      </trkpt>
      <trkpt lat="47.47597" lon="-1.05525">
        <ele>67</ele>
        <time>2021-10-13T13:04:07Z</time>
      </trkpt>
      <trkpt lat="47.47595" lon="-1.05573">
        <ele>68</ele>
        <time>2021-10-13T13:04:14Z</time>
      </trkpt>
      <trkpt lat="47.476" lon="-1.05608">
        <ele>68</ele>
        <time>2021-10-13T13:04:20Z</time>
      </trkpt>
      <trkpt lat="47.47607" lon="-1.05647">
        <ele>66</ele>
        <time>2021-10-13T13:04:26Z</time>
      </trkpt>
      <trkpt lat="47.47618" lon="-1.05691">
        <ele>66</ele>
        <time>2021-10-13T13:04:32Z</time>
      </trkpt>
      <trkpt lat="47.47621" lon="-1.05698">
        <ele>66</ele>
        <time>2021-10-13T13:04:33Z</time>
      </trkpt>
      <trkpt lat="47.47642" lon="-1.05729">
        <ele>66</ele>
        <time>2021-10-13T13:04:39Z</time>
      </trkpt>
      <trkpt lat="47.47668" lon="-1.05776">
        <ele>66</ele>
        <time>2021-10-13T13:04:47Z</time>
      </trkpt>
      <trkpt lat="47.4767" lon="-1.05783">
        <ele>66</ele>
        <time>2021-10-13T13:04:48Z</time>
      </trkpt>
      <trkpt lat="47.47691" lon="-1.05832">
        <ele>66</ele>
        <time>2021-10-13T13:04:55Z</time>
      </trkpt>
      <trkpt lat="47.47718" lon="-1.05891">
        <ele>65</ele>
        <time>2021-10-13T13:05:04Z</time>
      </trkpt>
      <trkpt lat="47.47747" lon="-1.05955">
        <ele>63</ele>
        <time>2021-10-13T13:05:14Z</time>
      </trkpt>
      <trkpt lat="47.47777" lon="-1.0602">
        <ele>64</ele>
        <time>2021-10-13T13:05:24Z</time>
      </trkpt>
      <trkpt lat="47.47788" lon="-1.06044">
        <ele>64</ele>
        <time>2021-10-13T13:05:28Z</time>
      </trkpt>
      <trkpt lat="47.47802" lon="-1.06074">
        <ele>63</ele>
        <time>2021-10-13T13:05:33Z</time>
      </trkpt>
      <trkpt lat="47.4782" lon="-1.0613">
        <ele>63</ele>
        <time>2021-10-13T13:05:41Z</time>
      </trkpt>
      <trkpt lat="47.47827" lon="-1.06187">
        <ele>63</ele>
        <time>2021-10-13T13:05:49Z</time>
      </trkpt>
      <trkpt lat="47.47831" lon="-1.06223">
        <ele>63</ele>
        <time>2021-10-13T13:05:54Z</time>
      </trkpt>
      <trkpt lat="47.47836" lon="-1.06268">
        <ele>63</ele>
        <time>2021-10-13T13:06:00Z</time>
      </trkpt>
      <trkpt lat="47.47848" lon="-1.06326">
        <ele>65</ele>
        <time>2021-10-13T13:06:08Z</time>
      </trkpt>
      <trkpt lat="47.47866" lon="-1.06382">
        <ele>63</ele>
        <time>2021-10-13T13:06:16Z</time>
      </trkpt>
      <trkpt lat="47.47893" lon="-1.06447">
        <ele>62</ele>
        <time>2021-10-13T13:06:26Z</time>
      </trkpt>
      <trkpt lat="47.47913" lon="-1.06496">
        <ele>61</ele>
        <time>2021-10-13T13:06:33Z</time>
      </trkpt>
      <trkpt lat="47.47916" lon="-1.06503">
        <ele>61</ele>
        <time>2021-10-13T13:06:34Z</time>
      </trkpt>
      <trkpt lat="47.47933" lon="-1.06544">
        <ele>61</ele>
        <time>2021-10-13T13:06:41Z</time>
      </trkpt>
      <trkpt lat="47.47954" lon="-1.06601">
        <ele>60</ele>
        <time>2021-10-13T13:06:50Z</time>
      </trkpt>
      <trkpt lat="47.47963" lon="-1.06651">
        <ele>62</ele>
        <time>2021-10-13T13:06:57Z</time>
      </trkpt>
      <trkpt lat="47.47969" lon="-1.06727">
        <ele>63</ele>
        <time>2021-10-13T13:07:07Z</time>
      </trkpt>
      <trkpt lat="47.47976" lon="-1.06788">
        <ele>61</ele>
        <time>2021-10-13T13:07:15Z</time>
      </trkpt>
      <trkpt lat="47.47996" lon="-1.06866">
        <ele>61</ele>
        <time>2021-10-13T13:07:26Z</time>
      </trkpt>
      <trkpt lat="47.47998" lon="-1.06873">
        <ele>61</ele>
        <time>2021-10-13T13:07:27Z</time>
      </trkpt>
      <trkpt lat="47.48016" lon="-1.06919">
        <ele>59</ele>
        <time>2021-10-13T13:07:34Z</time>
      </trkpt>
      <trkpt lat="47.48021" lon="-1.06933">
        <ele>59</ele>
        <time>2021-10-13T13:07:36Z</time>
      </trkpt>
      <trkpt lat="47.48032" lon="-1.06968">
        <ele>58</ele>
        <time>2021-10-13T13:07:41Z</time>
      </trkpt>
      <trkpt lat="47.48033" lon="-1.06975">
        <ele>58</ele>
        <time>2021-10-13T13:07:42Z</time>
      </trkpt>
      <trkpt lat="47.48034" lon="-1.06982">
        <ele>58</ele>
        <time>2021-10-13T13:07:43Z</time>
      </trkpt>
      <trkpt lat="47.48035" lon="-1.0699">
        <ele>58</ele>
        <time>2021-10-13T13:07:44Z</time>
      </trkpt>
      <trkpt lat="47.48035" lon="-1.07012">
        <ele>58</ele>
        <time>2021-10-13T13:07:47Z</time>
      </trkpt>
      <trkpt lat="47.48027" lon="-1.0706">
        <ele>58</ele>
        <time>2021-10-13T13:07:53Z</time>
      </trkpt>
      <trkpt lat="47.48022" lon="-1.07083">
        <ele>58</ele>
        <time>2021-10-13T13:07:56Z</time>
      </trkpt>
      <trkpt lat="47.48016" lon="-1.07113">
        <ele>58</ele>
        <time>2021-10-13T13:08:00Z</time>
      </trkpt>
      <trkpt lat="47.48008" lon="-1.07162">
        <ele>58</ele>
        <time>2021-10-13T13:08:07Z</time>
      </trkpt>
      <trkpt lat="47.48006" lon="-1.07177">
        <ele>58</ele>
        <time>2021-10-13T13:08:09Z</time>
      </trkpt>
      <trkpt lat="47.48004" lon="-1.07223">
        <ele>58</ele>
        <time>2021-10-13T13:08:15Z</time>
      </trkpt>
      <trkpt lat="47.48007" lon="-1.07273">
        <ele>58</ele>
        <time>2021-10-13T13:08:21Z</time>
      </trkpt>
      <trkpt lat="47.48008" lon="-1.07331">
        <ele>58</ele>
        <time>2021-10-13T13:08:28Z</time>
      </trkpt>
      <trkpt lat="47.48003" lon="-1.07394">
        <ele>58</ele>
        <time>2021-10-13T13:08:36Z</time>
      </trkpt>
      <trkpt lat="47.47999" lon="-1.07443">
        <ele>59</ele>
        <time>2021-10-13T13:08:43Z</time>
      </trkpt>
      <trkpt lat="47.47994" lon="-1.07491">
        <ele>58</ele>
        <time>2021-10-13T13:08:50Z</time>
      </trkpt>
      <trkpt lat="47.47992" lon="-1.07533">
        <ele>58</ele>
        <time>2021-10-13T13:08:57Z</time>
      </trkpt>
      <trkpt lat="47.47992" lon="-1.07543">
        <ele>58</ele>
        <time>2021-10-13T13:08:59Z</time>
      </trkpt>
      <trkpt lat="47.47996" lon="-1.07567">
        <ele>58</ele>
        <time>2021-10-13T13:09:03Z</time>
      </trkpt>
      <trkpt lat="47.48" lon="-1.07578">
        <ele>58</ele>
        <time>2021-10-13T13:09:05Z</time>
      </trkpt>
      <trkpt lat="47.48008" lon="-1.07592">
        <ele>58</ele>
        <time>2021-10-13T13:09:08Z</time>
      </trkpt>
      <trkpt lat="47.48024" lon="-1.07603">
        <ele>59</ele>
        <time>2021-10-13T13:09:12Z</time>
      </trkpt>
      <trkpt lat="47.48029" lon="-1.07606">
        <ele>60</ele>
        <time>2021-10-13T13:09:13Z</time>
      </trkpt>
      <trkpt lat="47.48061" lon="-1.07621">
        <ele>60</ele>
        <time>2021-10-13T13:09:21Z</time>
      </trkpt>
      <trkpt lat="47.48065" lon="-1.07623">
        <ele>60</ele>
        <time>2021-10-13T13:09:22Z</time>
      </trkpt>
      <trkpt lat="47.48093" lon="-1.07636">
        <ele>61</ele>
        <time>2021-10-13T13:09:30Z</time>
      </trkpt>
      <trkpt lat="47.481" lon="-1.07653">
        <ele>61</ele>
        <time>2021-10-13T13:09:34Z</time>
      </trkpt>
      <trkpt lat="47.48099" lon="-1.07665">
        <ele>61</ele>
        <time>2021-10-13T13:09:36Z</time>
      </trkpt>
      <trkpt lat="47.48098" lon="-1.07685">
        <ele>61</ele>
        <time>2021-10-13T13:09:39Z</time>
      </trkpt>
      <trkpt lat="47.48093" lon="-1.07745">
        <ele>61</ele>
        <time>2021-10-13T13:09:48Z</time>
      </trkpt>
      <trkpt lat="47.4809" lon="-1.07796">
        <ele>59</ele>
        <time>2021-10-13T13:09:55Z</time>
      </trkpt>
      <trkpt lat="47.48088" lon="-1.0781">
        <ele>59</ele>
        <time>2021-10-13T13:09:57Z</time>
      </trkpt>
      <trkpt lat="47.48083" lon="-1.07829">
        <ele>58</ele>
        <time>2021-10-13T13:10:00Z</time>
      </trkpt>
      <trkpt lat="47.48081" lon="-1.07835">
        <ele>57</ele>
        <time>2021-10-13T13:10:01Z</time>
      </trkpt>
      <trkpt lat="47.48076" lon="-1.0785">
        <ele>57</ele>
        <time>2021-10-13T13:10:04Z</time>
      </trkpt>
      <trkpt lat="47.48074" lon="-1.07855">
        <ele>57</ele>
        <time>2021-10-13T13:10:05Z</time>
      </trkpt>
      <trkpt lat="47.48068" lon="-1.07871">
        <ele>57</ele>
        <time>2021-10-13T13:10:09Z</time>
      </trkpt>
      <trkpt lat="47.48065" lon="-1.0788">
        <ele>57</ele>
        <time>2021-10-13T13:10:11Z</time>
      </trkpt>
      <trkpt lat="47.48058" lon="-1.07901">
        <ele>57</ele>
        <time>2021-10-13T13:10:17Z</time>
      </trkpt>
      <trkpt lat="47.48056" lon="-1.07927">
        <ele>57</ele>
        <time>2021-10-13T13:10:23Z</time>
      </trkpt>
      <trkpt lat="47.48062" lon="-1.07954">
        <ele>57</ele>
        <time>2021-10-13T13:10:29Z</time>
      </trkpt>
      <trkpt lat="47.48068" lon="-1.07977">
        <ele>57</ele>
        <time>2021-10-13T13:10:35Z</time>
      </trkpt>
      <trkpt lat="47.48072" lon="-1.08005">
        <ele>58</ele>
        <time>2021-10-13T13:10:41Z</time>
      </trkpt>
      <trkpt lat="47.48074" lon="-1.08007">
        <ele>58</ele>
        <time>2021-10-13T13:10:42Z</time>
      </trkpt>
      <trkpt lat="47.48077" lon="-1.08009">
        <ele>59</ele>
        <time>2021-10-13T13:10:44Z</time>
      </trkpt>
      <trkpt lat="47.48084" lon="-1.08015">
        <ele>60</ele>
        <time>2021-10-13T13:10:49Z</time>
      </trkpt>
      <trkpt lat="47.4809" lon="-1.08018">
        <ele>60</ele>
        <time>2021-10-13T13:10:52Z</time>
      </trkpt>
      <trkpt lat="47.48098" lon="-1.08023">
        <ele>61</ele>
        <time>2021-10-13T13:10:56Z</time>
      </trkpt>
      <trkpt lat="47.48107" lon="-1.08028">
        <ele>62</ele>
        <time>2021-10-13T13:11:00Z</time>
      </trkpt>
      <trkpt lat="47.48112" lon="-1.08031">
        <ele>62</ele>
        <time>2021-10-13T13:11:02Z</time>
      </trkpt>
      <trkpt lat="47.48121" lon="-1.08036">
        <ele>63</ele>
        <time>2021-10-13T13:11:06Z</time>
      </trkpt>
      <trkpt lat="47.48127" lon="-1.08038">
        <ele>63</ele>
        <time>2021-10-13T13:11:09Z</time>
      </trkpt>
      <trkpt lat="47.48139" lon="-1.08045">
        <ele>64</ele>
        <time>2021-10-13T13:11:14Z</time>
      </trkpt>
      <trkpt lat="47.48149" lon="-1.0805">
        <ele>64</ele>
        <time>2021-10-13T13:11:18Z</time>
      </trkpt>
      <trkpt lat="47.48154" lon="-1.08053">
        <ele>65</ele>
        <time>2021-10-13T13:11:20Z</time>
      </trkpt>
      <trkpt lat="47.48168" lon="-1.08062">
        <ele>66</ele>
        <time>2021-10-13T13:11:27Z</time>
      </trkpt>
      <trkpt lat="47.48171" lon="-1.08063">
        <ele>66</ele>
        <time>2021-10-13T13:11:28Z</time>
      </trkpt>
      <trkpt lat="47.48186" lon="-1.08072">
        <ele>66</ele>
        <time>2021-10-13T13:11:35Z</time>
      </trkpt>
      <trkpt lat="47.48188" lon="-1.08074">
        <ele>66</ele>
        <time>2021-10-13T13:11:36Z</time>
      </trkpt>
      <trkpt lat="47.48199" lon="-1.08079">
        <ele>67</ele>
        <time>2021-10-13T13:11:41Z</time>
      </trkpt>
      <trkpt lat="47.48208" lon="-1.0808">
        <ele>67</ele>
        <time>2021-10-13T13:11:45Z</time>
      </trkpt>
      <trkpt lat="47.48219" lon="-1.08079">
        <ele>68</ele>
        <time>2021-10-13T13:11:49Z</time>
      </trkpt>
      <trkpt lat="47.48231" lon="-1.08076">
        <ele>69</ele>
        <time>2021-10-13T13:11:53Z</time>
      </trkpt>
      <trkpt lat="47.48252" lon="-1.08068">
        <ele>69</ele>
        <time>2021-10-13T13:12:00Z</time>
      </trkpt>
      <trkpt lat="47.4827" lon="-1.08061">
        <ele>69</ele>
        <time>2021-10-13T13:12:05Z</time>
      </trkpt>
      <trkpt lat="47.48282" lon="-1.08056">
        <ele>70</ele>
        <time>2021-10-13T13:12:08Z</time>
      </trkpt>
      <trkpt lat="47.48311" lon="-1.08037">
        <ele>70</ele>
        <time>2021-10-13T13:12:16Z</time>
      </trkpt>
      <trkpt lat="47.48332" lon="-1.08019">
        <ele>69</ele>
        <time>2021-10-13T13:12:23Z</time>
      </trkpt>
      <trkpt lat="47.48341" lon="-1.08005">
        <ele>70</ele>
        <time>2021-10-13T13:12:29Z</time>
      </trkpt>
      <trkpt lat="47.48352" lon="-1.07994">
        <ele>70</ele>
        <time>2021-10-13T13:12:33Z</time>
      </trkpt>
      <trkpt lat="47.48377" lon="-1.07967">
        <ele>71</ele>
        <time>2021-10-13T13:12:41Z</time>
      </trkpt>
      <trkpt lat="47.48388" lon="-1.07954">
        <ele>71</ele>
        <time>2021-10-13T13:12:45Z</time>
      </trkpt>
      <trkpt lat="47.48396" lon="-1.07943">
        <ele>71</ele>
        <time>2021-10-13T13:12:48Z</time>
      </trkpt>
      <trkpt lat="47.48413" lon="-1.07926">
        <ele>71</ele>
        <time>2021-10-13T13:12:54Z</time>
      </trkpt>
      <trkpt lat="47.48424" lon="-1.07915">
        <ele>72</ele>
        <time>2021-10-13T13:12:58Z</time>
      </trkpt>
      <trkpt lat="47.48435" lon="-1.07903">
        <ele>72</ele>
        <time>2021-10-13T13:13:02Z</time>
      </trkpt>
      <trkpt lat="47.48448" lon="-1.07894">
        <ele>72</ele>
        <time>2021-10-13T13:13:06Z</time>
      </trkpt>
      <trkpt lat="47.48454" lon="-1.07891">
        <ele>73</ele>
        <time>2021-10-13T13:13:08Z</time>
      </trkpt>
      <trkpt lat="47.4848" lon="-1.07888">
        <ele>74</ele>
        <time>2021-10-13T13:13:16Z</time>
      </trkpt>
      <trkpt lat="47.48498" lon="-1.0789">
        <ele>74</ele>
        <time>2021-10-13T13:13:22Z</time>
      </trkpt>
      <trkpt lat="47.48506" lon="-1.07891">
        <ele>75</ele>
        <time>2021-10-13T13:13:25Z</time>
      </trkpt>
      <trkpt lat="47.48511" lon="-1.07892">
        <ele>75</ele>
        <time>2021-10-13T13:13:27Z</time>
      </trkpt>
      <trkpt lat="47.48529" lon="-1.07895">
        <ele>77</ele>
        <time>2021-10-13T13:13:33Z</time>
      </trkpt>
      <trkpt lat="47.48558" lon="-1.07897">
        <ele>79</ele>
        <time>2021-10-13T13:13:41Z</time>
      </trkpt>
      <trkpt lat="47.48562" lon="-1.07897">
        <ele>79</ele>
        <time>2021-10-13T13:13:42Z</time>
      </trkpt>
      <trkpt lat="47.4859" lon="-1.079">
        <ele>79</ele>
        <time>2021-10-13T13:13:50Z</time>
      </trkpt>
      <trkpt lat="47.48607" lon="-1.07903">
        <ele>79</ele>
        <time>2021-10-13T13:13:55Z</time>
      </trkpt>
      <trkpt lat="47.48621" lon="-1.07904">
        <ele>80</ele>
        <time>2021-10-13T13:13:59Z</time>
      </trkpt>
      <trkpt lat="47.48656" lon="-1.07906">
        <ele>80</ele>
        <time>2021-10-13T13:14:08Z</time>
      </trkpt>
      <trkpt lat="47.48695" lon="-1.07907">
        <ele>79</ele>
        <time>2021-10-13T13:14:16Z</time>
      </trkpt>
      <trkpt lat="47.48717" lon="-1.07909">
        <ele>78</ele>
        <time>2021-10-13T13:14:20Z</time>
      </trkpt>
      <trkpt lat="47.48735" lon="-1.07912">
        <ele>77</ele>
        <time>2021-10-13T13:14:23Z</time>
      </trkpt>
      <trkpt lat="47.48742" lon="-1.07914">
        <ele>76</ele>
        <time>2021-10-13T13:14:24Z</time>
      </trkpt>
      <trkpt lat="47.4877" lon="-1.07922">
        <ele>74</ele>
        <time>2021-10-13T13:14:28Z</time>
      </trkpt>
      <trkpt lat="47.48777" lon="-1.07925">
        <ele>74</ele>
        <time>2021-10-13T13:14:29Z</time>
      </trkpt>
      <trkpt lat="47.48811" lon="-1.07932">
        <ele>73</ele>
        <time>2021-10-13T13:14:34Z</time>
      </trkpt>
      <trkpt lat="47.48832" lon="-1.07934">
        <ele>72</ele>
        <time>2021-10-13T13:14:37Z</time>
      </trkpt>
      <trkpt lat="47.48845" lon="-1.07936">
        <ele>71</ele>
        <time>2021-10-13T13:14:39Z</time>
      </trkpt>
      <trkpt lat="47.48884" lon="-1.07936">
        <ele>70</ele>
        <time>2021-10-13T13:14:45Z</time>
      </trkpt>
      <trkpt lat="47.48918" lon="-1.07925">
        <ele>70</ele>
        <time>2021-10-13T13:14:51Z</time>
      </trkpt>
      <trkpt lat="47.48942" lon="-1.07912">
        <ele>70</ele>
        <time>2021-10-13T13:14:56Z</time>
      </trkpt>
      <trkpt lat="47.48962" lon="-1.07901">
        <ele>71</ele>
        <time>2021-10-13T13:15:00Z</time>
      </trkpt>
      <trkpt lat="47.49005" lon="-1.07874">
        <ele>72</ele>
        <time>2021-10-13T13:15:09Z</time>
      </trkpt>
      <trkpt lat="47.49036" lon="-1.07849">
        <ele>71</ele>
        <time>2021-10-13T13:15:16Z</time>
      </trkpt>
      <trkpt lat="47.49066" lon="-1.07831">
        <ele>70</ele>
        <time>2021-10-13T13:15:23Z</time>
      </trkpt>
      <trkpt lat="47.4909" lon="-1.07824">
        <ele>70</ele>
        <time>2021-10-13T13:15:29Z</time>
      </trkpt>
      <trkpt lat="47.49123" lon="-1.0782">
        <ele>70</ele>
        <time>2021-10-13T13:15:36Z</time>
      </trkpt>
      <trkpt lat="47.49158" lon="-1.07817">
        <ele>70</ele>
        <time>2021-10-13T13:15:43Z</time>
      </trkpt>
      <trkpt lat="47.49168" lon="-1.07814">
        <ele>69</ele>
        <time>2021-10-13T13:15:45Z</time>
      </trkpt>
      <trkpt lat="47.4919" lon="-1.07809">
        <ele>69</ele>
        <time>2021-10-13T13:15:50Z</time>
      </trkpt>
      <trkpt lat="47.49224" lon="-1.07799">
        <ele>68</ele>
        <time>2021-10-13T13:15:57Z</time>
      </trkpt>
      <trkpt lat="47.49273" lon="-1.07781">
        <ele>69</ele>
        <time>2021-10-13T13:16:07Z</time>
      </trkpt>
      <trkpt lat="47.49322" lon="-1.07764">
        <ele>69</ele>
        <time>2021-10-13T13:16:17Z</time>
      </trkpt>
      <trkpt lat="47.49331" lon="-1.0776">
        <ele>69</ele>
        <time>2021-10-13T13:16:19Z</time>
      </trkpt>
      <trkpt lat="47.49362" lon="-1.07745">
        <ele>68</ele>
        <time>2021-10-13T13:16:26Z</time>
      </trkpt>
      <trkpt lat="47.49401" lon="-1.07723">
        <ele>69</ele>
        <time>2021-10-13T13:16:35Z</time>
      </trkpt>
      <trkpt lat="47.49405" lon="-1.0772">
        <ele>69</ele>
        <time>2021-10-13T13:16:36Z</time>
      </trkpt>
      <trkpt lat="47.4943" lon="-1.07704">
        <ele>70</ele>
        <time>2021-10-13T13:16:42Z</time>
      </trkpt>
      <trkpt lat="47.49468" lon="-1.07685">
        <ele>70</ele>
        <time>2021-10-13T13:16:51Z</time>
      </trkpt>
      <trkpt lat="47.49483" lon="-1.07672">
        <ele>70</ele>
        <time>2021-10-13T13:16:56Z</time>
      </trkpt>
      <trkpt lat="47.495" lon="-1.07648">
        <ele>69</ele>
        <time>2021-10-13T13:17:03Z</time>
      </trkpt>
      <trkpt lat="47.49525" lon="-1.07615">
        <ele>69</ele>
        <time>2021-10-13T13:17:10Z</time>
      </trkpt>
      <trkpt lat="47.49545" lon="-1.0758">
        <ele>69</ele>
        <time>2021-10-13T13:17:17Z</time>
      </trkpt>
      <trkpt lat="47.49564" lon="-1.07549">
        <ele>68</ele>
        <time>2021-10-13T13:17:24Z</time>
      </trkpt>
      <trkpt lat="47.49582" lon="-1.07523">
        <ele>68</ele>
        <time>2021-10-13T13:17:30Z</time>
      </trkpt>
      <trkpt lat="47.49588" lon="-1.07518">
        <ele>68</ele>
        <time>2021-10-13T13:17:34Z</time>
      </trkpt>
      <trkpt lat="47.49598" lon="-1.07508">
        <ele>68</ele>
        <time>2021-10-13T13:17:40Z</time>
      </trkpt>
      <trkpt lat="47.4962" lon="-1.07489">
        <ele>68</ele>
        <time>2021-10-13T13:17:47Z</time>
      </trkpt>
      <trkpt lat="47.49633" lon="-1.07478">
        <ele>67</ele>
        <time>2021-10-13T13:17:51Z</time>
      </trkpt>
      <trkpt lat="47.49642" lon="-1.07472">
        <ele>67</ele>
        <time>2021-10-13T13:17:54Z</time>
      </trkpt>
      <trkpt lat="47.49666" lon="-1.07451">
        <ele>67</ele>
        <time>2021-10-13T13:18:02Z</time>
      </trkpt>
      <trkpt lat="47.49668" lon="-1.07448">
        <ele>67</ele>
        <time>2021-10-13T13:18:03Z</time>
      </trkpt>
      <trkpt lat="47.49684" lon="-1.0742">
        <ele>67</ele>
        <time>2021-10-13T13:18:10Z</time>
      </trkpt>
      <trkpt lat="47.49702" lon="-1.074">
        <ele>67</ele>
        <time>2021-10-13T13:18:16Z</time>
      </trkpt>
      <trkpt lat="47.49705" lon="-1.07399">
        <ele>67</ele>
        <time>2021-10-13T13:18:17Z</time>
      </trkpt>
      <trkpt lat="47.49716" lon="-1.07398">
        <ele>67</ele>
        <time>2021-10-13T13:18:21Z</time>
      </trkpt>
      <trkpt lat="47.49734" lon="-1.07401">
        <ele>67</ele>
        <time>2021-10-13T13:18:28Z</time>
      </trkpt>
      <trkpt lat="47.49745" lon="-1.07395">
        <ele>67</ele>
        <time>2021-10-13T13:18:32Z</time>
      </trkpt>
      <trkpt lat="47.49754" lon="-1.07381">
        <ele>67</ele>
        <time>2021-10-13T13:18:37Z</time>
      </trkpt>
      <trkpt lat="47.49768" lon="-1.07384">
        <ele>68</ele>
        <time>2021-10-13T13:18:42Z</time>
      </trkpt>
      <trkpt lat="47.49785" lon="-1.07395">
        <ele>69</ele>
        <time>2021-10-13T13:18:48Z</time>
      </trkpt>
      <trkpt lat="47.49791" lon="-1.07399">
        <ele>69</ele>
        <time>2021-10-13T13:18:50Z</time>
      </trkpt>
      <trkpt lat="47.49805" lon="-1.07411">
        <ele>69</ele>
        <time>2021-10-13T13:18:55Z</time>
      </trkpt>
      <trkpt lat="47.49812" lon="-1.07414">
        <ele>70</ele>
        <time>2021-10-13T13:18:57Z</time>
      </trkpt>
      <trkpt lat="47.49832" lon="-1.07416">
        <ele>70</ele>
        <time>2021-10-13T13:19:03Z</time>
      </trkpt>
      <trkpt lat="47.49838" lon="-1.07417">
        <ele>70</ele>
        <time>2021-10-13T13:19:05Z</time>
      </trkpt>
      <trkpt lat="47.49854" lon="-1.07418">
        <ele>71</ele>
        <time>2021-10-13T13:19:10Z</time>
      </trkpt>
      <trkpt lat="47.49867" lon="-1.07417">
        <ele>72</ele>
        <time>2021-10-13T13:19:14Z</time>
      </trkpt>
      <trkpt lat="47.49876" lon="-1.07418">
        <ele>73</ele>
        <time>2021-10-13T13:19:17Z</time>
      </trkpt>
      <trkpt lat="47.49892" lon="-1.07415">
        <ele>75</ele>
        <time>2021-10-13T13:19:22Z</time>
      </trkpt>
      <trkpt lat="47.49901" lon="-1.07413">
        <ele>75</ele>
        <time>2021-10-13T13:19:25Z</time>
      </trkpt>
      <trkpt lat="47.49917" lon="-1.07406">
        <ele>75</ele>
        <time>2021-10-13T13:19:30Z</time>
      </trkpt>
      <trkpt lat="47.49929" lon="-1.07399">
        <ele>75</ele>
        <time>2021-10-13T13:19:34Z</time>
      </trkpt>
      <trkpt lat="47.4995" lon="-1.07386">
        <ele>76</ele>
        <time>2021-10-13T13:19:41Z</time>
      </trkpt>
      <trkpt lat="47.49959" lon="-1.0738">
        <ele>76</ele>
        <time>2021-10-13T13:19:44Z</time>
      </trkpt>
      <trkpt lat="47.49974" lon="-1.0737">
        <ele>77</ele>
        <time>2021-10-13T13:19:49Z</time>
      </trkpt>
      <trkpt lat="47.4998" lon="-1.07366">
        <ele>77</ele>
        <time>2021-10-13T13:19:51Z</time>
      </trkpt>
      <trkpt lat="47.50006" lon="-1.07352">
        <ele>77</ele>
        <time>2021-10-13T13:19:59Z</time>
      </trkpt>
      <trkpt lat="47.5001" lon="-1.0735">
        <ele>77</ele>
        <time>2021-10-13T13:20:00Z</time>
      </trkpt>
      <trkpt lat="47.50044" lon="-1.07335">
        <ele>77</ele>
        <time>2021-10-13T13:20:10Z</time>
      </trkpt>
      <trkpt lat="47.5008" lon="-1.07311">
        <ele>78</ele>
        <time>2021-10-13T13:20:21Z</time>
      </trkpt>
      <trkpt lat="47.50086" lon="-1.07305">
        <ele>78</ele>
        <time>2021-10-13T13:20:23Z</time>
      </trkpt>
      <trkpt lat="47.50105" lon="-1.07286">
        <ele>78</ele>
        <time>2021-10-13T13:20:29Z</time>
      </trkpt>
      <trkpt lat="47.50133" lon="-1.07259">
        <ele>77</ele>
        <time>2021-10-13T13:20:38Z</time>
      </trkpt>
      <trkpt lat="47.50148" lon="-1.07258">
        <ele>77</ele>
        <time>2021-10-13T13:20:42Z</time>
      </trkpt>
      <trkpt lat="47.50164" lon="-1.07257">
        <ele>77</ele>
        <time>2021-10-13T13:20:47Z</time>
      </trkpt>
      <trkpt lat="47.50186" lon="-1.07247">
        <ele>78</ele>
        <time>2021-10-13T13:20:54Z</time>
      </trkpt>
      <trkpt lat="47.50213" lon="-1.0723">
        <ele>78</ele>
        <time>2021-10-13T13:21:02Z</time>
      </trkpt>
      <trkpt lat="47.50235" lon="-1.07218">
        <ele>78</ele>
        <time>2021-10-13T13:21:09Z</time>
      </trkpt>
      <trkpt lat="47.50259" lon="-1.07204">
        <ele>78</ele>
        <time>2021-10-13T13:21:16Z</time>
      </trkpt>
      <trkpt lat="47.50281" lon="-1.07192">
        <ele>78</ele>
        <time>2021-10-13T13:21:23Z</time>
      </trkpt>
      <trkpt lat="47.50312" lon="-1.07174">
        <ele>78</ele>
        <time>2021-10-13T13:21:33Z</time>
      </trkpt>
      <trkpt lat="47.50336" lon="-1.07159">
        <ele>78</ele>
        <time>2021-10-13T13:21:41Z</time>
      </trkpt>
      <trkpt lat="47.50354" lon="-1.07155">
        <ele>78</ele>
        <time>2021-10-13T13:21:47Z</time>
      </trkpt>
      <trkpt lat="47.50357" lon="-1.07152">
        <ele>78</ele>
        <time>2021-10-13T13:21:48Z</time>
      </trkpt>
      <trkpt lat="47.50359" lon="-1.07144">
        <ele>78</ele>
        <time>2021-10-13T13:21:50Z</time>
      </trkpt>
      <trkpt lat="47.5036" lon="-1.07135">
        <ele>79</ele>
        <time>2021-10-13T13:21:52Z</time>
      </trkpt>
      <trkpt lat="47.50362" lon="-1.07113">
        <ele>79</ele>
        <time>2021-10-13T13:21:56Z</time>
      </trkpt>
      <trkpt lat="47.50362" lon="-1.07107">
        <ele>79</ele>
        <time>2021-10-13T13:21:57Z</time>
      </trkpt>
      <trkpt lat="47.50364" lon="-1.07073">
        <ele>78</ele>
        <time>2021-10-13T13:22:03Z</time>
      </trkpt>
      <trkpt lat="47.50366" lon="-1.07025">
        <ele>78</ele>
        <time>2021-10-13T13:22:12Z</time>
      </trkpt>
      <trkpt lat="47.5037" lon="-1.06975">
        <ele>79</ele>
        <time>2021-10-13T13:22:21Z</time>
      </trkpt>
      <trkpt lat="47.50371" lon="-1.06929">
        <ele>79</ele>
        <time>2021-10-13T13:22:30Z</time>
      </trkpt>
      <trkpt lat="47.50371" lon="-1.06896">
        <ele>79</ele>
        <time>2021-10-13T13:22:38Z</time>
      </trkpt>
      <trkpt lat="47.50373" lon="-1.06885">
        <ele>78</ele>
        <time>2021-10-13T13:22:41Z</time>
      </trkpt>
      <trkpt lat="47.50378" lon="-1.06882">
        <ele>78</ele>
        <time>2021-10-13T13:22:43Z</time>
      </trkpt>
      <trkpt lat="47.50387" lon="-1.06882">
        <ele>78</ele>
        <time>2021-10-13T13:22:46Z</time>
      </trkpt>
      <trkpt lat="47.50396" lon="-1.06883">
        <ele>79</ele>
        <time>2021-10-13T13:22:49Z</time>
      </trkpt>
      <trkpt lat="47.50429" lon="-1.06886">
        <ele>81</ele>
        <time>2021-10-13T13:22:58Z</time>
      </trkpt>
      <trkpt lat="47.50463" lon="-1.06889">
        <ele>79</ele>
        <time>2021-10-13T13:23:07Z</time>
      </trkpt>
      <trkpt lat="47.50495" lon="-1.06893">
        <ele>78</ele>
        <time>2021-10-13T13:23:15Z</time>
      </trkpt>
      <trkpt lat="47.50526" lon="-1.06894">
        <ele>78</ele>
        <time>2021-10-13T13:23:22Z</time>
      </trkpt>
      <trkpt lat="47.50559" lon="-1.06897">
        <ele>76</ele>
        <time>2021-10-13T13:23:28Z</time>
      </trkpt>
      <trkpt lat="47.50565" lon="-1.06898">
        <ele>76</ele>
        <time>2021-10-13T13:23:29Z</time>
      </trkpt>
      <trkpt lat="47.50587" lon="-1.069">
        <ele>75</ele>
        <time>2021-10-13T13:23:33Z</time>
      </trkpt>
      <trkpt lat="47.50609" lon="-1.06902">
        <ele>75</ele>
        <time>2021-10-13T13:23:37Z</time>
      </trkpt>
      <trkpt lat="47.50615" lon="-1.06902">
        <ele>74</ele>
        <time>2021-10-13T13:23:38Z</time>
      </trkpt>
      <trkpt lat="47.50632" lon="-1.06903">
        <ele>73</ele>
        <time>2021-10-13T13:23:41Z</time>
      </trkpt>
      <trkpt lat="47.5066" lon="-1.06906">
        <ele>72</ele>
        <time>2021-10-13T13:23:46Z</time>
      </trkpt>
      <trkpt lat="47.50666" lon="-1.06907">
        <ele>72</ele>
        <time>2021-10-13T13:23:47Z</time>
      </trkpt>
      <trkpt lat="47.50684" lon="-1.06908">
        <ele>71</ele>
        <time>2021-10-13T13:23:50Z</time>
      </trkpt>
      <trkpt lat="47.507" lon="-1.06909">
        <ele>70</ele>
        <time>2021-10-13T13:23:53Z</time>
      </trkpt>
      <trkpt lat="47.50715" lon="-1.0691">
        <ele>69</ele>
        <time>2021-10-13T13:23:56Z</time>
      </trkpt>
      <trkpt lat="47.5072" lon="-1.06911">
        <ele>68</ele>
        <time>2021-10-13T13:23:57Z</time>
      </trkpt>
      <trkpt lat="47.50737" lon="-1.06914">
        <ele>68</ele>
        <time>2021-10-13T13:24:02Z</time>
      </trkpt>
      <trkpt lat="47.50755" lon="-1.06918">
        <ele>69</ele>
        <time>2021-10-13T13:24:09Z</time>
      </trkpt>
      <trkpt lat="47.50768" lon="-1.06922">
        <ele>70</ele>
        <time>2021-10-13T13:24:15Z</time>
      </trkpt>
      <trkpt lat="47.5079" lon="-1.06927">
        <ele>71</ele>
        <time>2021-10-13T13:24:25Z</time>
      </trkpt>
      <trkpt lat="47.50808" lon="-1.06929">
        <ele>72</ele>
        <time>2021-10-13T13:24:33Z</time>
      </trkpt>
      <trkpt lat="47.50827" lon="-1.06933">
        <ele>72</ele>
        <time>2021-10-13T13:24:40Z</time>
      </trkpt>
      <trkpt lat="47.50834" lon="-1.06934">
        <ele>72</ele>
        <time>2021-10-13T13:24:43Z</time>
      </trkpt>
      <trkpt lat="47.50857" lon="-1.06937">
        <ele>72</ele>
        <time>2021-10-13T13:24:52Z</time>
      </trkpt>
      <trkpt lat="47.50863" lon="-1.06938">
        <ele>73</ele>
        <time>2021-10-13T13:24:54Z</time>
      </trkpt>
      <trkpt lat="47.5088" lon="-1.06939">
        <ele>73</ele>
        <time>2021-10-13T13:25:00Z</time>
      </trkpt>
      <trkpt lat="47.50911" lon="-1.06935">
        <ele>72</ele>
        <time>2021-10-13T13:25:09Z</time>
      </trkpt>
      <trkpt lat="47.50929" lon="-1.06929">
        <ele>71</ele>
        <time>2021-10-13T13:25:13Z</time>
      </trkpt>
      <trkpt lat="47.50938" lon="-1.06927">
        <ele>71</ele>
        <time>2021-10-13T13:25:15Z</time>
      </trkpt>
      <trkpt lat="47.50942" lon="-1.06926">
        <ele>71</ele>
        <time>2021-10-13T13:25:16Z</time>
      </trkpt>
      <trkpt lat="47.50958" lon="-1.06922">
        <ele>70</ele>
        <time>2021-10-13T13:25:20Z</time>
      </trkpt>
      <trkpt lat="47.50974" lon="-1.06917">
        <ele>69</ele>
        <time>2021-10-13T13:25:24Z</time>
      </trkpt>
      <trkpt lat="47.50998" lon="-1.06903">
        <ele>68</ele>
        <time>2021-10-13T13:25:29Z</time>
      </trkpt>
      <trkpt lat="47.51002" lon="-1.06899">
        <ele>67</ele>
        <time>2021-10-13T13:25:30Z</time>
      </trkpt>
      <trkpt lat="47.5102" lon="-1.06881">
        <ele>67</ele>
        <time>2021-10-13T13:25:34Z</time>
      </trkpt>
      <trkpt lat="47.51024" lon="-1.06876">
        <ele>67</ele>
        <time>2021-10-13T13:25:35Z</time>
      </trkpt>
      <trkpt lat="47.51031" lon="-1.06865">
        <ele>66</ele>
        <time>2021-10-13T13:25:37Z</time>
      </trkpt>
      <trkpt lat="47.51037" lon="-1.06856">
        <ele>66</ele>
        <time>2021-10-13T13:25:39Z</time>
      </trkpt>
      <trkpt lat="47.51046" lon="-1.06842">
        <ele>65</ele>
        <time>2021-10-13T13:25:42Z</time>
      </trkpt>
      <trkpt lat="47.51049" lon="-1.06837">
        <ele>65</ele>
        <time>2021-10-13T13:25:43Z</time>
      </trkpt>
      <trkpt lat="47.51056" lon="-1.06828">
        <ele>64</ele>
        <time>2021-10-13T13:25:45Z</time>
      </trkpt>
      <trkpt lat="47.5106" lon="-1.06824">
        <ele>64</ele>
        <time>2021-10-13T13:25:46Z</time>
      </trkpt>
      <trkpt lat="47.51076" lon="-1.06811">
        <ele>63</ele>
        <time>2021-10-13T13:25:50Z</time>
      </trkpt>
      <trkpt lat="47.5108" lon="-1.06808">
        <ele>63</ele>
        <time>2021-10-13T13:25:51Z</time>
      </trkpt>
      <trkpt lat="47.51094" lon="-1.06797">
        <ele>62</ele>
        <time>2021-10-13T13:25:55Z</time>
      </trkpt>
      <trkpt lat="47.51102" lon="-1.06792">
        <ele>61</ele>
        <time>2021-10-13T13:25:57Z</time>
      </trkpt>
      <trkpt lat="47.51121" lon="-1.06787">
        <ele>60</ele>
        <time>2021-10-13T13:26:02Z</time>
      </trkpt>
      <trkpt lat="47.51125" lon="-1.06788">
        <ele>60</ele>
        <time>2021-10-13T13:26:03Z</time>
      </trkpt>
      <trkpt lat="47.51146" lon="-1.06793">
        <ele>60</ele>
        <time>2021-10-13T13:26:09Z</time>
      </trkpt>
      <trkpt lat="47.51152" lon="-1.06795">
        <ele>60</ele>
        <time>2021-10-13T13:26:11Z</time>
      </trkpt>
      <trkpt lat="47.51172" lon="-1.06804">
        <ele>60</ele>
        <time>2021-10-13T13:26:18Z</time>
      </trkpt>
      <trkpt lat="47.51193" lon="-1.06817">
        <ele>60</ele>
        <time>2021-10-13T13:26:25Z</time>
      </trkpt>
      <trkpt lat="47.5121" lon="-1.06832">
        <ele>60</ele>
        <time>2021-10-13T13:26:32Z</time>
      </trkpt>
      <trkpt lat="47.5123" lon="-1.06846">
        <ele>60</ele>
        <time>2021-10-13T13:26:41Z</time>
      </trkpt>
      <trkpt lat="47.51247" lon="-1.06853">
        <ele>61</ele>
        <time>2021-10-13T13:26:49Z</time>
      </trkpt>
      <trkpt lat="47.5126" lon="-1.06857">
        <ele>62</ele>
        <time>2021-10-13T13:26:55Z</time>
      </trkpt>
      <trkpt lat="47.51269" lon="-1.06858">
        <ele>63</ele>
        <time>2021-10-13T13:26:59Z</time>
      </trkpt>
      <trkpt lat="47.51279" lon="-1.06859">
        <ele>64</ele>
        <time>2021-10-13T13:27:03Z</time>
      </trkpt>
      <trkpt lat="47.51283" lon="-1.0686">
        <ele>65</ele>
        <time>2021-10-13T13:27:05Z</time>
      </trkpt>
      <trkpt lat="47.51292" lon="-1.06862">
        <ele>66</ele>
        <time>2021-10-13T13:27:11Z</time>
      </trkpt>
      <trkpt lat="47.51295" lon="-1.06862">
        <ele>66</ele>
        <time>2021-10-13T13:27:13Z</time>
      </trkpt>
      <trkpt lat="47.51301" lon="-1.06864">
        <ele>66</ele>
        <time>2021-10-13T13:27:17Z</time>
      </trkpt>
      <trkpt lat="47.51307" lon="-1.06866">
        <ele>67</ele>
        <time>2021-10-13T13:27:20Z</time>
      </trkpt>
      <trkpt lat="47.51315" lon="-1.06869">
        <ele>67</ele>
        <time>2021-10-13T13:27:24Z</time>
      </trkpt>
      <trkpt lat="47.51322" lon="-1.06872">
        <ele>68</ele>
        <time>2021-10-13T13:27:28Z</time>
      </trkpt>
      <trkpt lat="47.51324" lon="-1.06873">
        <ele>68</ele>
        <time>2021-10-13T13:27:29Z</time>
      </trkpt>
      <trkpt lat="47.51338" lon="-1.06876">
        <ele>69</ele>
        <time>2021-10-13T13:27:36Z</time>
      </trkpt>
      <trkpt lat="47.5134" lon="-1.06876">
        <ele>69</ele>
        <time>2021-10-13T13:27:37Z</time>
      </trkpt>
      <trkpt lat="47.51352" lon="-1.06879">
        <ele>71</ele>
        <time>2021-10-13T13:27:44Z</time>
      </trkpt>
      <trkpt lat="47.51354" lon="-1.06879">
        <ele>71</ele>
        <time>2021-10-13T13:27:45Z</time>
      </trkpt>
      <trkpt lat="47.51362" lon="-1.06881">
        <ele>72</ele>
        <time>2021-10-13T13:27:50Z</time>
      </trkpt>
      <trkpt lat="47.51366" lon="-1.06881">
        <ele>72</ele>
        <time>2021-10-13T13:27:52Z</time>
      </trkpt>
      <trkpt lat="47.51376" lon="-1.06881">
        <ele>74</ele>
        <time>2021-10-13T13:27:58Z</time>
      </trkpt>
      <trkpt lat="47.51379" lon="-1.06881">
        <ele>74</ele>
        <time>2021-10-13T13:28:00Z</time>
      </trkpt>
      <trkpt lat="47.51386" lon="-1.06882">
        <ele>75</ele>
        <time>2021-10-13T13:28:05Z</time>
      </trkpt>
      <trkpt lat="47.51391" lon="-1.06882">
        <ele>75</ele>
        <time>2021-10-13T13:28:08Z</time>
      </trkpt>
      <trkpt lat="47.51402" lon="-1.06882">
        <ele>76</ele>
        <time>2021-10-13T13:28:14Z</time>
      </trkpt>
      <trkpt lat="47.51408" lon="-1.06883">
        <ele>77</ele>
        <time>2021-10-13T13:28:17Z</time>
      </trkpt>
      <trkpt lat="47.51416" lon="-1.06883">
        <ele>77</ele>
        <time>2021-10-13T13:28:22Z</time>
      </trkpt>
      <trkpt lat="47.51423" lon="-1.06884">
        <ele>77</ele>
        <time>2021-10-13T13:28:26Z</time>
      </trkpt>
      <trkpt lat="47.51428" lon="-1.06885">
        <ele>77</ele>
        <time>2021-10-13T13:28:29Z</time>
      </trkpt>
      <trkpt lat="47.51442" lon="-1.06887">
        <ele>77</ele>
        <time>2021-10-13T13:28:36Z</time>
      </trkpt>
      <trkpt lat="47.51444" lon="-1.06888">
        <ele>77</ele>
        <time>2021-10-13T13:28:37Z</time>
      </trkpt>
      <trkpt lat="47.51458" lon="-1.06889">
        <ele>77</ele>
        <time>2021-10-13T13:28:43Z</time>
      </trkpt>
      <trkpt lat="47.51462" lon="-1.06889">
        <ele>77</ele>
        <time>2021-10-13T13:28:44Z</time>
      </trkpt>
      <trkpt lat="47.51483" lon="-1.06887">
        <ele>77</ele>
        <time>2021-10-13T13:28:51Z</time>
      </trkpt>
      <trkpt lat="47.51504" lon="-1.06879">
        <ele>76</ele>
        <time>2021-10-13T13:28:58Z</time>
      </trkpt>
      <trkpt lat="47.5152" lon="-1.06876">
        <ele>75</ele>
        <time>2021-10-13T13:29:02Z</time>
      </trkpt>
      <trkpt lat="47.51529" lon="-1.06875">
        <ele>75</ele>
        <time>2021-10-13T13:29:04Z</time>
      </trkpt>
      <trkpt lat="47.51533" lon="-1.06875">
        <ele>75</ele>
        <time>2021-10-13T13:29:05Z</time>
      </trkpt>
      <trkpt lat="47.51546" lon="-1.06876">
        <ele>74</ele>
        <time>2021-10-13T13:29:08Z</time>
      </trkpt>
      <trkpt lat="47.51554" lon="-1.06883">
        <ele>73</ele>
        <time>2021-10-13T13:29:10Z</time>
      </trkpt>
      <trkpt lat="47.51563" lon="-1.06889">
        <ele>72</ele>
        <time>2021-10-13T13:29:12Z</time>
      </trkpt>
      <trkpt lat="47.51568" lon="-1.06891">
        <ele>71</ele>
        <time>2021-10-13T13:29:13Z</time>
      </trkpt>
      <trkpt lat="47.51579" lon="-1.06896">
        <ele>70</ele>
        <time>2021-10-13T13:29:15Z</time>
      </trkpt>
      <trkpt lat="47.51594" lon="-1.06901">
        <ele>68</ele>
        <time>2021-10-13T13:29:18Z</time>
      </trkpt>
      <trkpt lat="47.51605" lon="-1.06901">
        <ele>67</ele>
        <time>2021-10-13T13:29:21Z</time>
      </trkpt>
      <trkpt lat="47.51606" lon="-1.06887">
        <ele>67</ele>
        <time>2021-10-13T13:29:24Z</time>
      </trkpt>
      <trkpt lat="47.51604" lon="-1.06877">
        <ele>68</ele>
        <time>2021-10-13T13:29:26Z</time>
      </trkpt>
      <trkpt lat="47.51597" lon="-1.06849">
        <ele>69</ele>
        <time>2021-10-13T13:29:32Z</time>
      </trkpt>
      <trkpt lat="47.51585" lon="-1.06819">
        <ele>71</ele>
        <time>2021-10-13T13:29:40Z</time>
      </trkpt>
      <trkpt lat="47.51581" lon="-1.06794">
        <ele>71</ele>
        <time>2021-10-13T13:29:46Z</time>
      </trkpt>
      <trkpt lat="47.51581" lon="-1.06784">
        <ele>71</ele>
        <time>2021-10-13T13:29:48Z</time>
      </trkpt>
      <trkpt lat="47.51583" lon="-1.06743">
        <ele>71</ele>
        <time>2021-10-13T13:29:56Z</time>
      </trkpt>
      <trkpt lat="47.51585" lon="-1.06694">
        <ele>72</ele>
        <time>2021-10-13T13:30:04Z</time>
      </trkpt>
      <trkpt lat="47.51589" lon="-1.06675">
        <ele>72</ele>
        <time>2021-10-13T13:30:07Z</time>
      </trkpt>
      <trkpt lat="47.51591" lon="-1.06655">
        <ele>72</ele>
        <time>2021-10-13T13:30:10Z</time>
      </trkpt>
      <trkpt lat="47.516" lon="-1.06603">
        <ele>72</ele>
        <time>2021-10-13T13:30:18Z</time>
      </trkpt>
      <trkpt lat="47.51608" lon="-1.06545">
        <ele>71</ele>
        <time>2021-10-13T13:30:26Z</time>
      </trkpt>
      <trkpt lat="47.51611" lon="-1.06498">
        <ele>71</ele>
        <time>2021-10-13T13:30:33Z</time>
      </trkpt>
      <trkpt lat="47.51611" lon="-1.06483">
        <ele>71</ele>
        <time>2021-10-13T13:30:35Z</time>
      </trkpt>
      <trkpt lat="47.51612" lon="-1.0642">
        <ele>70</ele>
        <time>2021-10-13T13:30:43Z</time>
      </trkpt>
      <trkpt lat="47.51612" lon="-1.06404">
        <ele>69</ele>
        <time>2021-10-13T13:30:45Z</time>
      </trkpt>
      <trkpt lat="47.51613" lon="-1.06343">
        <ele>65</ele>
        <time>2021-10-13T13:30:52Z</time>
      </trkpt>
      <trkpt lat="47.51614" lon="-1.06296">
        <ele>63</ele>
        <time>2021-10-13T13:30:57Z</time>
      </trkpt>
      <trkpt lat="47.51612" lon="-1.06275">
        <ele>63</ele>
        <time>2021-10-13T13:30:59Z</time>
      </trkpt>
      <trkpt lat="47.51606" lon="-1.06257">
        <ele>62</ele>
        <time>2021-10-13T13:31:01Z</time>
      </trkpt>
      <trkpt lat="47.51601" lon="-1.0625">
        <ele>62</ele>
        <time>2021-10-13T13:31:02Z</time>
      </trkpt>
      <trkpt lat="47.51597" lon="-1.06244">
        <ele>62</ele>
        <time>2021-10-13T13:31:03Z</time>
      </trkpt>
      <trkpt lat="47.51594" lon="-1.06237">
        <ele>62</ele>
        <time>2021-10-13T13:31:04Z</time>
      </trkpt>
      <trkpt lat="47.5159" lon="-1.06219">
        <ele>61</ele>
        <time>2021-10-13T13:31:06Z</time>
      </trkpt>
      <trkpt lat="47.51584" lon="-1.06191">
        <ele>60</ele>
        <time>2021-10-13T13:31:09Z</time>
      </trkpt>
      <trkpt lat="47.51577" lon="-1.06152">
        <ele>58</ele>
        <time>2021-10-13T13:31:13Z</time>
      </trkpt>
      <trkpt lat="47.51575" lon="-1.06142">
        <ele>58</ele>
        <time>2021-10-13T13:31:14Z</time>
      </trkpt>
      <trkpt lat="47.51569" lon="-1.06112">
        <ele>58</ele>
        <time>2021-10-13T13:31:17Z</time>
      </trkpt>
      <trkpt lat="47.51561" lon="-1.06072">
        <ele>56</ele>
        <time>2021-10-13T13:31:21Z</time>
      </trkpt>
      <trkpt lat="47.51553" lon="-1.06033">
        <ele>56</ele>
        <time>2021-10-13T13:31:25Z</time>
      </trkpt>
      <trkpt lat="47.51551" lon="-1.06024">
        <ele>55</ele>
        <time>2021-10-13T13:31:26Z</time>
      </trkpt>
      <trkpt lat="47.51542" lon="-1.0598">
        <ele>55</ele>
        <time>2021-10-13T13:31:31Z</time>
      </trkpt>
      <trkpt lat="47.51537" lon="-1.05955">
        <ele>55</ele>
        <time>2021-10-13T13:31:34Z</time>
      </trkpt>
      <trkpt lat="47.51531" lon="-1.05915">
        <ele>55</ele>
        <time>2021-10-13T13:31:39Z</time>
      </trkpt>
      <trkpt lat="47.5153" lon="-1.0589">
        <ele>55</ele>
        <time>2021-10-13T13:31:42Z</time>
      </trkpt>
      <trkpt lat="47.51531" lon="-1.05848">
        <ele>53</ele>
        <time>2021-10-13T13:31:47Z</time>
      </trkpt>
      <trkpt lat="47.51531" lon="-1.05813">
        <ele>52</ele>
        <time>2021-10-13T13:31:51Z</time>
      </trkpt>
      <trkpt lat="47.51531" lon="-1.05796">
        <ele>51</ele>
        <time>2021-10-13T13:31:53Z</time>
      </trkpt>
      <trkpt lat="47.51528" lon="-1.05744">
        <ele>51</ele>
        <time>2021-10-13T13:31:59Z</time>
      </trkpt>
      <trkpt lat="47.51518" lon="-1.05677">
        <ele>50</ele>
        <time>2021-10-13T13:32:06Z</time>
      </trkpt>
      <trkpt lat="47.51515" lon="-1.05667">
        <ele>50</ele>
        <time>2021-10-13T13:32:07Z</time>
      </trkpt>
      <trkpt lat="47.51504" lon="-1.0564">
        <ele>49</ele>
        <time>2021-10-13T13:32:10Z</time>
      </trkpt>
      <trkpt lat="47.51495" lon="-1.05623">
        <ele>48</ele>
        <time>2021-10-13T13:32:12Z</time>
      </trkpt>
      <trkpt lat="47.51485" lon="-1.05607">
        <ele>47</ele>
        <time>2021-10-13T13:32:14Z</time>
      </trkpt>
      <trkpt lat="47.51467" lon="-1.05579">
        <ele>47</ele>
        <time>2021-10-13T13:32:18Z</time>
      </trkpt>
      <trkpt lat="47.51435" lon="-1.05531">
        <ele>48</ele>
        <time>2021-10-13T13:32:26Z</time>
      </trkpt>
      <trkpt lat="47.51415" lon="-1.05487">
        <ele>49</ele>
        <time>2021-10-13T13:32:33Z</time>
      </trkpt>
      <trkpt lat="47.51411" lon="-1.0546">
        <ele>50</ele>
        <time>2021-10-13T13:32:37Z</time>
      </trkpt>
      <trkpt lat="47.51411" lon="-1.05453">
        <ele>50</ele>
        <time>2021-10-13T13:32:38Z</time>
      </trkpt>
      <trkpt lat="47.51406" lon="-1.05389">
        <ele>51</ele>
        <time>2021-10-13T13:32:47Z</time>
      </trkpt>
      <trkpt lat="47.51405" lon="-1.05367">
        <ele>51</ele>
        <time>2021-10-13T13:32:50Z</time>
      </trkpt>
      <trkpt lat="47.51406" lon="-1.05333">
        <ele>51</ele>
        <time>2021-10-13T13:32:55Z</time>
      </trkpt>
      <trkpt lat="47.51409" lon="-1.0532">
        <ele>51</ele>
        <time>2021-10-13T13:32:57Z</time>
      </trkpt>
      <trkpt lat="47.51417" lon="-1.053">
        <ele>50</ele>
        <time>2021-10-13T13:33:00Z</time>
      </trkpt>
      <trkpt lat="47.51424" lon="-1.05287">
        <ele>50</ele>
        <time>2021-10-13T13:33:02Z</time>
      </trkpt>
      <trkpt lat="47.51428" lon="-1.05281">
        <ele>50</ele>
        <time>2021-10-13T13:33:03Z</time>
      </trkpt>
      <trkpt lat="47.51439" lon="-1.05272">
        <ele>51</ele>
        <time>2021-10-13T13:33:05Z</time>
      </trkpt>
      <trkpt lat="47.5146" lon="-1.05259">
        <ele>50</ele>
        <time>2021-10-13T13:33:09Z</time>
      </trkpt>
      <trkpt lat="47.51465" lon="-1.05256">
        <ele>50</ele>
        <time>2021-10-13T13:33:10Z</time>
      </trkpt>
      <trkpt lat="47.51502" lon="-1.05231">
        <ele>49</ele>
        <time>2021-10-13T13:33:17Z</time>
      </trkpt>
      <trkpt lat="47.51526" lon="-1.05208">
        <ele>49</ele>
        <time>2021-10-13T13:33:22Z</time>
      </trkpt>
      <trkpt lat="47.51549" lon="-1.05201">
        <ele>48</ele>
        <time>2021-10-13T13:33:26Z</time>
      </trkpt>
      <trkpt lat="47.51556" lon="-1.05198">
        <ele>48</ele>
        <time>2021-10-13T13:33:27Z</time>
      </trkpt>
      <trkpt lat="47.51574" lon="-1.05191">
        <ele>48</ele>
        <time>2021-10-13T13:33:30Z</time>
      </trkpt>
      <trkpt lat="47.5158" lon="-1.05193">
        <ele>48</ele>
        <time>2021-10-13T13:33:31Z</time>
      </trkpt>
      <trkpt lat="47.51602" lon="-1.0521">
        <ele>46</ele>
        <time>2021-10-13T13:33:35Z</time>
      </trkpt>
      <trkpt lat="47.51607" lon="-1.05216">
        <ele>46</ele>
        <time>2021-10-13T13:33:36Z</time>
      </trkpt>
      <trkpt lat="47.51617" lon="-1.05227">
        <ele>45</ele>
        <time>2021-10-13T13:33:38Z</time>
      </trkpt>
      <trkpt lat="47.51643" lon="-1.05257">
        <ele>45</ele>
        <time>2021-10-13T13:33:43Z</time>
      </trkpt>
      <trkpt lat="47.51682" lon="-1.053">
        <ele>44</ele>
        <time>2021-10-13T13:33:51Z</time>
      </trkpt>
      <trkpt lat="47.51687" lon="-1.05304">
        <ele>44</ele>
        <time>2021-10-13T13:33:52Z</time>
      </trkpt>
      <trkpt lat="47.51719" lon="-1.05322">
        <ele>44</ele>
        <time>2021-10-13T13:33:58Z</time>
      </trkpt>
      <trkpt lat="47.51768" lon="-1.05338">
        <ele>45</ele>
        <time>2021-10-13T13:34:07Z</time>
      </trkpt>
      <trkpt lat="47.51805" lon="-1.05337">
        <ele>45</ele>
        <time>2021-10-13T13:34:14Z</time>
      </trkpt>
      <trkpt lat="47.5185" lon="-1.05325">
        <ele>44</ele>
        <time>2021-10-13T13:34:22Z</time>
      </trkpt>
      <trkpt lat="47.51881" lon="-1.05308">
        <ele>44</ele>
        <time>2021-10-13T13:34:28Z</time>
      </trkpt>
      <trkpt lat="47.51917" lon="-1.05282">
        <ele>45</ele>
        <time>2021-10-13T13:34:35Z</time>
      </trkpt>
      <trkpt lat="47.51928" lon="-1.05275">
        <ele>44</ele>
        <time>2021-10-13T13:34:37Z</time>
      </trkpt>
      <trkpt lat="47.51957" lon="-1.05265">
        <ele>43</ele>
        <time>2021-10-13T13:34:42Z</time>
      </trkpt>
      <trkpt lat="47.51994" lon="-1.05259">
        <ele>42</ele>
        <time>2021-10-13T13:34:48Z</time>
      </trkpt>
      <trkpt lat="47.52006" lon="-1.05256">
        <ele>42</ele>
        <time>2021-10-13T13:34:50Z</time>
      </trkpt>
      <trkpt lat="47.52041" lon="-1.05237">
        <ele>42</ele>
        <time>2021-10-13T13:34:56Z</time>
      </trkpt>
      <trkpt lat="47.52076" lon="-1.05216">
        <ele>43</ele>
        <time>2021-10-13T13:35:02Z</time>
      </trkpt>
      <trkpt lat="47.52083" lon="-1.05215">
        <ele>43</ele>
        <time>2021-10-13T13:35:03Z</time>
      </trkpt>
      <trkpt lat="47.52108" lon="-1.05216">
        <ele>43</ele>
        <time>2021-10-13T13:35:07Z</time>
      </trkpt>
      <trkpt lat="47.52114" lon="-1.05217">
        <ele>42</ele>
        <time>2021-10-13T13:35:08Z</time>
      </trkpt>
      <trkpt lat="47.52146" lon="-1.05231">
        <ele>42</ele>
        <time>2021-10-13T13:35:14Z</time>
      </trkpt>
      <trkpt lat="47.52186" lon="-1.05246">
        <ele>42</ele>
        <time>2021-10-13T13:35:21Z</time>
      </trkpt>
      <trkpt lat="47.52221" lon="-1.05253">
        <ele>43</ele>
        <time>2021-10-13T13:35:28Z</time>
      </trkpt>
      <trkpt lat="47.52247" lon="-1.05256">
        <ele>44</ele>
        <time>2021-10-13T13:35:35Z</time>
      </trkpt>
      <trkpt lat="47.52269" lon="-1.05258">
        <ele>45</ele>
        <time>2021-10-13T13:35:41Z</time>
      </trkpt>
      <trkpt lat="47.52283" lon="-1.05261">
        <ele>46</ele>
        <time>2021-10-13T13:35:45Z</time>
      </trkpt>
      <trkpt lat="47.52293" lon="-1.05262">
        <ele>46</ele>
        <time>2021-10-13T13:35:48Z</time>
      </trkpt>
      <trkpt lat="47.52311" lon="-1.05264">
        <ele>47</ele>
        <time>2021-10-13T13:35:53Z</time>
      </trkpt>
      <trkpt lat="47.52318" lon="-1.05265">
        <ele>48</ele>
        <time>2021-10-13T13:35:55Z</time>
      </trkpt>
      <trkpt lat="47.52335" lon="-1.05268">
        <ele>49</ele>
        <time>2021-10-13T13:36:00Z</time>
      </trkpt>
      <trkpt lat="47.52353" lon="-1.0527">
        <ele>49</ele>
        <time>2021-10-13T13:36:05Z</time>
      </trkpt>
      <trkpt lat="47.52364" lon="-1.05271">
        <ele>50</ele>
        <time>2021-10-13T13:36:08Z</time>
      </trkpt>
      <trkpt lat="47.52383" lon="-1.05272">
        <ele>50</ele>
        <time>2021-10-13T13:36:13Z</time>
      </trkpt>
      <trkpt lat="47.52392" lon="-1.05273">
        <ele>50</ele>
        <time>2021-10-13T13:36:15Z</time>
      </trkpt>
      <trkpt lat="47.52418" lon="-1.05273">
        <ele>51</ele>
        <time>2021-10-13T13:36:21Z</time>
      </trkpt>
      <trkpt lat="47.52461" lon="-1.05271">
        <ele>51</ele>
        <time>2021-10-13T13:36:30Z</time>
      </trkpt>
      <trkpt lat="47.52498" lon="-1.0527">
        <ele>49</ele>
        <time>2021-10-13T13:36:37Z</time>
      </trkpt>
      <trkpt lat="47.52531" lon="-1.05268">
        <ele>48</ele>
        <time>2021-10-13T13:36:43Z</time>
      </trkpt>
      <trkpt lat="47.52541" lon="-1.05268">
        <ele>48</ele>
        <time>2021-10-13T13:36:45Z</time>
      </trkpt>
      <trkpt lat="47.52583" lon="-1.0527">
        <ele>48</ele>
        <time>2021-10-13T13:36:54Z</time>
      </trkpt>
      <trkpt lat="47.5259" lon="-1.05266">
        <ele>49</ele>
        <time>2021-10-13T13:36:56Z</time>
      </trkpt>
      <trkpt lat="47.52593" lon="-1.05257">
        <ele>49</ele>
        <time>2021-10-13T13:36:58Z</time>
      </trkpt>
      <trkpt lat="47.52589" lon="-1.0523">
        <ele>49</ele>
        <time>2021-10-13T13:37:03Z</time>
      </trkpt>
      <trkpt lat="47.52578" lon="-1.05178">
        <ele>49</ele>
        <time>2021-10-13T13:37:12Z</time>
      </trkpt>
      <trkpt lat="47.52563" lon="-1.05121">
        <ele>49</ele>
        <time>2021-10-13T13:37:21Z</time>
      </trkpt>
      <trkpt lat="47.52552" lon="-1.05065">
        <ele>48</ele>
        <time>2021-10-13T13:37:29Z</time>
      </trkpt>
      <trkpt lat="47.5254" lon="-1.05006">
        <ele>48</ele>
        <time>2021-10-13T13:37:37Z</time>
      </trkpt>
      <trkpt lat="47.52528" lon="-1.04946">
        <ele>47</ele>
        <time>2021-10-13T13:37:45Z</time>
      </trkpt>
      <trkpt lat="47.52514" lon="-1.04894">
        <ele>44</ele>
        <time>2021-10-13T13:37:52Z</time>
      </trkpt>
      <trkpt lat="47.52512" lon="-1.04887">
        <ele>44</ele>
        <time>2021-10-13T13:37:53Z</time>
      </trkpt>
      <trkpt lat="47.52496" lon="-1.04846">
        <ele>44</ele>
        <time>2021-10-13T13:37:59Z</time>
      </trkpt>
      <trkpt lat="47.52493" lon="-1.0484">
        <ele>44</ele>
        <time>2021-10-13T13:38:00Z</time>
      </trkpt>
      <trkpt lat="47.52466" lon="-1.04792">
        <ele>43</ele>
        <time>2021-10-13T13:38:08Z</time>
      </trkpt>
      <trkpt lat="47.52463" lon="-1.04785">
        <ele>43</ele>
        <time>2021-10-13T13:38:09Z</time>
      </trkpt>
      <trkpt lat="47.52454" lon="-1.04751">
        <ele>43</ele>
        <time>2021-10-13T13:38:14Z</time>
      </trkpt>
      <trkpt lat="47.52449" lon="-1.04725">
        <ele>43</ele>
        <time>2021-10-13T13:38:18Z</time>
      </trkpt>
      <trkpt lat="47.52445" lon="-1.04705">
        <ele>42</ele>
        <time>2021-10-13T13:38:21Z</time>
      </trkpt>
      <trkpt lat="47.52434" lon="-1.04649">
        <ele>41</ele>
        <time>2021-10-13T13:38:29Z</time>
      </trkpt>
      <trkpt lat="47.52427" lon="-1.04597">
        <ele>42</ele>
        <time>2021-10-13T13:38:36Z</time>
      </trkpt>
      <trkpt lat="47.52424" lon="-1.04552">
        <ele>42</ele>
        <time>2021-10-13T13:38:43Z</time>
      </trkpt>
      <trkpt lat="47.52417" lon="-1.04496">
        <ele>42</ele>
        <time>2021-10-13T13:38:51Z</time>
      </trkpt>
      <trkpt lat="47.52413" lon="-1.04452">
        <ele>43</ele>
        <time>2021-10-13T13:38:57Z</time>
      </trkpt>
      <trkpt lat="47.52413" lon="-1.04445">
        <ele>43</ele>
        <time>2021-10-13T13:38:58Z</time>
      </trkpt>
      <trkpt lat="47.52411" lon="-1.04406">
        <ele>42</ele>
        <time>2021-10-13T13:39:04Z</time>
      </trkpt>
      <trkpt lat="47.52407" lon="-1.04394">
        <ele>42</ele>
        <time>2021-10-13T13:39:06Z</time>
      </trkpt>
      <trkpt lat="47.52404" lon="-1.04374">
        <ele>42</ele>
        <time>2021-10-13T13:39:09Z</time>
      </trkpt>
      <trkpt lat="47.52403" lon="-1.04354">
        <ele>42</ele>
        <time>2021-10-13T13:39:12Z</time>
      </trkpt>
      <trkpt lat="47.52401" lon="-1.04311">
        <ele>42</ele>
        <time>2021-10-13T13:39:19Z</time>
      </trkpt>
      <trkpt lat="47.524" lon="-1.04282">
        <ele>42</ele>
        <time>2021-10-13T13:39:25Z</time>
      </trkpt>
      <trkpt lat="47.52399" lon="-1.04249">
        <ele>42</ele>
        <time>2021-10-13T13:39:32Z</time>
      </trkpt>
      <trkpt lat="47.52393" lon="-1.04224">
        <ele>42</ele>
        <time>2021-10-13T13:39:38Z</time>
      </trkpt>
      <trkpt lat="47.52381" lon="-1.04185">
        <ele>42</ele>
        <time>2021-10-13T13:39:45Z</time>
      </trkpt>
      <trkpt lat="47.5237" lon="-1.04154">
        <ele>42</ele>
        <time>2021-10-13T13:39:51Z</time>
      </trkpt>
      <trkpt lat="47.52363" lon="-1.04129">
        <ele>42</ele>
        <time>2021-10-13T13:39:57Z</time>
      </trkpt>
      <trkpt lat="47.52351" lon="-1.0409">
        <ele>43</ele>
        <time>2021-10-13T13:40:06Z</time>
      </trkpt>
      <trkpt lat="47.52343" lon="-1.04062">
        <ele>43</ele>
        <time>2021-10-13T13:40:13Z</time>
      </trkpt>
      <trkpt lat="47.52344" lon="-1.04054">
        <ele>44</ele>
        <time>2021-10-13T13:40:15Z</time>
      </trkpt>
      <trkpt lat="47.52348" lon="-1.0405">
        <ele>44</ele>
        <time>2021-10-13T13:40:17Z</time>
      </trkpt>
      <trkpt lat="47.52361" lon="-1.04043">
        <ele>44</ele>
        <time>2021-10-13T13:40:21Z</time>
      </trkpt>
      <trkpt lat="47.52364" lon="-1.04041">
        <ele>43</ele>
        <time>2021-10-13T13:40:22Z</time>
      </trkpt>
      <trkpt lat="47.5239" lon="-1.04027">
        <ele>43</ele>
        <time>2021-10-13T13:40:29Z</time>
      </trkpt>
      <trkpt lat="47.52426" lon="-1.04009">
        <ele>43</ele>
        <time>2021-10-13T13:40:38Z</time>
      </trkpt>
      <trkpt lat="47.52448" lon="-1.03997">
        <ele>44</ele>
        <time>2021-10-13T13:40:45Z</time>
      </trkpt>
      <trkpt lat="47.5246" lon="-1.03981">
        <ele>44</ele>
        <time>2021-10-13T13:40:49Z</time>
      </trkpt>
      <trkpt lat="47.52463" lon="-1.03975">
        <ele>44</ele>
        <time>2021-10-13T13:40:50Z</time>
      </trkpt>
      <trkpt lat="47.52482" lon="-1.03953">
        <ele>44</ele>
        <time>2021-10-13T13:40:56Z</time>
      </trkpt>
      <trkpt lat="47.52503" lon="-1.03936">
        <ele>45</ele>
        <time>2021-10-13T13:41:03Z</time>
      </trkpt>
      <trkpt lat="47.52528" lon="-1.03914">
        <ele>45</ele>
        <time>2021-10-13T13:41:11Z</time>
      </trkpt>
      <trkpt lat="47.52551" lon="-1.0389">
        <ele>45</ele>
        <time>2021-10-13T13:41:19Z</time>
      </trkpt>
      <trkpt lat="47.52579" lon="-1.03869">
        <ele>45</ele>
        <time>2021-10-13T13:41:27Z</time>
      </trkpt>
      <trkpt lat="47.52594" lon="-1.03859">
        <ele>45</ele>
        <time>2021-10-13T13:41:33Z</time>
      </trkpt>
      <trkpt lat="47.52613" lon="-1.03844">
        <ele>46</ele>
        <time>2021-10-13T13:41:41Z</time>
      </trkpt>
      <trkpt lat="47.52624" lon="-1.03838">
        <ele>46</ele>
        <time>2021-10-13T13:41:45Z</time>
      </trkpt>
      <trkpt lat="47.52633" lon="-1.03831">
        <ele>46</ele>
        <time>2021-10-13T13:41:49Z</time>
      </trkpt>
      <trkpt lat="47.52644" lon="-1.0382">
        <ele>47</ele>
        <time>2021-10-13T13:41:54Z</time>
      </trkpt>
      <trkpt lat="47.52648" lon="-1.03817">
        <ele>47</ele>
        <time>2021-10-13T13:41:56Z</time>
      </trkpt>
      <trkpt lat="47.52661" lon="-1.03799">
        <ele>47</ele>
        <time>2021-10-13T13:42:03Z</time>
      </trkpt>
      <trkpt lat="47.52663" lon="-1.03796">
        <ele>47</ele>
        <time>2021-10-13T13:42:04Z</time>
      </trkpt>
      <trkpt lat="47.52679" lon="-1.0378">
        <ele>48</ele>
        <time>2021-10-13T13:42:12Z</time>
      </trkpt>
      <trkpt lat="47.52682" lon="-1.03777">
        <ele>48</ele>
        <time>2021-10-13T13:42:14Z</time>
      </trkpt>
      <trkpt lat="47.52695" lon="-1.03773">
        <ele>49</ele>
        <time>2021-10-13T13:42:20Z</time>
      </trkpt>
      <trkpt lat="47.52697" lon="-1.03773">
        <ele>49</ele>
        <time>2021-10-13T13:42:21Z</time>
      </trkpt>
      <trkpt lat="47.52713" lon="-1.03768">
        <ele>49</ele>
        <time>2021-10-13T13:42:28Z</time>
      </trkpt>
      <trkpt lat="47.52718" lon="-1.03766">
        <ele>49</ele>
        <time>2021-10-13T13:42:30Z</time>
      </trkpt>
      <trkpt lat="47.52739" lon="-1.03759">
        <ele>50</ele>
        <time>2021-10-13T13:42:38Z</time>
      </trkpt>
      <trkpt lat="47.52746" lon="-1.03758">
        <ele>50</ele>
        <time>2021-10-13T13:42:41Z</time>
      </trkpt>
      <trkpt lat="47.52759" lon="-1.03755">
        <ele>51</ele>
        <time>2021-10-13T13:42:47Z</time>
      </trkpt>
      <trkpt lat="47.52767" lon="-1.03753">
        <ele>51</ele>
        <time>2021-10-13T13:42:50Z</time>
      </trkpt>
      <trkpt lat="47.52783" lon="-1.03749">
        <ele>52</ele>
        <time>2021-10-13T13:42:57Z</time>
      </trkpt>
      <trkpt lat="47.52788" lon="-1.03748">
        <ele>52</ele>
        <time>2021-10-13T13:42:59Z</time>
      </trkpt>
      <trkpt lat="47.52805" lon="-1.03746">
        <ele>53</ele>
        <time>2021-10-13T13:43:06Z</time>
      </trkpt>
      <trkpt lat="47.5281" lon="-1.03746">
        <ele>53</ele>
        <time>2021-10-13T13:43:08Z</time>
      </trkpt>
      <trkpt lat="47.52827" lon="-1.03747">
        <ele>54</ele>
        <time>2021-10-13T13:43:14Z</time>
      </trkpt>
      <trkpt lat="47.52835" lon="-1.03747">
        <ele>55</ele>
        <time>2021-10-13T13:43:17Z</time>
      </trkpt>
      <trkpt lat="47.52844" lon="-1.03747">
        <ele>55</ele>
        <time>2021-10-13T13:43:21Z</time>
      </trkpt>
      <trkpt lat="47.52865" lon="-1.03746">
        <ele>57</ele>
        <time>2021-10-13T13:43:29Z</time>
      </trkpt>
      <trkpt lat="47.52867" lon="-1.03746">
        <ele>57</ele>
        <time>2021-10-13T13:43:30Z</time>
      </trkpt>
      <trkpt lat="47.52896" lon="-1.03744">
        <ele>58</ele>
        <time>2021-10-13T13:43:40Z</time>
      </trkpt>
      <trkpt lat="47.5292" lon="-1.03741">
        <ele>58</ele>
        <time>2021-10-13T13:43:48Z</time>
      </trkpt>
      <trkpt lat="47.52933" lon="-1.03741">
        <ele>58</ele>
        <time>2021-10-13T13:43:52Z</time>
      </trkpt>
      <trkpt lat="47.52946" lon="-1.03742">
        <ele>58</ele>
        <time>2021-10-13T13:43:56Z</time>
      </trkpt>
      <trkpt lat="47.5297" lon="-1.0374">
        <ele>58</ele>
        <time>2021-10-13T13:44:04Z</time>
      </trkpt>
      <trkpt lat="47.5299" lon="-1.03735">
        <ele>57</ele>
        <time>2021-10-13T13:44:11Z</time>
      </trkpt>
      <trkpt lat="47.52993" lon="-1.03735">
        <ele>57</ele>
        <time>2021-10-13T13:44:12Z</time>
      </trkpt>
      <trkpt lat="47.53013" lon="-1.03727">
        <ele>57</ele>
        <time>2021-10-13T13:44:19Z</time>
      </trkpt>
      <trkpt lat="47.53049" lon="-1.03716">
        <ele>58</ele>
        <time>2021-10-13T13:44:30Z</time>
      </trkpt>
      <trkpt lat="47.53069" lon="-1.03709">
        <ele>58</ele>
        <time>2021-10-13T13:44:37Z</time>
      </trkpt>
      <trkpt lat="47.53082" lon="-1.03701">
        <ele>58</ele>
        <time>2021-10-13T13:44:43Z</time>
      </trkpt>
      <trkpt lat="47.53101" lon="-1.03691">
        <ele>59</ele>
        <time>2021-10-13T13:44:50Z</time>
      </trkpt>
      <trkpt lat="47.53118" lon="-1.03683">
        <ele>58</ele>
        <time>2021-10-13T13:44:56Z</time>
      </trkpt>
      <trkpt lat="47.53123" lon="-1.03678">
        <ele>58</ele>
        <time>2021-10-13T13:44:59Z</time>
      </trkpt>
      <trkpt lat="47.53124" lon="-1.03673">
        <ele>58</ele>
        <time>2021-10-13T13:45:01Z</time>
      </trkpt>
      <trkpt lat="47.53123" lon="-1.03664">
        <ele>59</ele>
        <time>2021-10-13T13:45:04Z</time>
      </trkpt>
      <trkpt lat="47.53121" lon="-1.03656">
        <ele>59</ele>
        <time>2021-10-13T13:45:06Z</time>
      </trkpt>
      <trkpt lat="47.53108" lon="-1.03632">
        <ele>59</ele>
        <time>2021-10-13T13:45:14Z</time>
      </trkpt>
      <trkpt lat="47.53089" lon="-1.03593">
        <ele>59</ele>
        <time>2021-10-13T13:45:25Z</time>
      </trkpt>
      <trkpt lat="47.53075" lon="-1.03557">
        <ele>59</ele>
        <time>2021-10-13T13:45:33Z</time>
      </trkpt>
      <trkpt lat="47.53062" lon="-1.03525">
        <ele>58</ele>
        <time>2021-10-13T13:45:40Z</time>
      </trkpt>
      <trkpt lat="47.53052" lon="-1.03491">
        <ele>58</ele>
        <time>2021-10-13T13:45:48Z</time>
      </trkpt>
      <trkpt lat="47.53039" lon="-1.03451">
        <ele>59</ele>
        <time>2021-10-13T13:45:56Z</time>
      </trkpt>
      <trkpt lat="47.53029" lon="-1.0341">
        <ele>60</ele>
        <time>2021-10-13T13:46:04Z</time>
      </trkpt>
      <trkpt lat="47.53017" lon="-1.03369">
        <ele>60</ele>
        <time>2021-10-13T13:46:12Z</time>
      </trkpt>
      <trkpt lat="47.53007" lon="-1.0333">
        <ele>61</ele>
        <time>2021-10-13T13:46:20Z</time>
      </trkpt>
      <trkpt lat="47.53" lon="-1.03292">
        <ele>62</ele>
        <time>2021-10-13T13:46:28Z</time>
      </trkpt>
      <trkpt lat="47.52997" lon="-1.03258">
        <ele>63</ele>
        <time>2021-10-13T13:46:35Z</time>
      </trkpt>
      <trkpt lat="47.52997" lon="-1.03253">
        <ele>63</ele>
        <time>2021-10-13T13:46:36Z</time>
      </trkpt>
      <trkpt lat="47.52996" lon="-1.03217">
        <ele>63</ele>
        <time>2021-10-13T13:46:44Z</time>
      </trkpt>
      <trkpt lat="47.52998" lon="-1.03187">
        <ele>63</ele>
        <time>2021-10-13T13:46:50Z</time>
      </trkpt>
      <trkpt lat="47.52998" lon="-1.03168">
        <ele>63</ele>
        <time>2021-10-13T13:46:54Z</time>
      </trkpt>
      <trkpt lat="47.52998" lon="-1.03136">
        <ele>64</ele>
        <time>2021-10-13T13:47:01Z</time>
      </trkpt>
      <trkpt lat="47.53" lon="-1.0312">
        <ele>64</ele>
        <time>2021-10-13T13:47:05Z</time>
      </trkpt>
      <trkpt lat="47.53" lon="-1.03103">
        <ele>64</ele>
        <time>2021-10-13T13:47:09Z</time>
      </trkpt>
      <trkpt lat="47.52997" lon="-1.03077">
        <ele>64</ele>
        <time>2021-10-13T13:47:16Z</time>
      </trkpt>
      <trkpt lat="47.52995" lon="-1.0307">
        <ele>64</ele>
        <time>2021-10-13T13:47:18Z</time>
      </trkpt>
      <trkpt lat="47.52992" lon="-1.03047">
        <ele>64</ele>
        <time>2021-10-13T13:47:25Z</time>
      </trkpt>
      <trkpt lat="47.52991" lon="-1.03037">
        <ele>64</ele>
        <time>2021-10-13T13:47:29Z</time>
      </trkpt>
      <trkpt lat="47.52991" lon="-1.03028">
        <ele>64</ele>
        <time>2021-10-13T13:47:39Z</time>
      </trkpt>
      <trkpt lat="47.52996" lon="-1.03026">
        <ele>64</ele>
        <time>2021-10-13T13:47:41Z</time>
      </trkpt>
      <trkpt lat="47.53019" lon="-1.03023">
        <ele>64</ele>
        <time>2021-10-13T13:47:47Z</time>
      </trkpt>
      <trkpt lat="47.53028" lon="-1.03023">
        <ele>64</ele>
        <time>2021-10-13T13:47:49Z</time>
      </trkpt>
      <trkpt lat="47.53046" lon="-1.03023">
        <ele>64</ele>
        <time>2021-10-13T13:47:53Z</time>
      </trkpt>
      <trkpt lat="47.53085" lon="-1.03025">
        <ele>64</ele>
        <time>2021-10-13T13:48:02Z</time>
      </trkpt>
      <trkpt lat="47.53097" lon="-1.03026">
        <ele>64</ele>
        <time>2021-10-13T13:48:05Z</time>
      </trkpt>
      <trkpt lat="47.53125" lon="-1.03028">
        <ele>64</ele>
        <time>2021-10-13T13:48:11Z</time>
      </trkpt>
      <trkpt lat="47.53172" lon="-1.03034">
        <ele>64</ele>
        <time>2021-10-13T13:48:21Z</time>
      </trkpt>
      <trkpt lat="47.53212" lon="-1.03038">
        <ele>65</ele>
        <time>2021-10-13T13:48:30Z</time>
      </trkpt>
      <trkpt lat="47.53216" lon="-1.03038">
        <ele>66</ele>
        <time>2021-10-13T13:48:31Z</time>
      </trkpt>
      <trkpt lat="47.53248" lon="-1.03041">
        <ele>68</ele>
        <time>2021-10-13T13:48:39Z</time>
      </trkpt>
      <trkpt lat="47.53279" lon="-1.03042">
        <ele>69</ele>
        <time>2021-10-13T13:48:47Z</time>
      </trkpt>
      <trkpt lat="47.53286" lon="-1.03042">
        <ele>69</ele>
        <time>2021-10-13T13:48:49Z</time>
      </trkpt>
      <trkpt lat="47.53308" lon="-1.03042">
        <ele>69</ele>
        <time>2021-10-13T13:48:55Z</time>
      </trkpt>
      <trkpt lat="47.53325" lon="-1.03041">
        <ele>69</ele>
        <time>2021-10-13T13:49:00Z</time>
      </trkpt>
      <trkpt lat="47.53328" lon="-1.03041">
        <ele>69</ele>
        <time>2021-10-13T13:49:01Z</time>
      </trkpt>
      <trkpt lat="47.5335" lon="-1.03038">
        <ele>70</ele>
        <time>2021-10-13T13:49:08Z</time>
      </trkpt>
      <trkpt lat="47.53351" lon="-1.03019">
        <ele>70</ele>
        <time>2021-10-13T13:49:12Z</time>
      </trkpt>
      <trkpt lat="47.53347" lon="-1.02984">
        <ele>72</ele>
        <time>2021-10-13T13:49:19Z</time>
      </trkpt>
      <trkpt lat="47.53346" lon="-1.02975">
        <ele>72</ele>
        <time>2021-10-13T13:49:21Z</time>
      </trkpt>
      <trkpt lat="47.53345" lon="-1.02951">
        <ele>73</ele>
        <time>2021-10-13T13:49:27Z</time>
      </trkpt>
      <trkpt lat="47.53344" lon="-1.02943">
        <ele>74</ele>
        <time>2021-10-13T13:49:29Z</time>
      </trkpt>
      <trkpt lat="47.53342" lon="-1.02929">
        <ele>74</ele>
        <time>2021-10-13T13:49:33Z</time>
      </trkpt>
      <trkpt lat="47.53335" lon="-1.02906">
        <ele>75</ele>
        <time>2021-10-13T13:49:40Z</time>
      </trkpt>
      <trkpt lat="47.53331" lon="-1.02894">
        <ele>75</ele>
        <time>2021-10-13T13:49:44Z</time>
      </trkpt>
      <trkpt lat="47.53326" lon="-1.02878">
        <ele>76</ele>
        <time>2021-10-13T13:49:49Z</time>
      </trkpt>
      <trkpt lat="47.53317" lon="-1.0285">
        <ele>76</ele>
        <time>2021-10-13T13:49:57Z</time>
      </trkpt>
      <trkpt lat="47.53316" lon="-1.02846">
        <ele>76</ele>
        <time>2021-10-13T13:49:58Z</time>
      </trkpt>
      <trkpt lat="47.53307" lon="-1.02822">
        <ele>77</ele>
        <time>2021-10-13T13:50:05Z</time>
      </trkpt>
      <trkpt lat="47.53296" lon="-1.02793">
        <ele>77</ele>
        <time>2021-10-13T13:50:12Z</time>
      </trkpt>
      <trkpt lat="47.53289" lon="-1.0276">
        <ele>77</ele>
        <time>2021-10-13T13:50:19Z</time>
      </trkpt>
      <trkpt lat="47.53283" lon="-1.02729">
        <ele>77</ele>
        <time>2021-10-13T13:50:26Z</time>
      </trkpt>
      <trkpt lat="47.53279" lon="-1.02692">
        <ele>77</ele>
        <time>2021-10-13T13:50:35Z</time>
      </trkpt>
      <trkpt lat="47.53278" lon="-1.02658">
        <ele>76</ele>
        <time>2021-10-13T13:50:42Z</time>
      </trkpt>
      <trkpt lat="47.53276" lon="-1.0262">
        <ele>76</ele>
        <time>2021-10-13T13:50:49Z</time>
      </trkpt>
      <trkpt lat="47.53271" lon="-1.02594">
        <ele>74</ele>
        <time>2021-10-13T13:50:54Z</time>
      </trkpt>
      <trkpt lat="47.53268" lon="-1.02575">
        <ele>73</ele>
        <time>2021-10-13T13:50:58Z</time>
      </trkpt>
      <trkpt lat="47.5326" lon="-1.02543">
        <ele>73</ele>
        <time>2021-10-13T13:51:05Z</time>
      </trkpt>
      <trkpt lat="47.53258" lon="-1.02537">
        <ele>73</ele>
        <time>2021-10-13T13:51:06Z</time>
      </trkpt>
      <trkpt lat="47.53251" lon="-1.02512">
        <ele>73</ele>
        <time>2021-10-13T13:51:12Z</time>
      </trkpt>
      <trkpt lat="47.53241" lon="-1.02482">
        <ele>73</ele>
        <time>2021-10-13T13:51:18Z</time>
      </trkpt>
      <trkpt lat="47.53231" lon="-1.02443">
        <ele>73</ele>
        <time>2021-10-13T13:51:25Z</time>
      </trkpt>
      <trkpt lat="47.53226" lon="-1.02402">
        <ele>74</ele>
        <time>2021-10-13T13:51:32Z</time>
      </trkpt>
      <trkpt lat="47.53222" lon="-1.02369">
        <ele>73</ele>
        <time>2021-10-13T13:51:39Z</time>
      </trkpt>
      <trkpt lat="47.53217" lon="-1.02332">
        <ele>74</ele>
        <time>2021-10-13T13:51:47Z</time>
      </trkpt>
      <trkpt lat="47.5321" lon="-1.02297">
        <ele>74</ele>
        <time>2021-10-13T13:51:55Z</time>
      </trkpt>
      <trkpt lat="47.53206" lon="-1.02262">
        <ele>74</ele>
        <time>2021-10-13T13:52:02Z</time>
      </trkpt>
      <trkpt lat="47.53202" lon="-1.02222">
        <ele>75</ele>
        <time>2021-10-13T13:52:10Z</time>
      </trkpt>
      <trkpt lat="47.53197" lon="-1.02191">
        <ele>77</ele>
        <time>2021-10-13T13:52:17Z</time>
      </trkpt>
      <trkpt lat="47.53193" lon="-1.02175">
        <ele>77</ele>
        <time>2021-10-13T13:52:21Z</time>
      </trkpt>
      <trkpt lat="47.53187" lon="-1.0215">
        <ele>78</ele>
        <time>2021-10-13T13:52:26Z</time>
      </trkpt>
      <trkpt lat="47.53179" lon="-1.02124">
        <ele>78</ele>
        <time>2021-10-13T13:52:33Z</time>
      </trkpt>
      <trkpt lat="47.53168" lon="-1.02089">
        <ele>79</ele>
        <time>2021-10-13T13:52:41Z</time>
      </trkpt>
      <trkpt lat="47.53162" lon="-1.02069">
        <ele>79</ele>
        <time>2021-10-13T13:52:45Z</time>
      </trkpt>
      <trkpt lat="47.53159" lon="-1.02058">
        <ele>79</ele>
        <time>2021-10-13T13:52:47Z</time>
      </trkpt>
      <trkpt lat="47.53149" lon="-1.02009">
        <ele>78</ele>
        <time>2021-10-13T13:52:56Z</time>
      </trkpt>
      <trkpt lat="47.53141" lon="-1.01964">
        <ele>75</ele>
        <time>2021-10-13T13:53:04Z</time>
      </trkpt>
      <trkpt lat="47.5314" lon="-1.01958">
        <ele>75</ele>
        <time>2021-10-13T13:53:05Z</time>
      </trkpt>
      <trkpt lat="47.53135" lon="-1.01927">
        <ele>74</ele>
        <time>2021-10-13T13:53:11Z</time>
      </trkpt>
      <trkpt lat="47.53133" lon="-1.01911">
        <ele>73</ele>
        <time>2021-10-13T13:53:14Z</time>
      </trkpt>
      <trkpt lat="47.5313" lon="-1.01894">
        <ele>72</ele>
        <time>2021-10-13T13:53:17Z</time>
      </trkpt>
      <trkpt lat="47.53125" lon="-1.01877">
        <ele>71</ele>
        <time>2021-10-13T13:53:20Z</time>
      </trkpt>
      <trkpt lat="47.53116" lon="-1.01854">
        <ele>70</ele>
        <time>2021-10-13T13:53:24Z</time>
      </trkpt>
      <trkpt lat="47.53113" lon="-1.01849">
        <ele>70</ele>
        <time>2021-10-13T13:53:25Z</time>
      </trkpt>
      <trkpt lat="47.53102" lon="-1.01822">
        <ele>69</ele>
        <time>2021-10-13T13:53:30Z</time>
      </trkpt>
      <trkpt lat="47.53097" lon="-1.01813">
        <ele>68</ele>
        <time>2021-10-13T13:53:32Z</time>
      </trkpt>
      <trkpt lat="47.53091" lon="-1.01802">
        <ele>69</ele>
        <time>2021-10-13T13:53:35Z</time>
      </trkpt>
      <trkpt lat="47.53083" lon="-1.01791">
        <ele>69</ele>
        <time>2021-10-13T13:53:38Z</time>
      </trkpt>
      <trkpt lat="47.53077" lon="-1.01766">
        <ele>68</ele>
        <time>2021-10-13T13:53:43Z</time>
      </trkpt>
      <trkpt lat="47.53075" lon="-1.01739">
        <ele>67</ele>
        <time>2021-10-13T13:53:48Z</time>
      </trkpt>
      <trkpt lat="47.53074" lon="-1.0173">
        <ele>67</ele>
        <time>2021-10-13T13:53:50Z</time>
      </trkpt>
      <trkpt lat="47.53073" lon="-1.01718">
        <ele>67</ele>
        <time>2021-10-13T13:53:53Z</time>
      </trkpt>
      <trkpt lat="47.53071" lon="-1.01715">
        <ele>67</ele>
        <time>2021-10-13T13:53:54Z</time>
      </trkpt>
      <trkpt lat="47.53068" lon="-1.01712">
        <ele>67</ele>
        <time>2021-10-13T13:53:55Z</time>
      </trkpt>
      <trkpt lat="47.53058" lon="-1.01711">
        <ele>67</ele>
        <time>2021-10-13T13:53:58Z</time>
      </trkpt>
      <trkpt lat="47.53054" lon="-1.01711">
        <ele>67</ele>
        <time>2021-10-13T13:53:59Z</time>
      </trkpt>
      <trkpt lat="47.53049" lon="-1.01711">
        <ele>67</ele>
        <time>2021-10-13T13:54:00Z</time>
      </trkpt>
      <trkpt lat="47.53027" lon="-1.01711">
        <ele>65</ele>
        <time>2021-10-13T13:54:05Z</time>
      </trkpt>
      <trkpt lat="47.52996" lon="-1.01717">
        <ele>65</ele>
        <time>2021-10-13T13:54:12Z</time>
      </trkpt>
      <trkpt lat="47.52967" lon="-1.01725">
        <ele>67</ele>
        <time>2021-10-13T13:54:19Z</time>
      </trkpt>
      <trkpt lat="47.52942" lon="-1.01729">
        <ele>68</ele>
        <time>2021-10-13T13:54:26Z</time>
      </trkpt>
      <trkpt lat="47.52926" lon="-1.01731">
        <ele>68</ele>
        <time>2021-10-13T13:54:31Z</time>
      </trkpt>
      <trkpt lat="47.52906" lon="-1.01735">
        <ele>69</ele>
        <time>2021-10-13T13:54:37Z</time>
      </trkpt>
      <trkpt lat="47.5288" lon="-1.01741">
        <ele>69</ele>
        <time>2021-10-13T13:54:45Z</time>
      </trkpt>
      <trkpt lat="47.52849" lon="-1.01748">
        <ele>70</ele>
        <time>2021-10-13T13:54:54Z</time>
      </trkpt>
      <trkpt lat="47.52822" lon="-1.01754">
        <ele>70</ele>
        <time>2021-10-13T13:55:02Z</time>
      </trkpt>
      <trkpt lat="47.5282" lon="-1.01753">
        <ele>70</ele>
        <time>2021-10-13T13:55:03Z</time>
      </trkpt>
      <trkpt lat="47.52812" lon="-1.01741">
        <ele>70</ele>
        <time>2021-10-13T13:55:07Z</time>
      </trkpt>
      <trkpt lat="47.52805" lon="-1.01709">
        <ele>70</ele>
        <time>2021-10-13T13:55:14Z</time>
      </trkpt>
      <trkpt lat="47.52796" lon="-1.01664">
        <ele>70</ele>
        <time>2021-10-13T13:55:24Z</time>
      </trkpt>
      <trkpt lat="47.52792" lon="-1.01638">
        <ele>71</ele>
        <time>2021-10-13T13:55:30Z</time>
      </trkpt>
      <trkpt lat="47.52785" lon="-1.016">
        <ele>70</ele>
        <time>2021-10-13T13:55:38Z</time>
      </trkpt>
      <trkpt lat="47.52777" lon="-1.0156">
        <ele>70</ele>
        <time>2021-10-13T13:55:47Z</time>
      </trkpt>
      <trkpt lat="47.52772" lon="-1.01532">
        <ele>70</ele>
        <time>2021-10-13T13:55:54Z</time>
      </trkpt>
      <trkpt lat="47.52768" lon="-1.01511">
        <ele>69</ele>
        <time>2021-10-13T13:56:00Z</time>
      </trkpt>
      <trkpt lat="47.52762" lon="-1.01479">
        <ele>68</ele>
        <time>2021-10-13T13:56:07Z</time>
      </trkpt>
      <trkpt lat="47.52758" lon="-1.01457">
        <ele>67</ele>
        <time>2021-10-13T13:56:12Z</time>
      </trkpt>
      <trkpt lat="47.52755" lon="-1.01444">
        <ele>67</ele>
        <time>2021-10-13T13:56:15Z</time>
      </trkpt>
      <trkpt lat="47.52744" lon="-1.01404">
        <ele>67</ele>
        <time>2021-10-13T13:56:23Z</time>
      </trkpt>
      <trkpt lat="47.52736" lon="-1.01376">
        <ele>67</ele>
        <time>2021-10-13T13:56:29Z</time>
      </trkpt>
      <trkpt lat="47.52735" lon="-1.01372">
        <ele>67</ele>
        <time>2021-10-13T13:56:39Z</time>
      </trkpt>
      <trkpt lat="47.52729" lon="-1.01356">
        <ele>67</ele>
        <time>2021-10-13T13:56:44Z</time>
      </trkpt>
      <trkpt lat="47.52718" lon="-1.01325">
        <ele>68</ele>
        <time>2021-10-13T13:56:51Z</time>
      </trkpt>
      <trkpt lat="47.52706" lon="-1.013">
        <ele>67</ele>
        <time>2021-10-13T13:56:57Z</time>
      </trkpt>
      <trkpt lat="47.52703" lon="-1.01291">
        <ele>67</ele>
        <time>2021-10-13T13:56:59Z</time>
      </trkpt>
      <trkpt lat="47.52695" lon="-1.01274">
        <ele>67</ele>
        <time>2021-10-13T13:57:04Z</time>
      </trkpt>
      <trkpt lat="47.52683" lon="-1.01248">
        <ele>66</ele>
        <time>2021-10-13T13:57:10Z</time>
      </trkpt>
      <trkpt lat="47.52682" lon="-1.01245">
        <ele>66</ele>
        <time>2021-10-13T13:57:11Z</time>
      </trkpt>
      <trkpt lat="47.52669" lon="-1.01216">
        <ele>65</ele>
        <time>2021-10-13T13:57:18Z</time>
      </trkpt>
      <trkpt lat="47.52661" lon="-1.01195">
        <ele>65</ele>
        <time>2021-10-13T13:57:23Z</time>
      </trkpt>
      <trkpt lat="47.52657" lon="-1.01182">
        <ele>64</ele>
        <time>2021-10-13T13:57:26Z</time>
      </trkpt>
      <trkpt lat="47.5265" lon="-1.01167">
        <ele>64</ele>
        <time>2021-10-13T13:57:30Z</time>
      </trkpt>
      <trkpt lat="47.52646" lon="-1.0116">
        <ele>64</ele>
        <time>2021-10-13T13:57:32Z</time>
      </trkpt>
      <trkpt lat="47.52642" lon="-1.01142">
        <ele>63</ele>
        <time>2021-10-13T13:57:37Z</time>
      </trkpt>
      <trkpt lat="47.52643" lon="-1.01139">
        <ele>63</ele>
        <time>2021-10-13T13:57:38Z</time>
      </trkpt>
      <trkpt lat="47.5265" lon="-1.01132">
        <ele>63</ele>
        <time>2021-10-13T13:57:42Z</time>
      </trkpt>
      <trkpt lat="47.5267" lon="-1.01122">
        <ele>62</ele>
        <time>2021-10-13T13:57:49Z</time>
      </trkpt>
      <trkpt lat="47.52692" lon="-1.01117">
        <ele>62</ele>
        <time>2021-10-13T13:57:56Z</time>
      </trkpt>
      <trkpt lat="47.52714" lon="-1.01109">
        <ele>63</ele>
        <time>2021-10-13T13:58:03Z</time>
      </trkpt>
      <trkpt lat="47.52724" lon="-1.01106">
        <ele>63</ele>
        <time>2021-10-13T13:58:06Z</time>
      </trkpt>
      <trkpt lat="47.52739" lon="-1.01097">
        <ele>63</ele>
        <time>2021-10-13T13:58:11Z</time>
      </trkpt>
      <trkpt lat="47.52753" lon="-1.01089">
        <ele>63</ele>
        <time>2021-10-13T13:58:17Z</time>
      </trkpt>
      <trkpt lat="47.52763" lon="-1.01078">
        <ele>62</ele>
        <time>2021-10-13T13:58:22Z</time>
      </trkpt>
      <trkpt lat="47.52763" lon="-1.0106">
        <ele>62</ele>
        <time>2021-10-13T13:58:26Z</time>
      </trkpt>
      <trkpt lat="47.52762" lon="-1.01055">
        <ele>61</ele>
        <time>2021-10-13T13:58:27Z</time>
      </trkpt>
      <trkpt lat="47.52754" lon="-1.01024">
        <ele>60</ele>
        <time>2021-10-13T13:58:34Z</time>
      </trkpt>
      <trkpt lat="47.5275" lon="-1.01005">
        <ele>60</ele>
        <time>2021-10-13T13:58:38Z</time>
      </trkpt>
      <trkpt lat="47.52749" lon="-1.00984">
        <ele>61</ele>
        <time>2021-10-13T13:58:42Z</time>
      </trkpt>
      <trkpt lat="47.5275" lon="-1.00977">
        <ele>60</ele>
        <time>2021-10-13T13:58:43Z</time>
      </trkpt>
      <trkpt lat="47.52757" lon="-1.00955">
        <ele>59</ele>
        <time>2021-10-13T13:58:47Z</time>
      </trkpt>
      <trkpt lat="47.52759" lon="-1.00949">
        <ele>59</ele>
        <time>2021-10-13T13:58:48Z</time>
      </trkpt>
      <trkpt lat="47.5276" lon="-1.00927">
        <ele>58</ele>
        <time>2021-10-13T13:58:52Z</time>
      </trkpt>
      <trkpt lat="47.52759" lon="-1.00922">
        <ele>58</ele>
        <time>2021-10-13T13:58:53Z</time>
      </trkpt>
      <trkpt lat="47.52756" lon="-1.00893">
        <ele>57</ele>
        <time>2021-10-13T13:58:59Z</time>
      </trkpt>
      <trkpt lat="47.52758" lon="-1.00868">
        <ele>56</ele>
        <time>2021-10-13T13:59:04Z</time>
      </trkpt>
      <trkpt lat="47.52759" lon="-1.00857">
        <ele>56</ele>
        <time>2021-10-13T13:59:06Z</time>
      </trkpt>
      <trkpt lat="47.5277" lon="-1.00816">
        <ele>54</ele>
        <time>2021-10-13T13:59:13Z</time>
      </trkpt>
      <trkpt lat="47.52778" lon="-1.00787">
        <ele>52</ele>
        <time>2021-10-13T13:59:18Z</time>
      </trkpt>
      <trkpt lat="47.52779" lon="-1.00781">
        <ele>52</ele>
        <time>2021-10-13T13:59:19Z</time>
      </trkpt>
      <trkpt lat="47.52783" lon="-1.00745">
        <ele>51</ele>
        <time>2021-10-13T13:59:25Z</time>
      </trkpt>
      <trkpt lat="47.52784" lon="-1.00738">
        <ele>51</ele>
        <time>2021-10-13T13:59:26Z</time>
      </trkpt>
      <trkpt lat="47.52785" lon="-1.0073">
        <ele>51</ele>
        <time>2021-10-13T13:59:27Z</time>
      </trkpt>
      <trkpt lat="47.52795" lon="-1.00681">
        <ele>51</ele>
        <time>2021-10-13T13:59:34Z</time>
      </trkpt>
      <trkpt lat="47.52795" lon="-1.00674">
        <ele>52</ele>
        <time>2021-10-13T13:59:35Z</time>
      </trkpt>
      <trkpt lat="47.52792" lon="-1.00656">
        <ele>53</ele>
        <time>2021-10-13T13:59:38Z</time>
      </trkpt>
      <trkpt lat="47.52776" lon="-1.00642">
        <ele>52</ele>
        <time>2021-10-13T13:59:42Z</time>
      </trkpt>
      <trkpt lat="47.52745" lon="-1.00628">
        <ele>52</ele>
        <time>2021-10-13T13:59:49Z</time>
      </trkpt>
      <trkpt lat="47.52708" lon="-1.0061">
        <ele>51</ele>
        <time>2021-10-13T13:59:58Z</time>
      </trkpt>
      <trkpt lat="47.52677" lon="-1.00593">
        <ele>52</ele>
        <time>2021-10-13T14:00:06Z</time>
      </trkpt>
      <trkpt lat="47.52673" lon="-1.00591">
        <ele>52</ele>
        <time>2021-10-13T14:00:07Z</time>
      </trkpt>
      <trkpt lat="47.52662" lon="-1.00583">
        <ele>53</ele>
        <time>2021-10-13T14:00:10Z</time>
      </trkpt>
      <trkpt lat="47.52653" lon="-1.0057">
        <ele>54</ele>
        <time>2021-10-13T14:00:13Z</time>
      </trkpt>
      <trkpt lat="47.52642" lon="-1.00539">
        <ele>56</ele>
        <time>2021-10-13T14:00:18Z</time>
      </trkpt>
      <trkpt lat="47.5264" lon="-1.00532">
        <ele>56</ele>
        <time>2021-10-13T14:00:19Z</time>
      </trkpt>
      <trkpt lat="47.52626" lon="-1.00476">
        <ele>53</ele>
        <time>2021-10-13T14:00:27Z</time>
      </trkpt>
      <trkpt lat="47.52623" lon="-1.00469">
        <ele>53</ele>
        <time>2021-10-13T14:00:28Z</time>
      </trkpt>
      <trkpt lat="47.52622" lon="-1.00463">
        <ele>53</ele>
        <time>2021-10-13T14:00:29Z</time>
      </trkpt>
      <trkpt lat="47.52611" lon="-1.00426">
        <ele>52</ele>
        <time>2021-10-13T14:00:35Z</time>
      </trkpt>
      <trkpt lat="47.52608" lon="-1.00415">
        <ele>52</ele>
        <time>2021-10-13T14:00:39Z</time>
      </trkpt>
      <trkpt lat="47.52603" lon="-1.00394">
        <ele>51</ele>
        <time>2021-10-13T14:00:44Z</time>
      </trkpt>
      <trkpt lat="47.52593" lon="-1.00359">
        <ele>49</ele>
        <time>2021-10-13T14:00:49Z</time>
      </trkpt>
      <trkpt lat="47.52575" lon="-1.00292">
        <ele>49</ele>
        <time>2021-10-13T14:00:58Z</time>
      </trkpt>
      <trkpt lat="47.52569" lon="-1.00271">
        <ele>49</ele>
        <time>2021-10-13T14:01:01Z</time>
      </trkpt>
      <trkpt lat="47.52559" lon="-1.00237">
        <ele>49</ele>
        <time>2021-10-13T14:01:06Z</time>
      </trkpt>
      <trkpt lat="47.52544" lon="-1.00182">
        <ele>48</ele>
        <time>2021-10-13T14:01:13Z</time>
      </trkpt>
      <trkpt lat="47.5254" lon="-1.00167">
        <ele>48</ele>
        <time>2021-10-13T14:01:15Z</time>
      </trkpt>
      <trkpt lat="47.52529" lon="-1.00119">
        <ele>47</ele>
        <time>2021-10-13T14:01:21Z</time>
      </trkpt>
      <trkpt lat="47.52527" lon="-1.00103">
        <ele>47</ele>
        <time>2021-10-13T14:01:23Z</time>
      </trkpt>
      <trkpt lat="47.52525" lon="-1.00072">
        <ele>47</ele>
        <time>2021-10-13T14:01:27Z</time>
      </trkpt>
      <trkpt lat="47.5252" lon="-1.00019">
        <ele>47</ele>
        <time>2021-10-13T14:01:34Z</time>
      </trkpt>
      <trkpt lat="47.52515" lon="-0.99947">
        <ele>47</ele>
        <time>2021-10-13T14:01:43Z</time>
      </trkpt>
      <trkpt lat="47.52511" lon="-0.99899">
        <ele>47</ele>
        <time>2021-10-13T14:01:50Z</time>
      </trkpt>
      <trkpt lat="47.52505" lon="-0.99824">
        <ele>48</ele>
        <time>2021-10-13T14:02:00Z</time>
      </trkpt>
      <trkpt lat="47.525" lon="-0.99761">
        <ele>48</ele>
        <time>2021-10-13T14:02:09Z</time>
      </trkpt>
      <trkpt lat="47.52495" lon="-0.99701">
        <ele>47</ele>
        <time>2021-10-13T14:02:18Z</time>
      </trkpt>
      <trkpt lat="47.5249" lon="-0.99631">
        <ele>47</ele>
        <time>2021-10-13T14:02:29Z</time>
      </trkpt>
      <trkpt lat="47.52486" lon="-0.99579">
        <ele>49</ele>
        <time>2021-10-13T14:02:37Z</time>
      </trkpt>
      <trkpt lat="47.52485" lon="-0.99573">
        <ele>49</ele>
        <time>2021-10-13T14:02:38Z</time>
      </trkpt>
      <trkpt lat="47.52481" lon="-0.99516">
        <ele>50</ele>
        <time>2021-10-13T14:02:47Z</time>
      </trkpt>
      <trkpt lat="47.5248" lon="-0.9951">
        <ele>51</ele>
        <time>2021-10-13T14:02:48Z</time>
      </trkpt>
      <trkpt lat="47.52477" lon="-0.99459">
        <ele>50</ele>
        <time>2021-10-13T14:02:56Z</time>
      </trkpt>
      <trkpt lat="47.52473" lon="-0.99393">
        <ele>49</ele>
        <time>2021-10-13T14:03:06Z</time>
      </trkpt>
      <trkpt lat="47.52469" lon="-0.99355">
        <ele>49</ele>
        <time>2021-10-13T14:03:12Z</time>
      </trkpt>
      <trkpt lat="47.52463" lon="-0.99347">
        <ele>50</ele>
        <time>2021-10-13T14:03:14Z</time>
      </trkpt>
      <trkpt lat="47.52453" lon="-0.99346">
        <ele>51</ele>
        <time>2021-10-13T14:03:17Z</time>
      </trkpt>
      <trkpt lat="47.5245" lon="-0.99346">
        <ele>51</ele>
        <time>2021-10-13T14:03:18Z</time>
      </trkpt>
      <trkpt lat="47.52445" lon="-0.99347">
        <ele>51</ele>
        <time>2021-10-13T14:03:20Z</time>
      </trkpt>
      <trkpt lat="47.52429" lon="-0.99347">
        <ele>53</ele>
        <time>2021-10-13T14:03:26Z</time>
      </trkpt>
      <trkpt lat="47.52427" lon="-0.99347">
        <ele>53</ele>
        <time>2021-10-13T14:03:27Z</time>
      </trkpt>
      <trkpt lat="47.52415" lon="-0.99349">
        <ele>54</ele>
        <time>2021-10-13T14:03:32Z</time>
      </trkpt>
      <trkpt lat="47.52408" lon="-0.99349">
        <ele>54</ele>
        <time>2021-10-13T14:03:35Z</time>
      </trkpt>
      <trkpt lat="47.52401" lon="-0.99349">
        <ele>55</ele>
        <time>2021-10-13T14:03:38Z</time>
      </trkpt>
      <trkpt lat="47.52388" lon="-0.9935">
        <ele>56</ele>
        <time>2021-10-13T14:03:44Z</time>
      </trkpt>
      <trkpt lat="47.52386" lon="-0.99351">
        <ele>56</ele>
        <time>2021-10-13T14:03:45Z</time>
      </trkpt>
      <trkpt lat="47.52375" lon="-0.99351">
        <ele>57</ele>
        <time>2021-10-13T14:03:50Z</time>
      </trkpt>
      <trkpt lat="47.52368" lon="-0.99351">
        <ele>58</ele>
        <time>2021-10-13T14:03:53Z</time>
      </trkpt>
      <trkpt lat="47.52362" lon="-0.99352">
        <ele>59</ele>
        <time>2021-10-13T14:03:56Z</time>
      </trkpt>
      <trkpt lat="47.52347" lon="-0.99354">
        <ele>60</ele>
        <time>2021-10-13T14:04:03Z</time>
      </trkpt>
      <trkpt lat="47.5234" lon="-0.99355">
        <ele>61</ele>
        <time>2021-10-13T14:04:06Z</time>
      </trkpt>
      <trkpt lat="47.52329" lon="-0.99357">
        <ele>62</ele>
        <time>2021-10-13T14:04:11Z</time>
      </trkpt>
      <trkpt lat="47.52319" lon="-0.99359">
        <ele>64</ele>
        <time>2021-10-13T14:04:17Z</time>
      </trkpt>
      <trkpt lat="47.52317" lon="-0.99359">
        <ele>64</ele>
        <time>2021-10-13T14:04:18Z</time>
      </trkpt>
      <trkpt lat="47.5231" lon="-0.9936">
        <ele>65</ele>
        <time>2021-10-13T14:04:23Z</time>
      </trkpt>
      <trkpt lat="47.52309" lon="-0.99361">
        <ele>65</ele>
        <time>2021-10-13T14:04:24Z</time>
      </trkpt>
      <trkpt lat="47.52301" lon="-0.99361">
        <ele>66</ele>
        <time>2021-10-13T14:04:29Z</time>
      </trkpt>
      <trkpt lat="47.52293" lon="-0.99361">
        <ele>68</ele>
        <time>2021-10-13T14:04:34Z</time>
      </trkpt>
      <trkpt lat="47.52292" lon="-0.99361">
        <ele>69</ele>
        <time>2021-10-13T14:04:35Z</time>
      </trkpt>
      <trkpt lat="47.52283" lon="-0.99362">
        <ele>70</ele>
        <time>2021-10-13T14:04:41Z</time>
      </trkpt>
      <trkpt lat="47.52277" lon="-0.99363">
        <ele>72</ele>
        <time>2021-10-13T14:04:45Z</time>
      </trkpt>
      <trkpt lat="47.5227" lon="-0.99364">
        <ele>72</ele>
        <time>2021-10-13T14:04:50Z</time>
      </trkpt>
      <trkpt lat="47.52264" lon="-0.99365">
        <ele>73</ele>
        <time>2021-10-13T14:04:54Z</time>
      </trkpt>
      <trkpt lat="47.52261" lon="-0.99364">
        <ele>73</ele>
        <time>2021-10-13T14:04:56Z</time>
      </trkpt>
      <trkpt lat="47.52257" lon="-0.99356">
        <ele>74</ele>
        <time>2021-10-13T14:05:01Z</time>
      </trkpt>
      <trkpt lat="47.5223" lon="-0.99375">
        <ele>71.8</ele>
      </trkpt>
      <trkpt lat="47.522" lon="-0.99403">
        <ele>73.8</ele>
      </trkpt>
      <trkpt lat="47.52181" lon="-0.99428">
        <ele>74.5</ele>
      </trkpt>
      <trkpt lat="47.52133" lon="-0.99456">
        <ele>73.7</ele>
      </trkpt>
      <trkpt lat="47.5211" lon="-0.99516">
        <ele>71.4</ele>
      </trkpt>
      <trkpt lat="47.5201" lon="-0.99572">
        <ele>65</ele>
      </trkpt>
      <trkpt lat="47.51923" lon="-0.99581">
        <ele>60.3</ele>
      </trkpt>
      <trkpt lat="47.51875" lon="-0.99611">
        <ele>57</ele>
      </trkpt>
      <trkpt lat="47.51819" lon="-0.99624">
        <ele>54.5</ele>
      </trkpt>
      <trkpt lat="47.51749" lon="-0.99626">
        <ele>51</ele>
      </trkpt>
      <trkpt lat="47.51693" lon="-0.99686">
        <ele>49</ele>
      </trkpt>
      <trkpt lat="47.51617" lon="-0.99733">
        <ele>50</ele>
      </trkpt>
      <trkpt lat="47.51598" lon="-0.9974">
        <ele>50</ele>
      </trkpt>
      <trkpt lat="47.51581" lon="-0.99747">
        <ele>50.1</ele>
      </trkpt>
      <trkpt lat="47.51597" lon="-0.99723">
        <ele>52</ele>
        <time>2021-10-13T14:13:48Z</time>
      </trkpt>
      <trkpt lat="47.51596" lon="-0.99732">
        <ele>52</ele>
        <time>2021-10-13T14:13:50Z</time>
      </trkpt>
      <trkpt lat="47.51592" lon="-0.99739">
        <ele>52</ele>
        <time>2021-10-13T14:13:52Z</time>
      </trkpt>
      <trkpt lat="47.51584" lon="-0.99745">
        <ele>52</ele>
        <time>2021-10-13T14:13:55Z</time>
      </trkpt>
      <trkpt lat="47.51574" lon="-0.99752">
        <ele>52</ele>
        <time>2021-10-13T14:13:58Z</time>
      </trkpt>
      <trkpt lat="47.51558" lon="-0.99758">
        <ele>52</ele>
        <time>2021-10-13T14:14:02Z</time>
      </trkpt>
      <trkpt lat="47.51551" lon="-0.99761">
        <ele>51</ele>
        <time>2021-10-13T14:14:04Z</time>
      </trkpt>
      <trkpt lat="47.51523" lon="-0.99771">
        <ele>51</ele>
        <time>2021-10-13T14:14:12Z</time>
      </trkpt>
      <trkpt lat="47.51517" lon="-0.99778">
        <ele>51</ele>
        <time>2021-10-13T14:14:15Z</time>
      </trkpt>
      <trkpt lat="47.51516" lon="-0.99782">
        <ele>51</ele>
        <time>2021-10-13T14:14:16Z</time>
      </trkpt>
      <trkpt lat="47.51523" lon="-0.99793">
        <ele>51</ele>
        <time>2021-10-13T14:14:19Z</time>
      </trkpt>
      <trkpt lat="47.51543" lon="-0.99826">
        <ele>52</ele>
        <time>2021-10-13T14:14:26Z</time>
      </trkpt>
      <trkpt lat="47.51546" lon="-0.99831">
        <ele>52</ele>
        <time>2021-10-13T14:14:27Z</time>
      </trkpt>
      <trkpt lat="47.5157" lon="-0.9987">
        <ele>52</ele>
        <time>2021-10-13T14:14:34Z</time>
      </trkpt>
      <trkpt lat="47.51608" lon="-0.99928">
        <ele>50</ele>
        <time>2021-10-13T14:14:44Z</time>
      </trkpt>
      <trkpt lat="47.51642" lon="-0.99984">
        <ele>50</ele>
        <time>2021-10-13T14:14:53Z</time>
      </trkpt>
      <trkpt lat="47.51681" lon="-1.00048">
        <ele>51</ele>
        <time>2021-10-13T14:15:04Z</time>
      </trkpt>
      <trkpt lat="47.51717" lon="-1.00109">
        <ele>52</ele>
        <time>2021-10-13T14:15:14Z</time>
      </trkpt>
      <trkpt lat="47.51741" lon="-1.00146">
        <ele>50</ele>
        <time>2021-10-13T14:15:21Z</time>
      </trkpt>
      <trkpt lat="47.5176" lon="-1.00181">
        <ele>49</ele>
        <time>2021-10-13T14:15:29Z</time>
      </trkpt>
      <trkpt lat="47.51759" lon="-1.00192">
        <ele>49</ele>
        <time>2021-10-13T14:15:32Z</time>
      </trkpt>
      <trkpt lat="47.51758" lon="-1.00195">
        <ele>49</ele>
        <time>2021-10-13T14:15:33Z</time>
      </trkpt>
      <trkpt lat="47.51747" lon="-1.002">
        <ele>49</ele>
        <time>2021-10-13T14:15:37Z</time>
      </trkpt>
      <trkpt lat="47.51744" lon="-1.00201">
        <ele>49</ele>
        <time>2021-10-13T14:15:38Z</time>
      </trkpt>
      <trkpt lat="47.51727" lon="-1.00204">
        <ele>50</ele>
        <time>2021-10-13T14:15:44Z</time>
      </trkpt>
      <trkpt lat="47.51702" lon="-1.0021">
        <ele>52</ele>
        <time>2021-10-13T14:15:51Z</time>
      </trkpt>
      <trkpt lat="47.51668" lon="-1.0022">
        <ele>53</ele>
        <time>2021-10-13T14:16:00Z</time>
      </trkpt>
      <trkpt lat="47.51658" lon="-1.00224">
        <ele>53</ele>
        <time>2021-10-13T14:16:03Z</time>
      </trkpt>
      <trkpt lat="47.51648" lon="-1.00228">
        <ele>53</ele>
        <time>2021-10-13T14:16:06Z</time>
      </trkpt>
      <trkpt lat="47.51628" lon="-1.00236">
        <ele>53</ele>
        <time>2021-10-13T14:16:12Z</time>
      </trkpt>
      <trkpt lat="47.51606" lon="-1.00243">
        <ele>53</ele>
        <time>2021-10-13T14:16:19Z</time>
      </trkpt>
      <trkpt lat="47.51598" lon="-1.00245">
        <ele>53</ele>
        <time>2021-10-13T14:16:21Z</time>
      </trkpt>
      <trkpt lat="47.51573" lon="-1.00254">
        <ele>54</ele>
        <time>2021-10-13T14:16:28Z</time>
      </trkpt>
      <trkpt lat="47.5155" lon="-1.00263">
        <ele>56</ele>
        <time>2021-10-13T14:16:35Z</time>
      </trkpt>
      <trkpt lat="47.51544" lon="-1.00265">
        <ele>57</ele>
        <time>2021-10-13T14:16:37Z</time>
      </trkpt>
      <trkpt lat="47.51528" lon="-1.00262">
        <ele>57</ele>
        <time>2021-10-13T14:16:43Z</time>
      </trkpt>
      <trkpt lat="47.51526" lon="-1.00262">
        <ele>58</ele>
        <time>2021-10-13T14:16:44Z</time>
      </trkpt>
      <trkpt lat="47.51508" lon="-1.00258">
        <ele>58</ele>
        <time>2021-10-13T14:16:50Z</time>
      </trkpt>
      <trkpt lat="47.51493" lon="-1.0025">
        <ele>58</ele>
        <time>2021-10-13T14:16:55Z</time>
      </trkpt>
      <trkpt lat="47.51481" lon="-1.00247">
        <ele>58</ele>
        <time>2021-10-13T14:16:59Z</time>
      </trkpt>
      <trkpt lat="47.51459" lon="-1.00242">
        <ele>58</ele>
        <time>2021-10-13T14:17:06Z</time>
      </trkpt>
      <trkpt lat="47.5145" lon="-1.00242">
        <ele>58</ele>
        <time>2021-10-13T14:17:09Z</time>
      </trkpt>
      <trkpt lat="47.51433" lon="-1.00243">
        <ele>58</ele>
        <time>2021-10-13T14:17:15Z</time>
      </trkpt>
      <trkpt lat="47.51416" lon="-1.00248">
        <ele>59</ele>
        <time>2021-10-13T14:17:21Z</time>
      </trkpt>
      <trkpt lat="47.51413" lon="-1.00249">
        <ele>59</ele>
        <time>2021-10-13T14:17:22Z</time>
      </trkpt>
      <trkpt lat="47.51394" lon="-1.00256">
        <ele>60</ele>
        <time>2021-10-13T14:17:30Z</time>
      </trkpt>
      <trkpt lat="47.51391" lon="-1.00256">
        <ele>60</ele>
        <time>2021-10-13T14:17:31Z</time>
      </trkpt>
      <trkpt lat="47.51373" lon="-1.00259">
        <ele>61</ele>
        <time>2021-10-13T14:17:39Z</time>
      </trkpt>
      <trkpt lat="47.51358" lon="-1.00262">
        <ele>62</ele>
        <time>2021-10-13T14:17:47Z</time>
      </trkpt>
      <trkpt lat="47.51356" lon="-1.00262">
        <ele>62</ele>
        <time>2021-10-13T14:17:48Z</time>
      </trkpt>
      <trkpt lat="47.51346" lon="-1.00262">
        <ele>63</ele>
        <time>2021-10-13T14:17:54Z</time>
      </trkpt>
      <trkpt lat="47.51343" lon="-1.00262">
        <ele>63</ele>
        <time>2021-10-13T14:17:56Z</time>
      </trkpt>
      <trkpt lat="47.51332" lon="-1.00263">
        <ele>64</ele>
        <time>2021-10-13T14:18:02Z</time>
      </trkpt>
      <trkpt lat="47.5133" lon="-1.00264">
        <ele>64</ele>
        <time>2021-10-13T14:18:03Z</time>
      </trkpt>
      <trkpt lat="47.51318" lon="-1.00264">
        <ele>65</ele>
        <time>2021-10-13T14:18:09Z</time>
      </trkpt>
      <trkpt lat="47.51313" lon="-1.00264">
        <ele>66</ele>
        <time>2021-10-13T14:18:12Z</time>
      </trkpt>
      <trkpt lat="47.51308" lon="-1.00265">
        <ele>67</ele>
        <time>2021-10-13T14:18:15Z</time>
      </trkpt>
      <trkpt lat="47.51298" lon="-1.00265">
        <ele>68</ele>
        <time>2021-10-13T14:18:21Z</time>
      </trkpt>
      <trkpt lat="47.51284" lon="-1.00265">
        <ele>70</ele>
        <time>2021-10-13T14:18:28Z</time>
      </trkpt>
      <trkpt lat="47.51282" lon="-1.00266">
        <ele>70</ele>
        <time>2021-10-13T14:18:29Z</time>
      </trkpt>
      <trkpt lat="47.51271" lon="-1.00265">
        <ele>71</ele>
        <time>2021-10-13T14:18:34Z</time>
      </trkpt>
      <trkpt lat="47.51265" lon="-1.00264">
        <ele>71</ele>
        <time>2021-10-13T14:18:37Z</time>
      </trkpt>
      <trkpt lat="47.51256" lon="-1.00264">
        <ele>72</ele>
        <time>2021-10-13T14:18:40Z</time>
      </trkpt>
      <trkpt lat="47.51247" lon="-1.00263">
        <ele>72</ele>
        <time>2021-10-13T14:18:44Z</time>
      </trkpt>
      <trkpt lat="47.51245" lon="-1.00264">
        <ele>72</ele>
        <time>2021-10-13T14:18:45Z</time>
      </trkpt>
      <trkpt lat="47.51232" lon="-1.00263">
        <ele>72</ele>
        <time>2021-10-13T14:18:51Z</time>
      </trkpt>
      <trkpt lat="47.5123" lon="-1.00262">
        <ele>72</ele>
        <time>2021-10-13T14:18:52Z</time>
      </trkpt>
      <trkpt lat="47.51216" lon="-1.00263">
        <ele>72</ele>
        <time>2021-10-13T14:18:58Z</time>
      </trkpt>
      <trkpt lat="47.51207" lon="-1.00264">
        <ele>72</ele>
        <time>2021-10-13T14:19:01Z</time>
      </trkpt>
      <trkpt lat="47.51201" lon="-1.00263">
        <ele>72</ele>
        <time>2021-10-13T14:19:04Z</time>
      </trkpt>
      <trkpt lat="47.51188" lon="-1.00256">
        <ele>72</ele>
        <time>2021-10-13T14:19:09Z</time>
      </trkpt>
      <trkpt lat="47.51186" lon="-1.00253">
        <ele>72</ele>
        <time>2021-10-13T14:19:10Z</time>
      </trkpt>
      <trkpt lat="47.5117" lon="-1.00227">
        <ele>71</ele>
        <time>2021-10-13T14:19:17Z</time>
      </trkpt>
      <trkpt lat="47.5115" lon="-1.00202">
        <ele>71</ele>
        <time>2021-10-13T14:19:25Z</time>
      </trkpt>
      <trkpt lat="47.51131" lon="-1.00196">
        <ele>72</ele>
        <time>2021-10-13T14:19:31Z</time>
      </trkpt>
      <trkpt lat="47.51107" lon="-1.00198">
        <ele>73</ele>
        <time>2021-10-13T14:19:39Z</time>
      </trkpt>
      <trkpt lat="47.51083" lon="-1.002">
        <ele>74</ele>
        <time>2021-10-13T14:19:47Z</time>
      </trkpt>
      <trkpt lat="47.51077" lon="-1.00199">
        <ele>74</ele>
        <time>2021-10-13T14:19:49Z</time>
      </trkpt>
      <trkpt lat="47.5106" lon="-1.00191">
        <ele>74</ele>
        <time>2021-10-13T14:19:54Z</time>
      </trkpt>
      <trkpt lat="47.51031" lon="-1.00176">
        <ele>74</ele>
        <time>2021-10-13T14:20:02Z</time>
      </trkpt>
      <trkpt lat="47.51023" lon="-1.00175">
        <ele>73</ele>
        <time>2021-10-13T14:20:05Z</time>
      </trkpt>
      <trkpt lat="47.51021" lon="-1.00178">
        <ele>73</ele>
        <time>2021-10-13T14:20:06Z</time>
      </trkpt>
      <trkpt lat="47.51019" lon="-1.00194">
        <ele>73</ele>
        <time>2021-10-13T14:20:10Z</time>
      </trkpt>
      <trkpt lat="47.5102" lon="-1.00198">
        <ele>74</ele>
        <time>2021-10-13T14:20:11Z</time>
      </trkpt>
      <trkpt lat="47.51027" lon="-1.00226">
        <ele>75</ele>
        <time>2021-10-13T14:20:17Z</time>
      </trkpt>
      <trkpt lat="47.5104" lon="-1.00259">
        <ele>76</ele>
        <time>2021-10-13T14:20:25Z</time>
      </trkpt>
      <trkpt lat="47.51042" lon="-1.00263">
        <ele>76</ele>
        <time>2021-10-13T14:20:26Z</time>
      </trkpt>
      <trkpt lat="47.51057" lon="-1.00294">
        <ele>79</ele>
        <time>2021-10-13T14:20:34Z</time>
      </trkpt>
      <trkpt lat="47.51059" lon="-1.00298">
        <ele>79</ele>
        <time>2021-10-13T14:20:35Z</time>
      </trkpt>
      <trkpt lat="47.51073" lon="-1.00329">
        <ele>79</ele>
        <time>2021-10-13T14:20:42Z</time>
      </trkpt>
      <trkpt lat="47.51077" lon="-1.00338">
        <ele>79</ele>
        <time>2021-10-13T14:20:44Z</time>
      </trkpt>
      <trkpt lat="47.51097" lon="-1.0038">
        <ele>78</ele>
        <time>2021-10-13T14:20:53Z</time>
      </trkpt>
      <trkpt lat="47.51115" lon="-1.00428">
        <ele>78</ele>
        <time>2021-10-13T14:21:02Z</time>
      </trkpt>
      <trkpt lat="47.51131" lon="-1.00466">
        <ele>78</ele>
        <time>2021-10-13T14:21:10Z</time>
      </trkpt>
      <trkpt lat="47.51147" lon="-1.00506">
        <ele>78</ele>
        <time>2021-10-13T14:21:18Z</time>
      </trkpt>
      <trkpt lat="47.51157" lon="-1.00541">
        <ele>78</ele>
        <time>2021-10-13T14:21:25Z</time>
      </trkpt>
      <trkpt lat="47.51158" lon="-1.00549">
        <ele>78</ele>
        <time>2021-10-13T14:21:26Z</time>
      </trkpt>
      <trkpt lat="47.51159" lon="-1.00576">
        <ele>78</ele>
        <time>2021-10-13T14:21:30Z</time>
      </trkpt>
      <trkpt lat="47.51159" lon="-1.00618">
        <ele>77</ele>
        <time>2021-10-13T14:21:37Z</time>
      </trkpt>
      <trkpt lat="47.5116" lon="-1.00665">
        <ele>76</ele>
        <time>2021-10-13T14:21:46Z</time>
      </trkpt>
      <trkpt lat="47.5116" lon="-1.00677">
        <ele>76</ele>
        <time>2021-10-13T14:21:48Z</time>
      </trkpt>
      <trkpt lat="47.5116" lon="-1.00711">
        <ele>77</ele>
        <time>2021-10-13T14:21:53Z</time>
      </trkpt>
      <trkpt lat="47.5116" lon="-1.0076">
        <ele>77</ele>
        <time>2021-10-13T14:22:01Z</time>
      </trkpt>
      <trkpt lat="47.5116" lon="-1.00818">
        <ele>75</ele>
        <time>2021-10-13T14:22:10Z</time>
      </trkpt>
      <trkpt lat="47.51161" lon="-1.00867">
        <ele>76</ele>
        <time>2021-10-13T14:22:18Z</time>
      </trkpt>
      <trkpt lat="47.51161" lon="-1.00916">
        <ele>76</ele>
        <time>2021-10-13T14:22:26Z</time>
      </trkpt>
      <trkpt lat="47.5116" lon="-1.00964">
        <ele>77</ele>
        <time>2021-10-13T14:22:34Z</time>
      </trkpt>
      <trkpt lat="47.51158" lon="-1.0101">
        <ele>76</ele>
        <time>2021-10-13T14:22:42Z</time>
      </trkpt>
      <trkpt lat="47.51163" lon="-1.0103">
        <ele>76</ele>
        <time>2021-10-13T14:22:46Z</time>
      </trkpt>
      <trkpt lat="47.51178" lon="-1.01033">
        <ele>77</ele>
        <time>2021-10-13T14:22:50Z</time>
      </trkpt>
      <trkpt lat="47.51211" lon="-1.01038">
        <ele>78</ele>
        <time>2021-10-13T14:22:57Z</time>
      </trkpt>
      <trkpt lat="47.51244" lon="-1.01041">
        <ele>77</ele>
        <time>2021-10-13T14:23:05Z</time>
      </trkpt>
      <trkpt lat="47.51263" lon="-1.01042">
        <ele>76</ele>
        <time>2021-10-13T14:23:09Z</time>
      </trkpt>
      <trkpt lat="47.51282" lon="-1.01044">
        <ele>76</ele>
        <time>2021-10-13T14:23:13Z</time>
      </trkpt>
      <trkpt lat="47.51307" lon="-1.01053">
        <ele>75</ele>
        <time>2021-10-13T14:23:18Z</time>
      </trkpt>
      <trkpt lat="47.51312" lon="-1.01056">
        <ele>75</ele>
        <time>2021-10-13T14:23:19Z</time>
      </trkpt>
      <trkpt lat="47.51317" lon="-1.01058">
        <ele>75</ele>
        <time>2021-10-13T14:23:20Z</time>
      </trkpt>
      <trkpt lat="47.51331" lon="-1.0106">
        <ele>74</ele>
        <time>2021-10-13T14:23:24Z</time>
      </trkpt>
      <trkpt lat="47.51336" lon="-1.01046">
        <ele>73</ele>
        <time>2021-10-13T14:23:27Z</time>
      </trkpt>
      <trkpt lat="47.51336" lon="-1.01035">
        <ele>73</ele>
        <time>2021-10-13T14:23:29Z</time>
      </trkpt>
      <trkpt lat="47.51338" lon="-1.01013">
        <ele>72</ele>
        <time>2021-10-13T14:23:33Z</time>
      </trkpt>
      <trkpt lat="47.51347" lon="-1.00997">
        <ele>72</ele>
        <time>2021-10-13T14:23:37Z</time>
      </trkpt>
      <trkpt lat="47.5135" lon="-1.00993">
        <ele>72</ele>
        <time>2021-10-13T14:23:38Z</time>
      </trkpt>
      <trkpt lat="47.51362" lon="-1.00988">
        <ele>71</ele>
        <time>2021-10-13T14:23:42Z</time>
      </trkpt>
      <trkpt lat="47.51366" lon="-1.00988">
        <ele>71</ele>
        <time>2021-10-13T14:23:43Z</time>
      </trkpt>
      <trkpt lat="47.51388" lon="-1.00999">
        <ele>71</ele>
        <time>2021-10-13T14:23:49Z</time>
      </trkpt>
      <trkpt lat="47.51412" lon="-1.01008">
        <ele>69</ele>
        <time>2021-10-13T14:23:55Z</time>
      </trkpt>
      <trkpt lat="47.51419" lon="-1.0101">
        <ele>68</ele>
        <time>2021-10-13T14:23:57Z</time>
      </trkpt>
      <trkpt lat="47.51428" lon="-1.01013">
        <ele>67</ele>
        <time>2021-10-13T14:23:59Z</time>
      </trkpt>
      <trkpt lat="47.51441" lon="-1.01016">
        <ele>65</ele>
        <time>2021-10-13T14:24:02Z</time>
      </trkpt>
      <trkpt lat="47.5145" lon="-1.0102">
        <ele>64</ele>
        <time>2021-10-13T14:24:04Z</time>
      </trkpt>
      <trkpt lat="47.51462" lon="-1.01026">
        <ele>63</ele>
        <time>2021-10-13T14:24:07Z</time>
      </trkpt>
      <trkpt lat="47.51469" lon="-1.0103">
        <ele>62</ele>
        <time>2021-10-13T14:24:09Z</time>
      </trkpt>
      <trkpt lat="47.51477" lon="-1.01034">
        <ele>61</ele>
        <time>2021-10-13T14:24:11Z</time>
      </trkpt>
      <trkpt lat="47.51493" lon="-1.01041">
        <ele>61</ele>
        <time>2021-10-13T14:24:14Z</time>
      </trkpt>
      <trkpt lat="47.51512" lon="-1.01054">
        <ele>59</ele>
        <time>2021-10-13T14:24:18Z</time>
      </trkpt>
      <trkpt lat="47.51531" lon="-1.01066">
        <ele>57</ele>
        <time>2021-10-13T14:24:22Z</time>
      </trkpt>
      <trkpt lat="47.51546" lon="-1.01077">
        <ele>56</ele>
        <time>2021-10-13T14:24:26Z</time>
      </trkpt>
      <trkpt lat="47.51555" lon="-1.01088">
        <ele>56</ele>
        <time>2021-10-13T14:24:29Z</time>
      </trkpt>
      <trkpt lat="47.51564" lon="-1.011">
        <ele>55</ele>
        <time>2021-10-13T14:24:32Z</time>
      </trkpt>
      <trkpt lat="47.51573" lon="-1.01112">
        <ele>55</ele>
        <time>2021-10-13T14:24:35Z</time>
      </trkpt>
      <trkpt lat="47.51588" lon="-1.01125">
        <ele>54</ele>
        <time>2021-10-13T14:24:39Z</time>
      </trkpt>
      <trkpt lat="47.51591" lon="-1.01129">
        <ele>54</ele>
        <time>2021-10-13T14:24:40Z</time>
      </trkpt>
      <trkpt lat="47.51614" lon="-1.01145">
        <ele>54</ele>
        <time>2021-10-13T14:24:46Z</time>
      </trkpt>
      <trkpt lat="47.51619" lon="-1.01147">
        <ele>54</ele>
        <time>2021-10-13T14:24:47Z</time>
      </trkpt>
      <trkpt lat="47.51655" lon="-1.01162">
        <ele>52</ele>
        <time>2021-10-13T14:24:56Z</time>
      </trkpt>
      <trkpt lat="47.51664" lon="-1.01166">
        <ele>52</ele>
        <time>2021-10-13T14:24:58Z</time>
      </trkpt>
      <trkpt lat="47.5168" lon="-1.01176">
        <ele>52</ele>
        <time>2021-10-13T14:25:02Z</time>
      </trkpt>
      <trkpt lat="47.51697" lon="-1.01183">
        <ele>52</ele>
        <time>2021-10-13T14:25:07Z</time>
      </trkpt>
      <trkpt lat="47.51701" lon="-1.01184">
        <ele>52</ele>
        <time>2021-10-13T14:25:08Z</time>
      </trkpt>
      <trkpt lat="47.51726" lon="-1.01197">
        <ele>52</ele>
        <time>2021-10-13T14:25:15Z</time>
      </trkpt>
      <trkpt lat="47.51749" lon="-1.01205">
        <ele>52</ele>
        <time>2021-10-13T14:25:23Z</time>
      </trkpt>
      <trkpt lat="47.5176" lon="-1.01218">
        <ele>52</ele>
        <time>2021-10-13T14:25:28Z</time>
      </trkpt>
      <trkpt lat="47.51764" lon="-1.01244">
        <ele>52</ele>
        <time>2021-10-13T14:25:34Z</time>
      </trkpt>
      <trkpt lat="47.51766" lon="-1.01268">
        <ele>52</ele>
        <time>2021-10-13T14:25:39Z</time>
      </trkpt>
      <trkpt lat="47.51766" lon="-1.01272">
        <ele>52</ele>
        <time>2021-10-13T14:25:40Z</time>
      </trkpt>
      <trkpt lat="47.51766" lon="-1.01293">
        <ele>52</ele>
        <time>2021-10-13T14:25:46Z</time>
      </trkpt>
      <trkpt lat="47.51768" lon="-1.01313">
        <ele>52</ele>
        <time>2021-10-13T14:25:52Z</time>
      </trkpt>
      <trkpt lat="47.5177" lon="-1.01346">
        <ele>53</ele>
        <time>2021-10-13T14:25:59Z</time>
      </trkpt>
      <trkpt lat="47.51768" lon="-1.01373">
        <ele>53</ele>
        <time>2021-10-13T14:26:05Z</time>
      </trkpt>
      <trkpt lat="47.51768" lon="-1.01384">
        <ele>53</ele>
        <time>2021-10-13T14:26:09Z</time>
      </trkpt>
      <trkpt lat="47.5177" lon="-1.01391">
        <ele>53</ele>
        <time>2021-10-13T14:26:11Z</time>
      </trkpt>
      <trkpt lat="47.51771" lon="-1.01398">
        <ele>52</ele>
        <time>2021-10-13T14:26:13Z</time>
      </trkpt>
      <trkpt lat="47.51773" lon="-1.0142">
        <ele>52</ele>
        <time>2021-10-13T14:26:17Z</time>
      </trkpt>
      <trkpt lat="47.51775" lon="-1.01439">
        <ele>51</ele>
        <time>2021-10-13T14:26:23Z</time>
      </trkpt>
      <trkpt lat="47.5178" lon="-1.01468">
        <ele>51</ele>
        <time>2021-10-13T14:26:30Z</time>
      </trkpt>
      <trkpt lat="47.51782" lon="-1.01485">
        <ele>51</ele>
        <time>2021-10-13T14:26:36Z</time>
      </trkpt>
      <trkpt lat="47.51789" lon="-1.01518">
        <ele>52</ele>
        <time>2021-10-13T14:27:13Z</time>
      </trkpt>
      <trkpt lat="47.51789" lon="-1.01521">
        <ele>52</ele>
        <time>2021-10-13T14:27:14Z</time>
      </trkpt>
      <trkpt lat="47.51793" lon="-1.01544">
        <ele>52</ele>
        <time>2021-10-13T14:27:22Z</time>
      </trkpt>
      <trkpt lat="47.51798" lon="-1.0157">
        <ele>52</ele>
        <time>2021-10-13T14:27:28Z</time>
      </trkpt>
      <trkpt lat="47.51804" lon="-1.01601">
        <ele>52</ele>
        <time>2021-10-13T14:27:35Z</time>
      </trkpt>
      <trkpt lat="47.51806" lon="-1.01634">
        <ele>51</ele>
        <time>2021-10-13T14:27:41Z</time>
      </trkpt>
      <trkpt lat="47.51811" lon="-1.01651">
        <ele>52</ele>
        <time>2021-10-13T14:27:47Z</time>
      </trkpt>
      <trkpt lat="47.51811" lon="-1.01671">
        <ele>52</ele>
        <time>2021-10-13T14:27:53Z</time>
      </trkpt>
      <trkpt lat="47.51813" lon="-1.01706">
        <ele>51</ele>
        <time>2021-10-13T14:28:00Z</time>
      </trkpt>
      <trkpt lat="47.51812" lon="-1.01741">
        <ele>51</ele>
        <time>2021-10-13T14:28:07Z</time>
      </trkpt>
      <trkpt lat="47.51814" lon="-1.01769">
        <ele>51</ele>
        <time>2021-10-13T14:28:13Z</time>
      </trkpt>
      <trkpt lat="47.51813" lon="-1.01803">
        <ele>51</ele>
        <time>2021-10-13T14:28:20Z</time>
      </trkpt>
      <trkpt lat="47.51815" lon="-1.01836">
        <ele>51</ele>
        <time>2021-10-13T14:28:28Z</time>
      </trkpt>
      <trkpt lat="47.51821" lon="-1.01865">
        <ele>51</ele>
        <time>2021-10-13T14:28:36Z</time>
      </trkpt>
      <trkpt lat="47.51822" lon="-1.01901">
        <ele>51</ele>
        <time>2021-10-13T14:28:44Z</time>
      </trkpt>
      <trkpt lat="47.51824" lon="-1.01928">
        <ele>52</ele>
        <time>2021-10-13T14:28:49Z</time>
      </trkpt>
      <trkpt lat="47.51826" lon="-1.01954">
        <ele>53</ele>
        <time>2021-10-13T14:28:55Z</time>
      </trkpt>
      <trkpt lat="47.51829" lon="-1.01986">
        <ele>53</ele>
        <time>2021-10-13T14:29:02Z</time>
      </trkpt>
      <trkpt lat="47.51829" lon="-1.02023">
        <ele>52</ele>
        <time>2021-10-13T14:29:08Z</time>
      </trkpt>
      <trkpt lat="47.51829" lon="-1.02068">
        <ele>51</ele>
        <time>2021-10-13T14:29:16Z</time>
      </trkpt>
      <trkpt lat="47.51829" lon="-1.021">
        <ele>52</ele>
        <time>2021-10-13T14:29:22Z</time>
      </trkpt>
      <trkpt lat="47.5183" lon="-1.02114">
        <ele>52</ele>
        <time>2021-10-13T14:29:27Z</time>
      </trkpt>
      <trkpt lat="47.51829" lon="-1.02137">
        <ele>52</ele>
        <time>2021-10-13T14:29:34Z</time>
      </trkpt>
      <trkpt lat="47.51832" lon="-1.02162">
        <ele>52</ele>
        <time>2021-10-13T14:29:40Z</time>
      </trkpt>
      <trkpt lat="47.51834" lon="-1.02194">
        <ele>52</ele>
        <time>2021-10-13T14:29:48Z</time>
      </trkpt>
      <trkpt lat="47.51838" lon="-1.02233">
        <ele>52</ele>
        <time>2021-10-13T14:29:56Z</time>
      </trkpt>
      <trkpt lat="47.51841" lon="-1.02264">
        <ele>51</ele>
        <time>2021-10-13T14:30:03Z</time>
      </trkpt>
      <trkpt lat="47.51842" lon="-1.02299">
        <ele>51</ele>
        <time>2021-10-13T14:30:10Z</time>
      </trkpt>
      <trkpt lat="47.5184" lon="-1.0234">
        <ele>51</ele>
        <time>2021-10-13T14:30:17Z</time>
      </trkpt>
      <trkpt lat="47.51835" lon="-1.02375">
        <ele>51</ele>
        <time>2021-10-13T14:30:24Z</time>
      </trkpt>
      <trkpt lat="47.51835" lon="-1.02412">
        <ele>50</ele>
        <time>2021-10-13T14:30:31Z</time>
      </trkpt>
      <trkpt lat="47.51833" lon="-1.02445">
        <ele>50</ele>
        <time>2021-10-13T14:30:36Z</time>
      </trkpt>
      <trkpt lat="47.51832" lon="-1.02474">
        <ele>50</ele>
        <time>2021-10-13T14:30:42Z</time>
      </trkpt>
      <trkpt lat="47.51836" lon="-1.02494">
        <ele>50</ele>
        <time>2021-10-13T14:30:47Z</time>
      </trkpt>
      <trkpt lat="47.51842" lon="-1.02529">
        <ele>49</ele>
        <time>2021-10-13T14:30:55Z</time>
      </trkpt>
      <trkpt lat="47.51849" lon="-1.0256">
        <ele>48</ele>
        <time>2021-10-13T14:31:01Z</time>
      </trkpt>
      <trkpt lat="47.51856" lon="-1.02598">
        <ele>48</ele>
        <time>2021-10-13T14:31:09Z</time>
      </trkpt>
      <trkpt lat="47.51858" lon="-1.02644">
        <ele>49</ele>
        <time>2021-10-13T14:31:17Z</time>
      </trkpt>
      <trkpt lat="47.51855" lon="-1.02679">
        <ele>49</ele>
        <time>2021-10-13T14:31:24Z</time>
      </trkpt>
      <trkpt lat="47.51854" lon="-1.02711">
        <ele>50</ele>
        <time>2021-10-13T14:31:30Z</time>
      </trkpt>
      <trkpt lat="47.51851" lon="-1.02748">
        <ele>50</ele>
        <time>2021-10-13T14:31:37Z</time>
      </trkpt>
      <trkpt lat="47.51844" lon="-1.02792">
        <ele>49</ele>
        <time>2021-10-13T14:31:45Z</time>
      </trkpt>
      <trkpt lat="47.51837" lon="-1.02825">
        <ele>49</ele>
        <time>2021-10-13T14:31:51Z</time>
      </trkpt>
      <trkpt lat="47.51838" lon="-1.02847">
        <ele>50</ele>
        <time>2021-10-13T14:31:56Z</time>
      </trkpt>
      <trkpt lat="47.5184" lon="-1.02861">
        <ele>50</ele>
        <time>2021-10-13T14:31:59Z</time>
      </trkpt>
      <trkpt lat="47.5184" lon="-1.02877">
        <ele>50</ele>
        <time>2021-10-13T14:32:02Z</time>
      </trkpt>
      <trkpt lat="47.51839" lon="-1.02907">
        <ele>50</ele>
        <time>2021-10-13T14:32:07Z</time>
      </trkpt>
      <trkpt lat="47.51838" lon="-1.02926">
        <ele>49</ele>
        <time>2021-10-13T14:32:10Z</time>
      </trkpt>
      <trkpt lat="47.5183" lon="-1.02962">
        <ele>49</ele>
        <time>2021-10-13T14:32:16Z</time>
      </trkpt>
      <trkpt lat="47.51826" lon="-1.02998">
        <ele>48</ele>
        <time>2021-10-13T14:32:23Z</time>
      </trkpt>
      <trkpt lat="47.51819" lon="-1.03032">
        <ele>46</ele>
        <time>2021-10-13T14:32:29Z</time>
      </trkpt>
      <trkpt lat="47.51818" lon="-1.03062">
        <ele>46</ele>
        <time>2021-10-13T14:32:35Z</time>
      </trkpt>
      <trkpt lat="47.5182" lon="-1.0308">
        <ele>46</ele>
        <time>2021-10-13T14:32:38Z</time>
      </trkpt>
      <trkpt lat="47.51823" lon="-1.03095">
        <ele>47</ele>
        <time>2021-10-13T14:32:41Z</time>
      </trkpt>
      <trkpt lat="47.51833" lon="-1.03134">
        <ele>47</ele>
        <time>2021-10-13T14:32:48Z</time>
      </trkpt>
      <trkpt lat="47.51838" lon="-1.03147">
        <ele>48</ele>
        <time>2021-10-13T14:32:51Z</time>
      </trkpt>
      <trkpt lat="47.51847" lon="-1.03171">
        <ele>49</ele>
        <time>2021-10-13T14:32:56Z</time>
      </trkpt>
      <trkpt lat="47.51863" lon="-1.0321">
        <ele>48</ele>
        <time>2021-10-13T14:33:04Z</time>
      </trkpt>
      <trkpt lat="47.51878" lon="-1.03243">
        <ele>46</ele>
        <time>2021-10-13T14:33:11Z</time>
      </trkpt>
      <trkpt lat="47.51891" lon="-1.03276">
        <ele>46</ele>
        <time>2021-10-13T14:33:18Z</time>
      </trkpt>
      <trkpt lat="47.51896" lon="-1.03293">
        <ele>46</ele>
        <time>2021-10-13T14:33:23Z</time>
      </trkpt>
      <trkpt lat="47.51895" lon="-1.03297">
        <ele>46</ele>
        <time>2021-10-13T14:33:39Z</time>
      </trkpt>
      <trkpt lat="47.51893" lon="-1.03298">
        <ele>46</ele>
        <time>2021-10-13T14:33:40Z</time>
      </trkpt>
      <trkpt lat="47.51879" lon="-1.03301">
        <ele>46</ele>
        <time>2021-10-13T14:33:45Z</time>
      </trkpt>
      <trkpt lat="47.51845" lon="-1.03304">
        <ele>47</ele>
        <time>2021-10-13T14:33:54Z</time>
      </trkpt>
      <trkpt lat="47.51807" lon="-1.03306">
        <ele>48</ele>
        <time>2021-10-13T14:34:03Z</time>
      </trkpt>
      <trkpt lat="47.51798" lon="-1.03306">
        <ele>47</ele>
        <time>2021-10-13T14:34:05Z</time>
      </trkpt>
      <trkpt lat="47.51762" lon="-1.03304">
        <ele>46</ele>
        <time>2021-10-13T14:34:13Z</time>
      </trkpt>
      <trkpt lat="47.51745" lon="-1.03303">
        <ele>45</ele>
        <time>2021-10-13T14:34:17Z</time>
      </trkpt>
      <trkpt lat="47.51714" lon="-1.033">
        <ele>45</ele>
        <time>2021-10-13T14:34:24Z</time>
      </trkpt>
      <trkpt lat="47.51694" lon="-1.03297">
        <ele>46</ele>
        <time>2021-10-13T14:34:29Z</time>
      </trkpt>
      <trkpt lat="47.51677" lon="-1.03295">
        <ele>47</ele>
        <time>2021-10-13T14:34:33Z</time>
      </trkpt>
      <trkpt lat="47.51649" lon="-1.03293">
        <ele>49</ele>
        <time>2021-10-13T14:34:40Z</time>
      </trkpt>
      <trkpt lat="47.51629" lon="-1.0329">
        <ele>50</ele>
        <time>2021-10-13T14:34:45Z</time>
      </trkpt>
      <trkpt lat="47.51614" lon="-1.03288">
        <ele>51</ele>
        <time>2021-10-13T14:34:49Z</time>
      </trkpt>
      <trkpt lat="47.51605" lon="-1.03291">
        <ele>52</ele>
        <time>2021-10-13T14:34:52Z</time>
      </trkpt>
      <trkpt lat="47.51593" lon="-1.03317">
        <ele>52</ele>
        <time>2021-10-13T14:34:57Z</time>
      </trkpt>
      <trkpt lat="47.51584" lon="-1.03346">
        <ele>52</ele>
        <time>2021-10-13T14:35:02Z</time>
      </trkpt>
      <trkpt lat="47.51582" lon="-1.03359">
        <ele>53</ele>
        <time>2021-10-13T14:35:04Z</time>
      </trkpt>
      <trkpt lat="47.5158" lon="-1.03411">
        <ele>52</ele>
        <time>2021-10-13T14:35:12Z</time>
      </trkpt>
      <trkpt lat="47.51577" lon="-1.03464">
        <ele>52</ele>
        <time>2021-10-13T14:35:20Z</time>
      </trkpt>
      <trkpt lat="47.51575" lon="-1.03514">
        <ele>52</ele>
        <time>2021-10-13T14:35:27Z</time>
      </trkpt>
      <trkpt lat="47.51578" lon="-1.03572">
        <ele>51</ele>
        <time>2021-10-13T14:35:35Z</time>
      </trkpt>
      <trkpt lat="47.51578" lon="-1.03621">
        <ele>51</ele>
        <time>2021-10-13T14:35:42Z</time>
      </trkpt>
      <trkpt lat="47.51575" lon="-1.03665">
        <ele>51</ele>
        <time>2021-10-13T14:35:48Z</time>
      </trkpt>
      <trkpt lat="47.51574" lon="-1.03673">
        <ele>51</ele>
        <time>2021-10-13T14:35:49Z</time>
      </trkpt>
      <trkpt lat="47.51568" lon="-1.03724">
        <ele>51</ele>
        <time>2021-10-13T14:35:56Z</time>
      </trkpt>
      <trkpt lat="47.51555" lon="-1.03776">
        <ele>51</ele>
        <time>2021-10-13T14:36:04Z</time>
      </trkpt>
      <trkpt lat="47.5153" lon="-1.03837">
        <ele>50</ele>
        <time>2021-10-13T14:36:14Z</time>
      </trkpt>
      <trkpt lat="47.51522" lon="-1.0386">
        <ele>51</ele>
        <time>2021-10-13T14:36:18Z</time>
      </trkpt>
      <trkpt lat="47.51517" lon="-1.03885">
        <ele>52</ele>
        <time>2021-10-13T14:36:22Z</time>
      </trkpt>
      <trkpt lat="47.51516" lon="-1.03891">
        <ele>52</ele>
        <time>2021-10-13T14:36:23Z</time>
      </trkpt>
      <trkpt lat="47.51514" lon="-1.03924">
        <ele>52</ele>
        <time>2021-10-13T14:36:28Z</time>
      </trkpt>
      <trkpt lat="47.51519" lon="-1.03975">
        <ele>52</ele>
        <time>2021-10-13T14:36:35Z</time>
      </trkpt>
      <trkpt lat="47.51525" lon="-1.04029">
        <ele>52</ele>
        <time>2021-10-13T14:36:42Z</time>
      </trkpt>
      <trkpt lat="47.51525" lon="-1.04077">
        <ele>52</ele>
        <time>2021-10-13T14:36:49Z</time>
      </trkpt>
      <trkpt lat="47.5152" lon="-1.04118">
        <ele>52</ele>
        <time>2021-10-13T14:36:55Z</time>
      </trkpt>
      <trkpt lat="47.51518" lon="-1.04124">
        <ele>52</ele>
        <time>2021-10-13T14:36:56Z</time>
      </trkpt>
      <trkpt lat="47.51507" lon="-1.04134">
        <ele>52</ele>
        <time>2021-10-13T14:36:59Z</time>
      </trkpt>
      <trkpt lat="47.51494" lon="-1.04136">
        <ele>53</ele>
        <time>2021-10-13T14:37:02Z</time>
      </trkpt>
      <trkpt lat="47.51485" lon="-1.04136">
        <ele>54</ele>
        <time>2021-10-13T14:37:04Z</time>
      </trkpt>
      <trkpt lat="47.51477" lon="-1.04137">
        <ele>54</ele>
        <time>2021-10-13T14:37:06Z</time>
      </trkpt>
      <trkpt lat="47.51458" lon="-1.04141">
        <ele>55</ele>
        <time>2021-10-13T14:37:11Z</time>
      </trkpt>
      <trkpt lat="47.51452" lon="-1.04145">
        <ele>56</ele>
        <time>2021-10-13T14:37:13Z</time>
      </trkpt>
      <trkpt lat="47.51439" lon="-1.04154">
        <ele>56</ele>
        <time>2021-10-13T14:37:17Z</time>
      </trkpt>
      <trkpt lat="47.5143" lon="-1.04161">
        <ele>56</ele>
        <time>2021-10-13T14:37:20Z</time>
      </trkpt>
      <trkpt lat="47.5142" lon="-1.04165">
        <ele>56</ele>
        <time>2021-10-13T14:37:23Z</time>
      </trkpt>
      <trkpt lat="47.51406" lon="-1.04165">
        <ele>57</ele>
        <time>2021-10-13T14:37:27Z</time>
      </trkpt>
      <trkpt lat="47.51395" lon="-1.04164">
        <ele>57</ele>
        <time>2021-10-13T14:37:30Z</time>
      </trkpt>
      <trkpt lat="47.51384" lon="-1.04162">
        <ele>58</ele>
        <time>2021-10-13T14:37:33Z</time>
      </trkpt>
      <trkpt lat="47.51364" lon="-1.04159">
        <ele>59</ele>
        <time>2021-10-13T14:37:39Z</time>
      </trkpt>
      <trkpt lat="47.51349" lon="-1.04156">
        <ele>60</ele>
        <time>2021-10-13T14:37:44Z</time>
      </trkpt>
      <trkpt lat="47.51337" lon="-1.04153">
        <ele>61</ele>
        <time>2021-10-13T14:37:48Z</time>
      </trkpt>
      <trkpt lat="47.51329" lon="-1.0415">
        <ele>62</ele>
        <time>2021-10-13T14:37:51Z</time>
      </trkpt>
      <trkpt lat="47.51317" lon="-1.04144">
        <ele>62</ele>
        <time>2021-10-13T14:37:56Z</time>
      </trkpt>
      <trkpt lat="47.51309" lon="-1.0414">
        <ele>62</ele>
        <time>2021-10-13T14:37:59Z</time>
      </trkpt>
      <trkpt lat="47.51298" lon="-1.04134">
        <ele>63</ele>
        <time>2021-10-13T14:38:04Z</time>
      </trkpt>
      <trkpt lat="47.51293" lon="-1.04132">
        <ele>64</ele>
        <time>2021-10-13T14:38:06Z</time>
      </trkpt>
      <trkpt lat="47.51275" lon="-1.04124">
        <ele>65</ele>
        <time>2021-10-13T14:38:14Z</time>
      </trkpt>
      <trkpt lat="47.51262" lon="-1.04118">
        <ele>67</ele>
        <time>2021-10-13T14:38:20Z</time>
      </trkpt>
      <trkpt lat="47.51256" lon="-1.04114">
        <ele>68</ele>
        <time>2021-10-13T14:38:23Z</time>
      </trkpt>
      <trkpt lat="47.51252" lon="-1.04111">
        <ele>68</ele>
        <time>2021-10-13T14:38:25Z</time>
      </trkpt>
      <trkpt lat="47.51245" lon="-1.04107">
        <ele>69</ele>
        <time>2021-10-13T14:38:29Z</time>
      </trkpt>
      <trkpt lat="47.51232" lon="-1.04103">
        <ele>70</ele>
        <time>2021-10-13T14:38:36Z</time>
      </trkpt>
      <trkpt lat="47.51228" lon="-1.04101">
        <ele>70</ele>
        <time>2021-10-13T14:38:38Z</time>
      </trkpt>
      <trkpt lat="47.51219" lon="-1.04096">
        <ele>70</ele>
        <time>2021-10-13T14:38:43Z</time>
      </trkpt>
      <trkpt lat="47.51213" lon="-1.04094">
        <ele>70</ele>
        <time>2021-10-13T14:38:46Z</time>
      </trkpt>
      <trkpt lat="47.51206" lon="-1.04091">
        <ele>70</ele>
        <time>2021-10-13T14:38:50Z</time>
      </trkpt>
      <trkpt lat="47.51204" lon="-1.0409">
        <ele>70</ele>
        <time>2021-10-13T14:38:51Z</time>
      </trkpt>
      <trkpt lat="47.51192" lon="-1.04085">
        <ele>71</ele>
        <time>2021-10-13T14:38:58Z</time>
      </trkpt>
      <trkpt lat="47.51188" lon="-1.04084">
        <ele>71</ele>
        <time>2021-10-13T14:39:01Z</time>
      </trkpt>
      <trkpt lat="47.51179" lon="-1.04082">
        <ele>71</ele>
        <time>2021-10-13T14:39:06Z</time>
      </trkpt>
      <trkpt lat="47.51176" lon="-1.04082">
        <ele>71</ele>
        <time>2021-10-13T14:39:08Z</time>
      </trkpt>
      <trkpt lat="47.51165" lon="-1.0408">
        <ele>72</ele>
        <time>2021-10-13T14:39:14Z</time>
      </trkpt>
      <trkpt lat="47.51163" lon="-1.0408">
        <ele>72</ele>
        <time>2021-10-13T14:39:15Z</time>
      </trkpt>
      <trkpt lat="47.51149" lon="-1.04076">
        <ele>72</ele>
        <time>2021-10-13T14:39:23Z</time>
      </trkpt>
      <trkpt lat="47.51136" lon="-1.04071">
        <ele>73</ele>
        <time>2021-10-13T14:39:30Z</time>
      </trkpt>
      <trkpt lat="47.51132" lon="-1.0407">
        <ele>73</ele>
        <time>2021-10-13T14:39:32Z</time>
      </trkpt>
      <trkpt lat="47.51123" lon="-1.04066">
        <ele>74</ele>
        <time>2021-10-13T14:39:38Z</time>
      </trkpt>
      <trkpt lat="47.51119" lon="-1.04063">
        <ele>74</ele>
        <time>2021-10-13T14:39:40Z</time>
      </trkpt>
      <trkpt lat="47.51102" lon="-1.04056">
        <ele>75</ele>
        <time>2021-10-13T14:39:47Z</time>
      </trkpt>
      <trkpt lat="47.51084" lon="-1.04051">
        <ele>76</ele>
        <time>2021-10-13T14:39:55Z</time>
      </trkpt>
      <trkpt lat="47.51081" lon="-1.0405">
        <ele>77</ele>
        <time>2021-10-13T14:39:56Z</time>
      </trkpt>
      <trkpt lat="47.51064" lon="-1.04046">
        <ele>78</ele>
        <time>2021-10-13T14:40:03Z</time>
      </trkpt>
      <trkpt lat="47.51041" lon="-1.04039">
        <ele>78</ele>
        <time>2021-10-13T14:40:11Z</time>
      </trkpt>
      <trkpt lat="47.51018" lon="-1.04034">
        <ele>78</ele>
        <time>2021-10-13T14:40:19Z</time>
      </trkpt>
      <trkpt lat="47.50998" lon="-1.04029">
        <ele>79</ele>
        <time>2021-10-13T14:40:26Z</time>
      </trkpt>
      <trkpt lat="47.50982" lon="-1.04025">
        <ele>78</ele>
        <time>2021-10-13T14:40:32Z</time>
      </trkpt>
      <trkpt lat="47.50956" lon="-1.04015">
        <ele>78</ele>
        <time>2021-10-13T14:40:42Z</time>
      </trkpt>
      <trkpt lat="47.50932" lon="-1.04006">
        <ele>78</ele>
        <time>2021-10-13T14:40:49Z</time>
      </trkpt>
      <trkpt lat="47.50912" lon="-1.03998">
        <ele>78</ele>
        <time>2021-10-13T14:40:55Z</time>
      </trkpt>
      <trkpt lat="47.5089" lon="-1.03989">
        <ele>78</ele>
        <time>2021-10-13T14:41:02Z</time>
      </trkpt>
      <trkpt lat="47.50864" lon="-1.03978">
        <ele>78</ele>
        <time>2021-10-13T14:41:10Z</time>
      </trkpt>
      <trkpt lat="47.50843" lon="-1.03968">
        <ele>77</ele>
        <time>2021-10-13T14:41:17Z</time>
      </trkpt>
      <trkpt lat="47.50818" lon="-1.03956">
        <ele>77</ele>
        <time>2021-10-13T14:41:24Z</time>
      </trkpt>
      <trkpt lat="47.50799" lon="-1.03947">
        <ele>77</ele>
        <time>2021-10-13T14:41:30Z</time>
      </trkpt>
      <trkpt lat="47.50775" lon="-1.03935">
        <ele>77</ele>
        <time>2021-10-13T14:41:39Z</time>
      </trkpt>
      <trkpt lat="47.50757" lon="-1.03927">
        <ele>77</ele>
        <time>2021-10-13T14:41:45Z</time>
      </trkpt>
      <trkpt lat="47.50724" lon="-1.03909">
        <ele>76</ele>
        <time>2021-10-13T14:41:54Z</time>
      </trkpt>
      <trkpt lat="47.50688" lon="-1.0389">
        <ele>75</ele>
        <time>2021-10-13T14:42:02Z</time>
      </trkpt>
      <trkpt lat="47.50656" lon="-1.03871">
        <ele>74</ele>
        <time>2021-10-13T14:42:08Z</time>
      </trkpt>
      <trkpt lat="47.5064" lon="-1.03863">
        <ele>74</ele>
        <time>2021-10-13T14:42:11Z</time>
      </trkpt>
      <trkpt lat="47.50609" lon="-1.03847">
        <ele>72</ele>
        <time>2021-10-13T14:42:17Z</time>
      </trkpt>
      <trkpt lat="47.50604" lon="-1.03844">
        <ele>72</ele>
        <time>2021-10-13T14:42:18Z</time>
      </trkpt>
      <trkpt lat="47.50571" lon="-1.03826">
        <ele>72</ele>
        <time>2021-10-13T14:42:25Z</time>
      </trkpt>
      <trkpt lat="47.50567" lon="-1.03824">
        <ele>72</ele>
        <time>2021-10-13T14:42:26Z</time>
      </trkpt>
      <trkpt lat="47.50529" lon="-1.03803">
        <ele>72</ele>
        <time>2021-10-13T14:42:35Z</time>
      </trkpt>
      <trkpt lat="47.50508" lon="-1.03793">
        <ele>72</ele>
        <time>2021-10-13T14:42:40Z</time>
      </trkpt>
      <trkpt lat="47.505" lon="-1.03788">
        <ele>72</ele>
        <time>2021-10-13T14:42:42Z</time>
      </trkpt>
      <trkpt lat="47.50497" lon="-1.03784">
        <ele>72</ele>
        <time>2021-10-13T14:42:43Z</time>
      </trkpt>
      <trkpt lat="47.50491" lon="-1.03768">
        <ele>72</ele>
        <time>2021-10-13T14:42:46Z</time>
      </trkpt>
      <trkpt lat="47.50488" lon="-1.03757">
        <ele>72</ele>
        <time>2021-10-13T14:42:48Z</time>
      </trkpt>
      <trkpt lat="47.50478" lon="-1.03718">
        <ele>72</ele>
        <time>2021-10-13T14:42:55Z</time>
      </trkpt>
      <trkpt lat="47.50468" lon="-1.03671">
        <ele>72</ele>
        <time>2021-10-13T14:43:03Z</time>
      </trkpt>
      <trkpt lat="47.50462" lon="-1.03647">
        <ele>72</ele>
        <time>2021-10-13T14:43:07Z</time>
      </trkpt>
      <trkpt lat="47.50457" lon="-1.0363">
        <ele>72</ele>
        <time>2021-10-13T14:43:10Z</time>
      </trkpt>
      <trkpt lat="47.50452" lon="-1.03601">
        <ele>73</ele>
        <time>2021-10-13T14:43:15Z</time>
      </trkpt>
      <trkpt lat="47.50447" lon="-1.03579">
        <ele>73</ele>
        <time>2021-10-13T14:43:19Z</time>
      </trkpt>
      <trkpt lat="47.50436" lon="-1.03538">
        <ele>73</ele>
        <time>2021-10-13T14:43:26Z</time>
      </trkpt>
      <trkpt lat="47.50422" lon="-1.03497">
        <ele>73</ele>
        <time>2021-10-13T14:43:33Z</time>
      </trkpt>
      <trkpt lat="47.50405" lon="-1.03456">
        <ele>71</ele>
        <time>2021-10-13T14:43:40Z</time>
      </trkpt>
      <trkpt lat="47.50381" lon="-1.03427">
        <ele>70</ele>
        <time>2021-10-13T14:43:47Z</time>
      </trkpt>
      <trkpt lat="47.50361" lon="-1.03405">
        <ele>70</ele>
        <time>2021-10-13T14:43:53Z</time>
      </trkpt>
      <trkpt lat="47.50329" lon="-1.0337">
        <ele>70</ele>
        <time>2021-10-13T14:44:02Z</time>
      </trkpt>
      <trkpt lat="47.50301" lon="-1.03338">
        <ele>70</ele>
        <time>2021-10-13T14:44:10Z</time>
      </trkpt>
      <trkpt lat="47.50278" lon="-1.03308">
        <ele>70</ele>
        <time>2021-10-13T14:44:17Z</time>
      </trkpt>
      <trkpt lat="47.5026" lon="-1.03272">
        <ele>69</ele>
        <time>2021-10-13T14:44:24Z</time>
      </trkpt>
      <trkpt lat="47.50235" lon="-1.03227">
        <ele>69</ele>
        <time>2021-10-13T14:44:33Z</time>
      </trkpt>
      <trkpt lat="47.50215" lon="-1.03193">
        <ele>69</ele>
        <time>2021-10-13T14:44:41Z</time>
      </trkpt>
      <trkpt lat="47.50195" lon="-1.03156">
        <ele>69</ele>
        <time>2021-10-13T14:44:49Z</time>
      </trkpt>
      <trkpt lat="47.50176" lon="-1.03122">
        <ele>69</ele>
        <time>2021-10-13T14:44:56Z</time>
      </trkpt>
      <trkpt lat="47.50173" lon="-1.03117">
        <ele>69</ele>
        <time>2021-10-13T14:44:57Z</time>
      </trkpt>
      <trkpt lat="47.50156" lon="-1.03083">
        <ele>69</ele>
        <time>2021-10-13T14:45:04Z</time>
      </trkpt>
      <trkpt lat="47.50135" lon="-1.03044">
        <ele>69</ele>
        <time>2021-10-13T14:45:12Z</time>
      </trkpt>
      <trkpt lat="47.50121" lon="-1.03015">
        <ele>69</ele>
        <time>2021-10-13T14:45:18Z</time>
      </trkpt>
      <trkpt lat="47.50117" lon="-1.02983">
        <ele>69</ele>
        <time>2021-10-13T14:45:24Z</time>
      </trkpt>
      <trkpt lat="47.50114" lon="-1.02935">
        <ele>69</ele>
        <time>2021-10-13T14:45:32Z</time>
      </trkpt>
      <trkpt lat="47.50111" lon="-1.02905">
        <ele>70</ele>
        <time>2021-10-13T14:45:38Z</time>
      </trkpt>
      <trkpt lat="47.50109" lon="-1.02887">
        <ele>69</ele>
        <time>2021-10-13T14:46:01Z</time>
      </trkpt>
      <trkpt lat="47.50107" lon="-1.02866">
        <ele>69</ele>
        <time>2021-10-13T14:46:06Z</time>
      </trkpt>
      <trkpt lat="47.501" lon="-1.0284">
        <ele>68</ele>
        <time>2021-10-13T14:46:12Z</time>
      </trkpt>
      <trkpt lat="47.50098" lon="-1.02835">
        <ele>68</ele>
        <time>2021-10-13T14:46:13Z</time>
      </trkpt>
      <trkpt lat="47.50088" lon="-1.02798">
        <ele>68</ele>
        <time>2021-10-13T14:46:20Z</time>
      </trkpt>
      <trkpt lat="47.50078" lon="-1.02756">
        <ele>68</ele>
        <time>2021-10-13T14:46:28Z</time>
      </trkpt>
      <trkpt lat="47.50069" lon="-1.02717">
        <ele>68</ele>
        <time>2021-10-13T14:46:36Z</time>
      </trkpt>
      <trkpt lat="47.50058" lon="-1.02675">
        <ele>67</ele>
        <time>2021-10-13T14:46:44Z</time>
      </trkpt>
      <trkpt lat="47.50046" lon="-1.02626">
        <ele>66</ele>
        <time>2021-10-13T14:46:53Z</time>
      </trkpt>
      <trkpt lat="47.50041" lon="-1.02575">
        <ele>66</ele>
        <time>2021-10-13T14:47:02Z</time>
      </trkpt>
      <trkpt lat="47.50043" lon="-1.02529">
        <ele>67</ele>
        <time>2021-10-13T14:47:10Z</time>
      </trkpt>
      <trkpt lat="47.50044" lon="-1.02517">
        <ele>67</ele>
        <time>2021-10-13T14:47:12Z</time>
      </trkpt>
      <trkpt lat="47.50048" lon="-1.02483">
        <ele>67</ele>
        <time>2021-10-13T14:47:18Z</time>
      </trkpt>
      <trkpt lat="47.50054" lon="-1.02437">
        <ele>68</ele>
        <time>2021-10-13T14:47:26Z</time>
      </trkpt>
      <trkpt lat="47.50054" lon="-1.02423">
        <ele>68</ele>
        <time>2021-10-13T14:47:29Z</time>
      </trkpt>
      <trkpt lat="47.50052" lon="-1.02419">
        <ele>68</ele>
        <time>2021-10-13T14:47:30Z</time>
      </trkpt>
      <trkpt lat="47.50045" lon="-1.02409">
        <ele>67</ele>
        <time>2021-10-13T14:47:33Z</time>
      </trkpt>
      <trkpt lat="47.50037" lon="-1.024">
        <ele>67</ele>
        <time>2021-10-13T14:47:36Z</time>
      </trkpt>
      <trkpt lat="47.50012" lon="-1.02376">
        <ele>67</ele>
        <time>2021-10-13T14:47:44Z</time>
      </trkpt>
      <trkpt lat="47.49991" lon="-1.02356">
        <ele>68</ele>
        <time>2021-10-13T14:47:52Z</time>
      </trkpt>
      <trkpt lat="47.49968" lon="-1.02335">
        <ele>69</ele>
        <time>2021-10-13T14:48:00Z</time>
      </trkpt>
      <trkpt lat="47.49953" lon="-1.02324">
        <ele>69</ele>
        <time>2021-10-13T14:48:06Z</time>
      </trkpt>
      <trkpt lat="47.4995" lon="-1.02323">
        <ele>69</ele>
        <time>2021-10-13T14:48:07Z</time>
      </trkpt>
      <trkpt lat="47.49925" lon="-1.02314">
        <ele>70</ele>
        <time>2021-10-13T14:48:14Z</time>
      </trkpt>
      <trkpt lat="47.49896" lon="-1.02301">
        <ele>69</ele>
        <time>2021-10-13T14:48:22Z</time>
      </trkpt>
      <trkpt lat="47.49867" lon="-1.02283">
        <ele>69</ele>
        <time>2021-10-13T14:48:30Z</time>
      </trkpt>
      <trkpt lat="47.49856" lon="-1.02278">
        <ele>69</ele>
        <time>2021-10-13T14:48:33Z</time>
      </trkpt>
      <trkpt lat="47.49843" lon="-1.02272">
        <ele>70</ele>
        <time>2021-10-13T14:48:38Z</time>
      </trkpt>
      <trkpt lat="47.49824" lon="-1.02263">
        <ele>71</ele>
        <time>2021-10-13T14:48:45Z</time>
      </trkpt>
      <trkpt lat="47.49811" lon="-1.02258">
        <ele>71</ele>
        <time>2021-10-13T14:48:49Z</time>
      </trkpt>
      <trkpt lat="47.49795" lon="-1.02251">
        <ele>70</ele>
        <time>2021-10-13T14:48:54Z</time>
      </trkpt>
      <trkpt lat="47.49768" lon="-1.02239">
        <ele>71</ele>
        <time>2021-10-13T14:49:02Z</time>
      </trkpt>
      <trkpt lat="47.49746" lon="-1.02225">
        <ele>71</ele>
        <time>2021-10-13T14:49:09Z</time>
      </trkpt>
      <trkpt lat="47.49716" lon="-1.02213">
        <ele>72</ele>
        <time>2021-10-13T14:49:17Z</time>
      </trkpt>
      <trkpt lat="47.49695" lon="-1.02209">
        <ele>71</ele>
        <time>2021-10-13T14:49:24Z</time>
      </trkpt>
      <trkpt lat="47.49682" lon="-1.0222">
        <ele>71</ele>
        <time>2021-10-13T14:49:29Z</time>
      </trkpt>
      <trkpt lat="47.49679" lon="-1.02223">
        <ele>71</ele>
        <time>2021-10-13T14:49:30Z</time>
      </trkpt>
      <trkpt lat="47.49655" lon="-1.02246">
        <ele>72</ele>
        <time>2021-10-13T14:49:39Z</time>
      </trkpt>
      <trkpt lat="47.49633" lon="-1.02272">
        <ele>72</ele>
        <time>2021-10-13T14:49:48Z</time>
      </trkpt>
      <trkpt lat="47.49608" lon="-1.02299">
        <ele>72</ele>
        <time>2021-10-13T14:49:56Z</time>
      </trkpt>
      <trkpt lat="47.49589" lon="-1.02322">
        <ele>73</ele>
        <time>2021-10-13T14:50:04Z</time>
      </trkpt>
      <trkpt lat="47.49567" lon="-1.02346">
        <ele>74</ele>
        <time>2021-10-13T14:50:12Z</time>
      </trkpt>
      <trkpt lat="47.49544" lon="-1.02367">
        <ele>73</ele>
        <time>2021-10-13T14:50:19Z</time>
      </trkpt>
      <trkpt lat="47.49518" lon="-1.02391">
        <ele>72</ele>
        <time>2021-10-13T14:50:27Z</time>
      </trkpt>
      <trkpt lat="47.49492" lon="-1.02414">
        <ele>72</ele>
        <time>2021-10-13T14:50:35Z</time>
      </trkpt>
      <trkpt lat="47.49482" lon="-1.02418">
        <ele>72</ele>
        <time>2021-10-13T14:50:39Z</time>
      </trkpt>
      <trkpt lat="47.49481" lon="-1.02415">
        <ele>72</ele>
        <time>2021-10-13T14:50:40Z</time>
      </trkpt>
      <trkpt lat="47.49479" lon="-1.02402">
        <ele>73</ele>
        <time>2021-10-13T14:50:43Z</time>
      </trkpt>
      <trkpt lat="47.49479" lon="-1.02392">
        <ele>73</ele>
        <time>2021-10-13T14:50:45Z</time>
      </trkpt>
      <trkpt lat="47.49477" lon="-1.02355">
        <ele>73</ele>
        <time>2021-10-13T14:50:52Z</time>
      </trkpt>
      <trkpt lat="47.49474" lon="-1.02309">
        <ele>73</ele>
        <time>2021-10-13T14:51:00Z</time>
      </trkpt>
      <trkpt lat="47.49472" lon="-1.02273">
        <ele>73</ele>
        <time>2021-10-13T14:51:07Z</time>
      </trkpt>
      <trkpt lat="47.4947" lon="-1.02222">
        <ele>74</ele>
        <time>2021-10-13T14:51:16Z</time>
      </trkpt>
      <trkpt lat="47.49468" lon="-1.02189">
        <ele>74</ele>
        <time>2021-10-13T14:51:23Z</time>
      </trkpt>
      <trkpt lat="47.49465" lon="-1.02179">
        <ele>74</ele>
        <time>2021-10-13T14:51:26Z</time>
      </trkpt>
      <trkpt lat="47.49461" lon="-1.02176">
        <ele>74</ele>
        <time>2021-10-13T14:51:28Z</time>
      </trkpt>
      <trkpt lat="47.49445" lon="-1.02168">
        <ele>74</ele>
        <time>2021-10-13T14:51:34Z</time>
      </trkpt>
      <trkpt lat="47.49421" lon="-1.02159">
        <ele>74</ele>
        <time>2021-10-13T14:51:43Z</time>
      </trkpt>
      <trkpt lat="47.49401" lon="-1.02149">
        <ele>74</ele>
        <time>2021-10-13T14:51:50Z</time>
      </trkpt>
      <trkpt lat="47.49384" lon="-1.02142">
        <ele>74</ele>
        <time>2021-10-13T14:51:56Z</time>
      </trkpt>
      <trkpt lat="47.49381" lon="-1.02141">
        <ele>74</ele>
        <time>2021-10-13T14:51:57Z</time>
      </trkpt>
      <trkpt lat="47.49364" lon="-1.02132">
        <ele>74</ele>
        <time>2021-10-13T14:52:03Z</time>
      </trkpt>
      <trkpt lat="47.49364" lon="-1.02128">
        <ele>74</ele>
        <time>2021-10-13T14:52:04Z</time>
      </trkpt>
      <trkpt lat="47.49367" lon="-1.02115">
        <ele>74</ele>
        <time>2021-10-13T14:52:07Z</time>
      </trkpt>
      <trkpt lat="47.49369" lon="-1.02104">
        <ele>74</ele>
        <time>2021-10-13T14:52:09Z</time>
      </trkpt>
      <trkpt lat="47.49377" lon="-1.02068">
        <ele>74</ele>
        <time>2021-10-13T14:52:16Z</time>
      </trkpt>
      <trkpt lat="47.49385" lon="-1.02034">
        <ele>74</ele>
        <time>2021-10-13T14:52:23Z</time>
      </trkpt>
      <trkpt lat="47.49385" lon="-1.0203">
        <ele>74</ele>
        <time>2021-10-13T14:52:24Z</time>
      </trkpt>
      <trkpt lat="47.49382" lon="-1.02026">
        <ele>74</ele>
        <time>2021-10-13T14:52:26Z</time>
      </trkpt>
      <trkpt lat="47.49377" lon="-1.02024">
        <ele>74</ele>
        <time>2021-10-13T14:52:28Z</time>
      </trkpt>
      <trkpt lat="47.49366" lon="-1.02021">
        <ele>74</ele>
        <time>2021-10-13T14:52:32Z</time>
      </trkpt>
      <trkpt lat="47.49348" lon="-1.02012">
        <ele>75</ele>
        <time>2021-10-13T14:52:38Z</time>
      </trkpt>
      <trkpt lat="47.49325" lon="-1.02">
        <ele>76</ele>
        <time>2021-10-13T14:52:45Z</time>
      </trkpt>
      <trkpt lat="47.49296" lon="-1.01987">
        <ele>76</ele>
        <time>2021-10-13T14:52:53Z</time>
      </trkpt>
      <trkpt lat="47.49273" lon="-1.01973">
        <ele>76</ele>
        <time>2021-10-13T14:53:00Z</time>
      </trkpt>
      <trkpt lat="47.49246" lon="-1.01958">
        <ele>75</ele>
        <time>2021-10-13T14:53:08Z</time>
      </trkpt>
      <trkpt lat="47.49238" lon="-1.01949">
        <ele>75</ele>
        <time>2021-10-13T14:53:12Z</time>
      </trkpt>
      <trkpt lat="47.49238" lon="-1.01946">
        <ele>75</ele>
        <time>2021-10-13T14:53:13Z</time>
      </trkpt>
      <trkpt lat="47.49239" lon="-1.01943">
        <ele>75</ele>
        <time>2021-10-13T14:53:14Z</time>
      </trkpt>
      <trkpt lat="47.49246" lon="-1.01933">
        <ele>75</ele>
        <time>2021-10-13T14:53:17Z</time>
      </trkpt>
      <trkpt lat="47.49264" lon="-1.01905">
        <ele>75</ele>
        <time>2021-10-13T14:53:22Z</time>
      </trkpt>
      <trkpt lat="47.49282" lon="-1.01877">
        <ele>75</ele>
        <time>2021-10-13T14:53:29Z</time>
      </trkpt>
      <trkpt lat="47.49299" lon="-1.01849">
        <ele>75</ele>
        <time>2021-10-13T14:53:36Z</time>
      </trkpt>
      <trkpt lat="47.4932" lon="-1.01811">
        <ele>75</ele>
        <time>2021-10-13T14:53:46Z</time>
      </trkpt>
      <trkpt lat="47.49326" lon="-1.01793">
        <ele>75</ele>
        <time>2021-10-13T14:53:51Z</time>
      </trkpt>
      <trkpt lat="47.49325" lon="-1.0179">
        <ele>75</ele>
        <time>2021-10-13T14:53:52Z</time>
      </trkpt>
      <trkpt lat="47.4932" lon="-1.01768">
        <ele>76</ele>
        <time>2021-10-13T14:53:58Z</time>
      </trkpt>
      <trkpt lat="47.49308" lon="-1.01738">
        <ele>76</ele>
        <time>2021-10-13T14:54:05Z</time>
      </trkpt>
      <trkpt lat="47.49305" lon="-1.01729">
        <ele>76</ele>
        <time>2021-10-13T14:54:07Z</time>
      </trkpt>
      <trkpt lat="47.49289" lon="-1.01694">
        <ele>76</ele>
        <time>2021-10-13T14:54:15Z</time>
      </trkpt>
      <trkpt lat="47.49269" lon="-1.01655">
        <ele>75</ele>
        <time>2021-10-13T14:54:24Z</time>
      </trkpt>
      <trkpt lat="47.49255" lon="-1.01625">
        <ele>74</ele>
        <time>2021-10-13T14:54:30Z</time>
      </trkpt>
      <trkpt lat="47.4924" lon="-1.0159">
        <ele>74</ele>
        <time>2021-10-13T14:54:37Z</time>
      </trkpt>
      <trkpt lat="47.49236" lon="-1.01581">
        <ele>74</ele>
        <time>2021-10-13T14:54:39Z</time>
      </trkpt>
      <trkpt lat="47.49224" lon="-1.01553">
        <ele>74</ele>
        <time>2021-10-13T14:54:46Z</time>
      </trkpt>
      <trkpt lat="47.49212" lon="-1.01523">
        <ele>73</ele>
        <time>2021-10-13T14:54:52Z</time>
      </trkpt>
      <trkpt lat="47.49209" lon="-1.01518">
        <ele>73</ele>
        <time>2021-10-13T14:54:53Z</time>
      </trkpt>
      <trkpt lat="47.49186" lon="-1.01484">
        <ele>71</ele>
        <time>2021-10-13T14:55:00Z</time>
      </trkpt>
      <trkpt lat="47.4917" lon="-1.01468">
        <ele>70</ele>
        <time>2021-10-13T14:55:03Z</time>
      </trkpt>
      <trkpt lat="47.4915" lon="-1.01446">
        <ele>69</ele>
        <time>2021-10-13T14:55:08Z</time>
      </trkpt>
      <trkpt lat="47.49123" lon="-1.01416">
        <ele>69</ele>
        <time>2021-10-13T14:55:15Z</time>
      </trkpt>
      <trkpt lat="47.49119" lon="-1.01411">
        <ele>69</ele>
        <time>2021-10-13T14:55:16Z</time>
      </trkpt>
      <trkpt lat="47.49099" lon="-1.01381">
        <ele>69</ele>
        <time>2021-10-13T14:55:22Z</time>
      </trkpt>
      <trkpt lat="47.49093" lon="-1.01373">
        <ele>70</ele>
        <time>2021-10-13T14:55:24Z</time>
      </trkpt>
      <trkpt lat="47.49079" lon="-1.01353">
        <ele>70</ele>
        <time>2021-10-13T14:55:29Z</time>
      </trkpt>
      <trkpt lat="47.49053" lon="-1.0133">
        <ele>70</ele>
        <time>2021-10-13T14:55:36Z</time>
      </trkpt>
      <trkpt lat="47.49046" lon="-1.01325">
        <ele>69</ele>
        <time>2021-10-13T14:55:38Z</time>
      </trkpt>
      <trkpt lat="47.49027" lon="-1.01309">
        <ele>69</ele>
        <time>2021-10-13T14:55:44Z</time>
      </trkpt>
      <trkpt lat="47.49011" lon="-1.01294">
        <ele>69</ele>
        <time>2021-10-13T14:55:50Z</time>
      </trkpt>
      <trkpt lat="47.48996" lon="-1.01288">
        <ele>69</ele>
        <time>2021-10-13T14:55:56Z</time>
      </trkpt>
      <trkpt lat="47.48975" lon="-1.01288">
        <ele>68</ele>
        <time>2021-10-13T14:56:02Z</time>
      </trkpt>
      <trkpt lat="47.48956" lon="-1.01285">
        <ele>68</ele>
        <time>2021-10-13T14:56:07Z</time>
      </trkpt>
      <trkpt lat="47.4895" lon="-1.01283">
        <ele>68</ele>
        <time>2021-10-13T14:56:09Z</time>
      </trkpt>
      <trkpt lat="47.48928" lon="-1.01276">
        <ele>69</ele>
        <time>2021-10-13T14:56:15Z</time>
      </trkpt>
      <trkpt lat="47.48899" lon="-1.01267">
        <ele>68</ele>
        <time>2021-10-13T14:56:23Z</time>
      </trkpt>
      <trkpt lat="47.48874" lon="-1.01261">
        <ele>66</ele>
        <time>2021-10-13T14:56:31Z</time>
      </trkpt>
      <trkpt lat="47.4885" lon="-1.01256">
        <ele>66</ele>
        <time>2021-10-13T14:56:39Z</time>
      </trkpt>
      <trkpt lat="47.48827" lon="-1.0125">
        <ele>67</ele>
        <time>2021-10-13T14:56:46Z</time>
      </trkpt>
      <trkpt lat="47.48797" lon="-1.01241">
        <ele>68</ele>
        <time>2021-10-13T14:56:54Z</time>
      </trkpt>
      <trkpt lat="47.48787" lon="-1.01237">
        <ele>68</ele>
        <time>2021-10-13T14:56:56Z</time>
      </trkpt>
      <trkpt lat="47.4877" lon="-1.01231">
        <ele>68</ele>
        <time>2021-10-13T14:57:00Z</time>
      </trkpt>
      <trkpt lat="47.48741" lon="-1.0123">
        <ele>67</ele>
        <time>2021-10-13T14:57:07Z</time>
      </trkpt>
      <trkpt lat="47.4871" lon="-1.01227">
        <ele>66</ele>
        <time>2021-10-13T14:57:14Z</time>
      </trkpt>
      <trkpt lat="47.48676" lon="-1.01223">
        <ele>66</ele>
        <time>2021-10-13T14:57:22Z</time>
      </trkpt>
      <trkpt lat="47.48644" lon="-1.01221">
        <ele>66</ele>
        <time>2021-10-13T14:57:30Z</time>
      </trkpt>
      <trkpt lat="47.48621" lon="-1.01219">
        <ele>67</ele>
        <time>2021-10-13T14:57:36Z</time>
      </trkpt>
      <trkpt lat="47.48609" lon="-1.01219">
        <ele>68</ele>
        <time>2021-10-13T14:57:39Z</time>
      </trkpt>
      <trkpt lat="47.48584" lon="-1.01218">
        <ele>68</ele>
        <time>2021-10-13T14:57:46Z</time>
      </trkpt>
      <trkpt lat="47.48552" lon="-1.01215">
        <ele>69</ele>
        <time>2021-10-13T14:57:55Z</time>
      </trkpt>
      <trkpt lat="47.48512" lon="-1.01209">
        <ele>69</ele>
        <time>2021-10-13T14:58:05Z</time>
      </trkpt>
      <trkpt lat="47.48504" lon="-1.01207">
        <ele>69</ele>
        <time>2021-10-13T14:58:07Z</time>
      </trkpt>
      <trkpt lat="47.48481" lon="-1.01204">
        <ele>70</ele>
        <time>2021-10-13T14:58:13Z</time>
      </trkpt>
      <trkpt lat="47.48449" lon="-1.012">
        <ele>71</ele>
        <time>2021-10-13T14:58:21Z</time>
      </trkpt>
      <trkpt lat="47.48434" lon="-1.01198">
        <ele>72</ele>
        <time>2021-10-13T14:58:25Z</time>
      </trkpt>
      <trkpt lat="47.48419" lon="-1.01197">
        <ele>72</ele>
        <time>2021-10-13T14:58:29Z</time>
      </trkpt>
      <trkpt lat="47.48383" lon="-1.01191">
        <ele>73</ele>
        <time>2021-10-13T14:58:39Z</time>
      </trkpt>
      <trkpt lat="47.4838" lon="-1.01191">
        <ele>73</ele>
        <time>2021-10-13T14:58:40Z</time>
      </trkpt>
      <trkpt lat="47.48354" lon="-1.01186">
        <ele>73</ele>
        <time>2021-10-13T14:58:48Z</time>
      </trkpt>
      <trkpt lat="47.48351" lon="-1.01186">
        <ele>73</ele>
        <time>2021-10-13T14:58:49Z</time>
      </trkpt>
      <trkpt lat="47.48327" lon="-1.01182">
        <ele>73</ele>
        <time>2021-10-13T14:58:56Z</time>
      </trkpt>
      <trkpt lat="47.48319" lon="-1.0118">
        <ele>74</ele>
        <time>2021-10-13T14:58:58Z</time>
      </trkpt>
      <trkpt lat="47.48283" lon="-1.01172">
        <ele>74</ele>
        <time>2021-10-13T14:59:07Z</time>
      </trkpt>
      <trkpt lat="47.48256" lon="-1.0117">
        <ele>75</ele>
        <time>2021-10-13T14:59:14Z</time>
      </trkpt>
      <trkpt lat="47.48247" lon="-1.01171">
        <ele>75</ele>
        <time>2021-10-13T14:59:16Z</time>
      </trkpt>
      <trkpt lat="47.48233" lon="-1.0118">
        <ele>75</ele>
        <time>2021-10-13T14:59:19Z</time>
      </trkpt>
      <trkpt lat="47.48225" lon="-1.01206">
        <ele>75</ele>
        <time>2021-10-13T14:59:23Z</time>
      </trkpt>
      <trkpt lat="47.48227" lon="-1.01233">
        <ele>75</ele>
        <time>2021-10-13T14:59:27Z</time>
      </trkpt>
      <trkpt lat="47.48228" lon="-1.01239">
        <ele>75</ele>
        <time>2021-10-13T14:59:28Z</time>
      </trkpt>
      <trkpt lat="47.48238" lon="-1.01285">
        <ele>74</ele>
        <time>2021-10-13T14:59:35Z</time>
      </trkpt>
      <trkpt lat="47.48244" lon="-1.01314">
        <ele>74</ele>
        <time>2021-10-13T14:59:39Z</time>
      </trkpt>
      <trkpt lat="47.48253" lon="-1.01357">
        <ele>74</ele>
        <time>2021-10-13T14:59:45Z</time>
      </trkpt>
      <trkpt lat="47.48272" lon="-1.01439">
        <ele>73</ele>
        <time>2021-10-13T14:59:56Z</time>
      </trkpt>
      <trkpt lat="47.48287" lon="-1.01505">
        <ele>73</ele>
        <time>2021-10-13T15:00:05Z</time>
      </trkpt>
      <trkpt lat="47.48306" lon="-1.01577">
        <ele>74</ele>
        <time>2021-10-13T15:00:15Z</time>
      </trkpt>
      <trkpt lat="47.48321" lon="-1.01639">
        <ele>73</ele>
        <time>2021-10-13T15:00:24Z</time>
      </trkpt>
      <trkpt lat="47.48334" lon="-1.01714">
        <ele>74</ele>
        <time>2021-10-13T15:00:34Z</time>
      </trkpt>
      <trkpt lat="47.48342" lon="-1.01765">
        <ele>74</ele>
        <time>2021-10-13T15:00:41Z</time>
      </trkpt>
      <trkpt lat="47.48351" lon="-1.01825">
        <ele>74</ele>
        <time>2021-10-13T15:00:49Z</time>
      </trkpt>
      <trkpt lat="47.48365" lon="-1.01895">
        <ele>74</ele>
        <time>2021-10-13T15:00:59Z</time>
      </trkpt>
      <trkpt lat="47.48373" lon="-1.01932">
        <ele>73</ele>
        <time>2021-10-13T15:01:04Z</time>
      </trkpt>
      <trkpt lat="47.48377" lon="-1.01955">
        <ele>73</ele>
        <time>2021-10-13T15:01:07Z</time>
      </trkpt>
      <trkpt lat="47.48377" lon="-1.01964">
        <ele>73</ele>
        <time>2021-10-13T15:01:08Z</time>
      </trkpt>
      <trkpt lat="47.48374" lon="-1.01988">
        <ele>72</ele>
        <time>2021-10-13T15:01:11Z</time>
      </trkpt>
      <trkpt lat="47.48373" lon="-1.01995">
        <ele>72</ele>
        <time>2021-10-13T15:01:12Z</time>
      </trkpt>
      <trkpt lat="47.48366" lon="-1.02014">
        <ele>72</ele>
        <time>2021-10-13T15:01:15Z</time>
      </trkpt>
      <trkpt lat="47.48359" lon="-1.02033">
        <ele>73</ele>
        <time>2021-10-13T15:01:18Z</time>
      </trkpt>
      <trkpt lat="47.48345" lon="-1.02061">
        <ele>73</ele>
        <time>2021-10-13T15:01:23Z</time>
      </trkpt>
      <trkpt lat="47.48339" lon="-1.0207">
        <ele>73</ele>
        <time>2021-10-13T15:01:25Z</time>
      </trkpt>
      <trkpt lat="47.48329" lon="-1.02081">
        <ele>74</ele>
        <time>2021-10-13T15:01:28Z</time>
      </trkpt>
      <trkpt lat="47.48326" lon="-1.02084">
        <ele>74</ele>
        <time>2021-10-13T15:01:29Z</time>
      </trkpt>
      <trkpt lat="47.48316" lon="-1.02092">
        <ele>75</ele>
        <time>2021-10-13T15:01:32Z</time>
      </trkpt>
      <trkpt lat="47.48302" lon="-1.02102">
        <ele>76</ele>
        <time>2021-10-13T15:01:36Z</time>
      </trkpt>
      <trkpt lat="47.48287" lon="-1.02114">
        <ele>76</ele>
        <time>2021-10-13T15:01:41Z</time>
      </trkpt>
      <trkpt lat="47.48266" lon="-1.0213">
        <ele>77</ele>
        <time>2021-10-13T15:01:48Z</time>
      </trkpt>
      <trkpt lat="47.48261" lon="-1.02135">
        <ele>77</ele>
        <time>2021-10-13T15:01:50Z</time>
      </trkpt>
      <trkpt lat="47.48253" lon="-1.02143">
        <ele>78</ele>
        <time>2021-10-13T15:01:53Z</time>
      </trkpt>
      <trkpt lat="47.48236" lon="-1.0216">
        <ele>79</ele>
        <time>2021-10-13T15:01:59Z</time>
      </trkpt>
      <trkpt lat="47.48231" lon="-1.02165">
        <ele>79</ele>
        <time>2021-10-13T15:02:01Z</time>
      </trkpt>
      <trkpt lat="47.48223" lon="-1.02174">
        <ele>80</ele>
        <time>2021-10-13T15:02:04Z</time>
      </trkpt>
      <trkpt lat="47.48207" lon="-1.02192">
        <ele>81</ele>
        <time>2021-10-13T15:02:10Z</time>
      </trkpt>
      <trkpt lat="47.48202" lon="-1.02197">
        <ele>82</ele>
        <time>2021-10-13T15:02:12Z</time>
      </trkpt>
      <trkpt lat="47.48193" lon="-1.02206">
        <ele>83</ele>
        <time>2021-10-13T15:02:15Z</time>
      </trkpt>
      <trkpt lat="47.48172" lon="-1.02224">
        <ele>84</ele>
        <time>2021-10-13T15:02:22Z</time>
      </trkpt>
      <trkpt lat="47.4814" lon="-1.02243">
        <ele>84</ele>
        <time>2021-10-13T15:02:31Z</time>
      </trkpt>
      <trkpt lat="47.48136" lon="-1.02245">
        <ele>84</ele>
        <time>2021-10-13T15:02:32Z</time>
      </trkpt>
      <trkpt lat="47.48117" lon="-1.02255">
        <ele>84</ele>
        <time>2021-10-13T15:02:37Z</time>
      </trkpt>
      <trkpt lat="47.48077" lon="-1.02276">
        <ele>85</ele>
        <time>2021-10-13T15:02:46Z</time>
      </trkpt>
      <trkpt lat="47.48031" lon="-1.02301">
        <ele>84</ele>
        <time>2021-10-13T15:02:56Z</time>
      </trkpt>
      <trkpt lat="47.48016" lon="-1.023">
        <ele>83</ele>
        <time>2021-10-13T15:03:00Z</time>
      </trkpt>
      <trkpt lat="47.48014" lon="-1.02295">
        <ele>83</ele>
        <time>2021-10-13T15:03:01Z</time>
      </trkpt>
      <trkpt lat="47.48011" lon="-1.02276">
        <ele>83</ele>
        <time>2021-10-13T15:03:04Z</time>
      </trkpt>
      <trkpt lat="47.48011" lon="-1.02269">
        <ele>83</ele>
        <time>2021-10-13T15:03:05Z</time>
      </trkpt>
      <trkpt lat="47.48002" lon="-1.02204">
        <ele>82</ele>
        <time>2021-10-13T15:03:14Z</time>
      </trkpt>
      <trkpt lat="47.47993" lon="-1.02153">
        <ele>82</ele>
        <time>2021-10-13T15:03:21Z</time>
      </trkpt>
      <trkpt lat="47.47982" lon="-1.02105">
        <ele>81</ele>
        <time>2021-10-13T15:03:28Z</time>
      </trkpt>
      <trkpt lat="47.47964" lon="-1.02031">
        <ele>80</ele>
        <time>2021-10-13T15:03:39Z</time>
      </trkpt>
      <trkpt lat="47.47949" lon="-1.01968">
        <ele>82</ele>
        <time>2021-10-13T15:03:48Z</time>
      </trkpt>
      <trkpt lat="47.47932" lon="-1.01891">
        <ele>82</ele>
        <time>2021-10-13T15:03:59Z</time>
      </trkpt>
      <trkpt lat="47.47917" lon="-1.01819">
        <ele>83</ele>
        <time>2021-10-13T15:04:10Z</time>
      </trkpt>
      <trkpt lat="47.47901" lon="-1.01748">
        <ele>82</ele>
        <time>2021-10-13T15:04:21Z</time>
      </trkpt>
      <trkpt lat="47.47886" lon="-1.01708">
        <ele>82</ele>
        <time>2021-10-13T15:04:28Z</time>
      </trkpt>
      <trkpt lat="47.47882" lon="-1.01704">
        <ele>82</ele>
        <time>2021-10-13T15:04:29Z</time>
      </trkpt>
      <trkpt lat="47.47869" lon="-1.01704">
        <ele>82</ele>
        <time>2021-10-13T15:04:32Z</time>
      </trkpt>
      <trkpt lat="47.47859" lon="-1.0171">
        <ele>83</ele>
        <time>2021-10-13T15:04:34Z</time>
      </trkpt>
      <trkpt lat="47.47836" lon="-1.01721">
        <ele>83</ele>
        <time>2021-10-13T15:04:38Z</time>
      </trkpt>
      <trkpt lat="47.47812" lon="-1.01731">
        <ele>81</ele>
        <time>2021-10-13T15:04:42Z</time>
      </trkpt>
      <trkpt lat="47.47786" lon="-1.01739">
        <ele>80</ele>
        <time>2021-10-13T15:04:46Z</time>
      </trkpt>
      <trkpt lat="47.4778" lon="-1.01742">
        <ele>80</ele>
        <time>2021-10-13T15:04:47Z</time>
      </trkpt>
      <trkpt lat="47.47754" lon="-1.0175">
        <ele>79</ele>
        <time>2021-10-13T15:04:51Z</time>
      </trkpt>
      <trkpt lat="47.47721" lon="-1.01761">
        <ele>78</ele>
        <time>2021-10-13T15:04:56Z</time>
      </trkpt>
      <trkpt lat="47.47715" lon="-1.01763">
        <ele>78</ele>
        <time>2021-10-13T15:04:57Z</time>
      </trkpt>
      <trkpt lat="47.47694" lon="-1.0177">
        <ele>78</ele>
        <time>2021-10-13T15:05:00Z</time>
      </trkpt>
      <trkpt lat="47.47674" lon="-1.01777">
        <ele>77</ele>
        <time>2021-10-13T15:05:03Z</time>
      </trkpt>
      <trkpt lat="47.47643" lon="-1.01787">
        <ele>76</ele>
        <time>2021-10-13T15:05:08Z</time>
      </trkpt>
      <trkpt lat="47.47636" lon="-1.01789">
        <ele>76</ele>
        <time>2021-10-13T15:05:09Z</time>
      </trkpt>
      <trkpt lat="47.47626" lon="-1.0179">
        <ele>76</ele>
        <time>2021-10-13T15:05:11Z</time>
      </trkpt>
      <trkpt lat="47.47622" lon="-1.01786">
        <ele>76</ele>
        <time>2021-10-13T15:05:12Z</time>
      </trkpt>
      <trkpt lat="47.4762" lon="-1.01781">
        <ele>76</ele>
        <time>2021-10-13T15:05:13Z</time>
      </trkpt>
      <trkpt lat="47.47617" lon="-1.01769">
        <ele>77</ele>
        <time>2021-10-13T15:05:15Z</time>
      </trkpt>
      <trkpt lat="47.47616" lon="-1.01751">
        <ele>77</ele>
        <time>2021-10-13T15:05:18Z</time>
      </trkpt>
      <trkpt lat="47.47615" lon="-1.01745">
        <ele>78</ele>
        <time>2021-10-13T15:05:19Z</time>
      </trkpt>
      <trkpt lat="47.47612" lon="-1.0174">
        <ele>78</ele>
        <time>2021-10-13T15:05:20Z</time>
      </trkpt>
      <trkpt lat="47.47606" lon="-1.01736">
        <ele>78</ele>
        <time>2021-10-13T15:05:23Z</time>
      </trkpt>
      <trkpt lat="47.47601" lon="-1.01735">
        <ele>78</ele>
        <time>2021-10-13T15:05:25Z</time>
      </trkpt>
      <trkpt lat="47.4759" lon="-1.01742">
        <ele>78</ele>
        <time>2021-10-13T15:05:28Z</time>
      </trkpt>
      <trkpt lat="47.47582" lon="-1.0176">
        <ele>77</ele>
        <time>2021-10-13T15:05:31Z</time>
      </trkpt>
      <trkpt lat="47.4758" lon="-1.01767">
        <ele>77</ele>
        <time>2021-10-13T15:05:32Z</time>
      </trkpt>
      <trkpt lat="47.47565" lon="-1.01801">
        <ele>77</ele>
        <time>2021-10-13T15:05:37Z</time>
      </trkpt>
      <trkpt lat="47.47557" lon="-1.0181">
        <ele>76</ele>
        <time>2021-10-13T15:05:39Z</time>
      </trkpt>
      <trkpt lat="47.47536" lon="-1.01817">
        <ele>75</ele>
        <time>2021-10-13T15:05:43Z</time>
      </trkpt>
      <trkpt lat="47.47531" lon="-1.01817">
        <ele>75</ele>
        <time>2021-10-13T15:05:44Z</time>
      </trkpt>
      <trkpt lat="47.47496" lon="-1.01819">
        <ele>75</ele>
        <time>2021-10-13T15:05:51Z</time>
      </trkpt>
      <trkpt lat="47.47452" lon="-1.01817">
        <ele>76</ele>
        <time>2021-10-13T15:06:00Z</time>
      </trkpt>
      <trkpt lat="47.47446" lon="-1.01817">
        <ele>76</ele>
        <time>2021-10-13T15:06:01Z</time>
      </trkpt>
      <trkpt lat="47.47408" lon="-1.01821">
        <ele>76</ele>
        <time>2021-10-13T15:06:08Z</time>
      </trkpt>
      <trkpt lat="47.47359" lon="-1.01833">
        <ele>74</ele>
        <time>2021-10-13T15:06:16Z</time>
      </trkpt>
      <trkpt lat="47.47324" lon="-1.01846">
        <ele>74</ele>
        <time>2021-10-13T15:06:21Z</time>
      </trkpt>
      <trkpt lat="47.47309" lon="-1.01852">
        <ele>74</ele>
        <time>2021-10-13T15:06:23Z</time>
      </trkpt>
      <trkpt lat="47.47303" lon="-1.01855">
        <ele>73</ele>
        <time>2021-10-13T15:06:24Z</time>
      </trkpt>
      <trkpt lat="47.47292" lon="-1.01859">
        <ele>73</ele>
        <time>2021-10-13T15:06:26Z</time>
      </trkpt>
      <trkpt lat="47.47287" lon="-1.01863">
        <ele>73</ele>
        <time>2021-10-13T15:06:27Z</time>
      </trkpt>
      <trkpt lat="47.4728" lon="-1.01882">
        <ele>72</ele>
        <time>2021-10-13T15:06:30Z</time>
      </trkpt>
      <trkpt lat="47.47282" lon="-1.01915">
        <ele>72</ele>
        <time>2021-10-13T15:06:34Z</time>
      </trkpt>
      <trkpt lat="47.47291" lon="-1.01973">
        <ele>71</ele>
        <time>2021-10-13T15:06:41Z</time>
      </trkpt>
      <trkpt lat="47.47306" lon="-1.02044">
        <ele>72</ele>
        <time>2021-10-13T15:06:50Z</time>
      </trkpt>
      <trkpt lat="47.47308" lon="-1.02075">
        <ele>71</ele>
        <time>2021-10-13T15:06:54Z</time>
      </trkpt>
      <trkpt lat="47.47308" lon="-1.02083">
        <ele>71</ele>
        <time>2021-10-13T15:06:55Z</time>
      </trkpt>
      <trkpt lat="47.47302" lon="-1.02137">
        <ele>69</ele>
        <time>2021-10-13T15:07:01Z</time>
      </trkpt>
      <trkpt lat="47.47308" lon="-1.02174">
        <ele>70</ele>
        <time>2021-10-13T15:07:05Z</time>
      </trkpt>
      <trkpt lat="47.47314" lon="-1.02199">
        <ele>70</ele>
        <time>2021-10-13T15:07:08Z</time>
      </trkpt>
      <trkpt lat="47.47326" lon="-1.02239">
        <ele>70</ele>
        <time>2021-10-13T15:07:13Z</time>
      </trkpt>
      <trkpt lat="47.47349" lon="-1.02317">
        <ele>70</ele>
        <time>2021-10-13T15:07:23Z</time>
      </trkpt>
      <trkpt lat="47.47351" lon="-1.02324">
        <ele>70</ele>
        <time>2021-10-13T15:07:24Z</time>
      </trkpt>
      <trkpt lat="47.4737" lon="-1.02396">
        <ele>70</ele>
        <time>2021-10-13T15:07:34Z</time>
      </trkpt>
      <trkpt lat="47.47386" lon="-1.02456">
        <ele>70</ele>
        <time>2021-10-13T15:07:43Z</time>
      </trkpt>
      <trkpt lat="47.47396" lon="-1.02509">
        <ele>71</ele>
        <time>2021-10-13T15:07:51Z</time>
      </trkpt>
      <trkpt lat="47.47403" lon="-1.02553">
        <ele>71</ele>
        <time>2021-10-13T15:07:59Z</time>
      </trkpt>
      <trkpt lat="47.47402" lon="-1.02569">
        <ele>72</ele>
        <time>2021-10-13T15:08:04Z</time>
      </trkpt>
      <trkpt lat="47.47401" lon="-1.02574">
        <ele>72</ele>
        <time>2021-10-13T15:08:10Z</time>
      </trkpt>
      <trkpt lat="47.47401" lon="-1.02576">
        <ele>72</ele>
        <time>2021-10-13T15:08:11Z</time>
      </trkpt>
      <trkpt lat="47.47397" lon="-1.02583">
        <ele>72</ele>
        <time>2021-10-13T15:08:14Z</time>
      </trkpt>
      <trkpt lat="47.47392" lon="-1.02586">
        <ele>72</ele>
        <time>2021-10-13T15:08:16Z</time>
      </trkpt>
      <trkpt lat="47.47377" lon="-1.02595">
        <ele>72</ele>
        <time>2021-10-13T15:08:21Z</time>
      </trkpt>
      <trkpt lat="47.47375" lon="-1.026">
        <ele>72</ele>
        <time>2021-10-13T15:08:22Z</time>
      </trkpt>
      <trkpt lat="47.47377" lon="-1.02616">
        <ele>72</ele>
        <time>2021-10-13T15:08:25Z</time>
      </trkpt>
      <trkpt lat="47.47377" lon="-1.02622">
        <ele>72</ele>
        <time>2021-10-13T15:08:26Z</time>
      </trkpt>
      <trkpt lat="47.47383" lon="-1.02669">
        <ele>71</ele>
        <time>2021-10-13T15:08:34Z</time>
      </trkpt>
      <trkpt lat="47.4739" lon="-1.02722">
        <ele>68</ele>
        <time>2021-10-13T15:08:41Z</time>
      </trkpt>
      <trkpt lat="47.47393" lon="-1.02738">
        <ele>68</ele>
        <time>2021-10-13T15:08:43Z</time>
      </trkpt>
      <trkpt lat="47.47398" lon="-1.02771">
        <ele>67</ele>
        <time>2021-10-13T15:08:47Z</time>
      </trkpt>
      <trkpt lat="47.47401" lon="-1.0279">
        <ele>66</ele>
        <time>2021-10-13T15:08:49Z</time>
      </trkpt>
      <trkpt lat="47.47402" lon="-1.02799">
        <ele>66</ele>
        <time>2021-10-13T15:08:50Z</time>
      </trkpt>
      <trkpt lat="47.47406" lon="-1.02826">
        <ele>66</ele>
        <time>2021-10-13T15:08:53Z</time>
      </trkpt>
      <trkpt lat="47.47408" lon="-1.0284">
        <ele>65</ele>
        <time>2021-10-13T15:08:55Z</time>
      </trkpt>
      <trkpt lat="47.47409" lon="-1.02846">
        <ele>65</ele>
        <time>2021-10-13T15:08:56Z</time>
      </trkpt>
      <trkpt lat="47.47417" lon="-1.02874">
        <ele>64</ele>
        <time>2021-10-13T15:09:01Z</time>
      </trkpt>
      <trkpt lat="47.47416" lon="-1.02882">
        <ele>64</ele>
        <time>2021-10-13T15:09:03Z</time>
      </trkpt>
      <trkpt lat="47.47414" lon="-1.02885">
        <ele>64</ele>
        <time>2021-10-13T15:09:04Z</time>
      </trkpt>
      <trkpt lat="47.474" lon="-1.02904">
        <ele>64</ele>
        <time>2021-10-13T15:09:11Z</time>
      </trkpt>
      <trkpt lat="47.47397" lon="-1.02905">
        <ele>64</ele>
        <time>2021-10-13T15:09:12Z</time>
      </trkpt>
      <trkpt lat="47.47389" lon="-1.02905">
        <ele>64</ele>
        <time>2021-10-13T15:09:15Z</time>
      </trkpt>
      <trkpt lat="47.47369" lon="-1.0291">
        <ele>65</ele>
        <time>2021-10-13T15:09:21Z</time>
      </trkpt>
      <trkpt lat="47.47354" lon="-1.02919">
        <ele>66</ele>
        <time>2021-10-13T15:09:26Z</time>
      </trkpt>
      <trkpt lat="47.47339" lon="-1.02928">
        <ele>66</ele>
        <time>2021-10-13T15:09:32Z</time>
      </trkpt>
      <trkpt lat="47.4733" lon="-1.02943">
        <ele>66</ele>
        <time>2021-10-13T15:09:36Z</time>
      </trkpt>
      <trkpt lat="47.47306" lon="-1.02979">
        <ele>68</ele>
        <time>2021-10-13T15:09:44Z</time>
      </trkpt>
      <trkpt lat="47.47298" lon="-1.02987">
        <ele>68</ele>
        <time>2021-10-13T15:09:46Z</time>
      </trkpt>
      <trkpt lat="47.47288" lon="-1.02991">
        <ele>68</ele>
        <time>2021-10-13T15:09:48Z</time>
      </trkpt>
      <trkpt lat="47.4726" lon="-1.02995">
        <ele>66</ele>
        <time>2021-10-13T15:09:54Z</time>
      </trkpt>
      <trkpt lat="47.47245" lon="-1.03">
        <ele>65</ele>
        <time>2021-10-13T15:09:57Z</time>
      </trkpt>
      <trkpt lat="47.47236" lon="-1.03004">
        <ele>64</ele>
        <time>2021-10-13T15:09:59Z</time>
      </trkpt>
      <trkpt lat="47.47212" lon="-1.03015">
        <ele>63</ele>
        <time>2021-10-13T15:10:04Z</time>
      </trkpt>
      <trkpt lat="47.47202" lon="-1.03013">
        <ele>62</ele>
        <time>2021-10-13T15:10:06Z</time>
      </trkpt>
      <trkpt lat="47.47186" lon="-1.02998">
        <ele>62</ele>
        <time>2021-10-13T15:10:10Z</time>
      </trkpt>
      <trkpt lat="47.47181" lon="-1.02989">
        <ele>62</ele>
        <time>2021-10-13T15:10:12Z</time>
      </trkpt>
      <trkpt lat="47.47171" lon="-1.0297">
        <ele>62</ele>
        <time>2021-10-13T15:10:16Z</time>
      </trkpt>
      <trkpt lat="47.4716" lon="-1.02952">
        <ele>62</ele>
        <time>2021-10-13T15:10:21Z</time>
      </trkpt>
      <trkpt lat="47.47148" lon="-1.02953">
        <ele>62</ele>
        <time>2021-10-13T15:10:25Z</time>
      </trkpt>
      <trkpt lat="47.47135" lon="-1.02957">
        <ele>62</ele>
        <time>2021-10-13T15:10:30Z</time>
      </trkpt>
      <trkpt lat="47.47123" lon="-1.02963">
        <ele>62</ele>
        <time>2021-10-13T15:10:35Z</time>
      </trkpt>
      <trkpt lat="47.47105" lon="-1.02967">
        <ele>61</ele>
        <time>2021-10-13T15:10:39Z</time>
      </trkpt>
      <trkpt lat="47.471" lon="-1.02969">
        <ele>61</ele>
        <time>2021-10-13T15:10:40Z</time>
      </trkpt>
      <trkpt lat="47.47076" lon="-1.02974">
        <ele>59</ele>
        <time>2021-10-13T15:10:45Z</time>
      </trkpt>
      <trkpt lat="47.47072" lon="-1.02972">
        <ele>60</ele>
        <time>2021-10-13T15:10:46Z</time>
      </trkpt>
      <trkpt lat="47.47063" lon="-1.02963">
        <ele>60</ele>
        <time>2021-10-13T15:10:49Z</time>
      </trkpt>
      <trkpt lat="47.47061" lon="-1.02959">
        <ele>60</ele>
        <time>2021-10-13T15:10:50Z</time>
      </trkpt>
      <trkpt lat="47.47056" lon="-1.0295">
        <ele>60</ele>
        <time>2021-10-13T15:10:52Z</time>
      </trkpt>
      <trkpt lat="47.47042" lon="-1.02932">
        <ele>61</ele>
        <time>2021-10-13T15:10:57Z</time>
      </trkpt>
      <trkpt lat="47.47023" lon="-1.02919">
        <ele>60</ele>
        <time>2021-10-13T15:11:03Z</time>
      </trkpt>
      <trkpt lat="47.47019" lon="-1.02916">
        <ele>60</ele>
        <time>2021-10-13T15:11:05Z</time>
      </trkpt>
      <trkpt lat="47.4702" lon="-1.0291">
        <ele>60</ele>
        <time>2021-10-13T15:11:07Z</time>
      </trkpt>
    </trkseg>
  </trk>
</gpx>